Provisional Data: Kitchen Creek near Huntington Mills, PA


Please select a monitoring station.
Please select start date.
Please select start date.

Toggle Unit: C/F Toggle Unit: C/F
Sample Time Temperature (C) Temperature (F) Specific Conductivity (mS/cm) pH   Turbidity (NTU+) DO (mg/L)
3/23/2021 12:00:00 AM 5.17 41.306 0.059 6.55 0.72 12.45
3/23/2021 12:15:00 AM 5.1 41.18 0.059 6.54 0.76 12.47
3/23/2021 12:30:00 AM 5.03 41.054 0.059 6.54 0.71 12.49
3/23/2021 12:45:00 AM 4.96 40.928 0.059 6.55 0.73 12.51
3/23/2021 1:00:00 AM 4.89 40.802 0.059 6.53 0.69 12.54
3/23/2021 1:15:00 AM 4.83 40.694 0.059 6.55 0.71 12.56
3/23/2021 1:30:00 AM 4.76 40.568 0.059 6.49 0.71 12.58
3/23/2021 1:45:00 AM 4.69 40.442 0.059 6.54 0.7 12.61
3/23/2021 2:00:00 AM 4.62 40.316 0.059 6.53 0.71 12.63
3/23/2021 2:15:00 AM 4.56 40.208 0.059 6.52 0.72 12.65
3/23/2021 2:30:00 AM 4.49 40.082 0.059 6.54 0.74 12.68
3/23/2021 2:45:00 AM 4.42 39.956 0.059 6.53 0.7 12.71
3/23/2021 3:00:00 AM 4.36 39.848 0.059 6.44 0.7 12.72
3/23/2021 3:15:00 AM 4.3 39.74 0.059 6.53 0.67 12.74
3/23/2021 3:30:00 AM 4.24 39.632 0.059 6.54 0.61 12.77
3/23/2021 3:45:00 AM 4.18 39.524 0.059 6.53 0.65 12.78
3/23/2021 4:00:00 AM 4.12 39.416 0.059 6.53 0.7 12.81
3/23/2021 4:15:00 AM 4.06 39.308 0.059 6.49 0.68 12.83
3/23/2021 4:30:00 AM 4.01 39.218 0.059 6.53 0.64 12.86
3/23/2021 4:45:00 AM 3.95 39.11 0.059 6.48 0.64 12.87
3/23/2021 5:00:00 AM 3.89 39.002 0.059 6.52 0.63 12.89
3/23/2021 5:15:00 AM 3.84 38.912 0.059 6.51 0.68 12.91
3/23/2021 5:30:00 AM 3.78 38.804 0.059 6.44 0.65 12.93
3/23/2021 5:45:00 AM 3.73 38.714 0.059 6.52 0.73 12.95
3/23/2021 6:00:00 AM 3.67 38.606 0.059 6.52 0.65 12.97
3/23/2021 6:15:00 AM 3.62 38.516 0.059 6.52 0.73 12.99
3/23/2021 6:30:00 AM 3.56 38.408 0.059 6.49 0.64 13.01
3/23/2021 6:45:00 AM 3.51 38.318 0.059 6.52 0.59 13.03
3/23/2021 7:00:00 AM 3.46 38.228 0.059 6.5 0.64 13.05
3/23/2021 7:15:00 AM 3.42 38.156 0.059 6.5 0.61 13.07
3/23/2021 7:30:00 AM 3.38 38.084 0.059 6.51 0.64 13.11
3/23/2021 7:45:00 AM 3.34 38.012 0.059 6.51 0.61 13.15
3/23/2021 8:00:00 AM 3.31 37.958 0.059 6.53 0.59 13.18
3/23/2021 8:15:00 AM 3.28 37.904 0.059 6.52 0.55 13.21
3/23/2021 8:30:00 AM 3.27 37.886 0.059 6.53 0.69 13.24
3/23/2021 8:45:00 AM 3.27 37.886 0.059 6.55 0.6 13.26
3/23/2021 9:00:00 AM 3.27 37.886 0.059 6.54 0.62 13.28
3/23/2021 9:15:00 AM 3.3 37.94 0.059 6.56 0.64 13.3
3/23/2021 9:30:00 AM 3.34 38.012 0.059 6.54 0.61 13.3
3/23/2021 9:45:00 AM 3.4 38.12 0.059 6.5 0.57 13.3
3/23/2021 10:00:00 AM 3.48 38.264 0.059 6.58 0.57 13.29
3/23/2021 10:15:00 AM 3.58 38.444 0.059 6.56 0.58 13.27
3/23/2021 10:30:00 AM 3.7 38.66 0.059 6.57 0.55 13.24
3/23/2021 10:45:00 AM 3.84 38.912 0.059 6.59 0.5 13.2
3/23/2021 11:00:00 AM 4 39.2 0.059 6.59 0.65 13.16
3/23/2021 11:15:00 AM 4.17 39.506 0.059 6.61 0.55 13.1
3/23/2021 11:30:00 AM 4.34 39.812 0.059 6.6 0.61 13.04
3/23/2021 11:45:00 AM 4.54 40.172 0.059 6.53 0.54 12.98
3/23/2021 12:00:00 PM 4.76 40.568 0.059 6.63 0.57 12.91
3/23/2021 12:15:00 PM 5 41 0.058 6.63 0.5 12.84
3/23/2021 12:30:00 PM 5.24 41.432 0.058 6.61 0.55 12.77
3/23/2021 12:45:00 PM 5.45 41.81 0.058 6.64 0.5 12.7
3/23/2021 1:00:00 PM 5.63 42.134 0.058 6.64 0.49 12.63
3/23/2021 1:15:00 PM 5.81 42.458 0.058 6.64 0.54 12.57
3/23/2021 1:30:00 PM 5.93 42.674 0.058 6.62 0.53 12.52
3/23/2021 1:45:00 PM 6.01 42.818 0.058 6.67 0.5 12.48
3/23/2021 2:00:00 PM 6.11 42.998 0.058 6.66 0.51 12.44
3/23/2021 2:15:00 PM 6.2 43.16 0.058 6.67 0.51 12.41
3/23/2021 2:30:00 PM 6.28 43.304 0.058 6.66 0.51 12.37
3/23/2021 2:45:00 PM 6.34 43.412 0.058 6.66 0.55 12.34
3/23/2021 3:00:00 PM 6.38 43.484 0.058 6.65 0.6 12.31
3/23/2021 3:15:00 PM 6.44 43.592 0.058 6.66 0.56 12.29
3/23/2021 3:30:00 PM 6.46 43.628 0.058 6.67 0.55 12.27
3/23/2021 3:45:00 PM 6.5 43.7 0.058 6.67 0.58 12.25
3/23/2021 4:00:00 PM 6.52 43.736 0.058 6.65 0.49 12.22
3/23/2021 4:15:00 PM 6.55 43.79 0.058 6.67 0.57 12.21
3/23/2021 4:30:00 PM 6.59 43.862 0.058 6.66 0.62 12.2
3/23/2021 4:45:00 PM 6.61 43.898 0.058 6.67 0.53 12.18
3/23/2021 5:00:00 PM 6.64 43.952 0.058 6.67 0.58 12.16
3/23/2021 5:15:00 PM 6.65 43.97 0.058 6.66 0.54 12.14
3/23/2021 5:30:00 PM 6.68 44.024 0.058 6.54 0.58 12.12
3/23/2021 5:45:00 PM 6.69 44.042 0.058 6.65 0.61 12.09
3/23/2021 6:00:00 PM 6.7 44.06 0.058 6.63 0.62 12.06
3/23/2021 6:15:00 PM 6.72 44.096 0.058 6.61 0.61 12.03
3/23/2021 6:30:00 PM 6.73 44.114 0.058 6.59 0.61 12.02
3/23/2021 6:45:00 PM 6.74 44.132 0.058 6.61 0.68 11.99
3/23/2021 7:00:00 PM 6.75 44.15 0.058 6.6 0.62 11.97
3/23/2021 7:15:00 PM 6.75 44.15 0.058 6.45 0.64 11.95
3/23/2021 7:30:00 PM 6.75 44.15 0.058 6.57 0.65 11.93
3/23/2021 7:45:00 PM 6.74 44.132 0.058 6.56 0.61 11.92
3/23/2021 8:00:00 PM 6.72 44.096 0.058 6.56 0.67 11.92
3/23/2021 8:15:00 PM 6.7 44.06 0.058 6.56 0.59 11.91
3/23/2021 8:30:00 PM 6.68 44.024 0.058 6.54 0.72 11.92
3/23/2021 8:45:00 PM 6.65 43.97 0.058 6.55 0.7 11.93
3/23/2021 9:00:00 PM 6.62 43.916 0.058 6.52 0.72 11.93
3/23/2021 9:15:00 PM 6.59 43.862 0.058 6.54 0.63 11.95
3/23/2021 9:30:00 PM 6.56 43.808 0.058 6.54 0.73 11.96
3/23/2021 9:45:00 PM 6.52 43.736 0.058 6.55 0.69 11.97
3/23/2021 10:00:00 PM 6.49 43.682 0.058 6.54 0.74 11.99
3/23/2021 10:15:00 PM 6.46 43.628 0.058 6.54 0.65 11.99
3/23/2021 10:30:00 PM 6.43 43.574 0.058 6.54 0.67 12
3/23/2021 10:45:00 PM 6.39 43.502 0.058 6.52 0.77 12.01
3/23/2021 11:00:00 PM 6.35 43.43 0.058 6.53 0.69 12.03
3/23/2021 11:15:00 PM 6.31 43.358 0.058 6.54 0.73 12.04
3/23/2021 11:30:00 PM 6.27 43.286 0.058 6.43 0.68 12.05
3/23/2021 11:45:00 PM 6.22 43.196 0.058 6.54 0.75 12.06
3/24/2021 12:00:00 AM 6.18 43.124 0.058 6.52 0.68 12.08
3/24/2021 12:15:00 AM 6.14 43.052 0.058 6.53 0.67 12.09
3/24/2021 12:30:00 AM 6.09 42.962 0.058 6.51 0.64 12.11
3/24/2021 12:45:00 AM 6.04 42.872 0.058 6.53 0.71 12.13
3/24/2021 1:00:00 AM 6 42.8 0.058 6.52 0.73 12.15
3/24/2021 1:15:00 AM 5.95 42.71 0.058 6.49 0.75 12.16
3/24/2021 1:30:00 AM 5.91 42.638 0.058 6.52 0.81 12.18
3/24/2021 1:45:00 AM 5.87 42.566 0.058 6.52 0.76 12.19
3/24/2021 2:00:00 AM 5.83 42.494 0.058 6.51 0.7 12.2
3/24/2021 2:15:00 AM 5.79 42.422 0.058 6.52 0.75 12.21
3/24/2021 2:30:00 AM 5.76 42.368 0.058 6.5 0.73 12.23
3/24/2021 2:45:00 AM 5.73 42.314 0.058 6.51 0.77 12.24
3/24/2021 3:00:00 AM 5.71 42.278 0.058 6.51 0.72 12.24
3/24/2021 3:15:00 AM 5.68 42.224 0.058 6.51 0.72 12.24
3/24/2021 3:30:00 AM 5.66 42.188 0.058 6.49 0.71 12.25
3/24/2021 3:45:00 AM 5.64 42.152 0.058 6.5 0.73 12.25
3/24/2021 4:00:00 AM 5.61 42.098 0.058 6.41 0.79 12.27
3/24/2021 4:15:00 AM 5.59 42.062 0.058 6.51 0.76 12.27
3/24/2021 4:30:00 AM 5.57 42.026 0.058 6.5 0.76 12.27
3/24/2021 4:45:00 AM 5.55 41.99 0.058 6.51 0.69 12.28
3/24/2021 5:00:00 AM 5.53 41.954 0.058 6.45 0.66 12.29
3/24/2021 5:15:00 AM 5.52 41.936 0.058 6.5 0.72 12.29
3/24/2021 5:30:00 AM 5.5 41.9 0.058 6.5 0.7 12.3
3/24/2021 5:45:00 AM 5.49 41.882 0.058 6.49 0.68 12.3
3/24/2021 6:00:00 AM 5.48 41.864 0.058 6.49 0.68 12.31
3/24/2021 6:15:00 AM 5.48 41.864 0.058 6.48 0.73 12.3
3/24/2021 6:30:00 AM 5.47 41.846 0.058 6.48 0.69 12.3
3/24/2021 6:45:00 AM 5.47 41.846 0.057 6.45 0.75 12.31
3/24/2021 7:00:00 AM 5.46 41.828 0.057 6.44 0.72 12.31
3/24/2021 7:15:00 AM 5.46 41.828 0.057 6.49 0.76 12.31
3/24/2021 7:30:00 AM 5.46 41.828 0.057 6.47 0.73 12.31
3/24/2021 7:45:00 AM 5.46 41.828 0.057 6.49 0.67 12.32
3/24/2021 8:00:00 AM 5.47 41.846 0.057 6.48 0.68 12.32
3/24/2021 8:15:00 AM 5.47 41.846 0.057 6.5 0.6 12.33
3/24/2021 8:30:00 AM 5.48 41.864 0.057 6.49 0.62 12.33
3/24/2021 8:45:00 AM 5.49 41.882 0.057 6.48 0.68 12.34
3/24/2021 9:00:00 AM 5.5 41.9 0.057 6.5 0.67 12.35
3/24/2021 9:15:00 AM 5.51 41.918 0.057 6.41 0.82 12.36
3/24/2021 9:30:00 AM 5.52 41.936 0.057 6.49 0.71 12.36
3/24/2021 9:45:00 AM 5.54 41.972 0.057 6.51 0.7 12.38
3/24/2021 10:00:00 AM 5.56 42.008 0.057 6.51 0.77 12.38
3/24/2021 10:15:00 AM 5.58 42.044 0.057 6.52 0.73 12.39
3/24/2021 10:30:00 AM 5.61 42.098 0.057 6.52 0.73 12.39
3/24/2021 10:45:00 AM 5.65 42.17 0.056 6.52 0.8 12.4
3/24/2021 11:00:00 AM 5.68 42.224 0.056 6.53 0.89 12.39
3/24/2021 11:15:00 AM 5.72 42.296 0.056 6.51 0.96 12.38
3/24/2021 11:30:00 AM 5.76 42.368 0.056 6.53 1.01 12.34
3/24/2021 11:45:00 AM 5.8 42.44 0.056 6.49 1.03 12.31
3/24/2021 12:00:00 PM 5.84 42.512 0.056 6.55 1.27 12.3
3/24/2021 12:15:00 PM 5.88 42.584 0.055 6.53 1.56 12.29
3/24/2021 12:30:00 PM 5.94 42.692 0.055 6.51 1.86 12.27
3/24/2021 12:45:00 PM 6.01 42.818 0.055 6.55 2.1 12.26
3/24/2021 1:00:00 PM 6.08 42.944 0.055 6.56 2.9 12.24
3/24/2021 1:15:00 PM 6.16 43.088 0.054 6.57 4.27 12.2
3/24/2021 1:30:00 PM 6.24 43.232 0.054 6.58 6.45 12.17
3/24/2021 1:45:00 PM 6.33 43.394 0.054 6.6 9.29 12.13
3/24/2021 2:00:00 PM 6.4 43.52 0.053 6.59 13.17 12.11
3/24/2021 2:15:00 PM 6.46 43.628 0.052 6.57 17.05 12.07
3/24/2021 2:30:00 PM 6.49 43.682 0.052 6.6 21.03 12.06
3/24/2021 2:45:00 PM 6.52 43.736 0.051 6.57 20.97 12.05
3/24/2021 3:00:00 PM 6.54 43.772 0.05 6.55 21.43 12.04
3/24/2021 3:15:00 PM 6.55 43.79 0.05 6.56 31.11 12.03
3/24/2021 3:30:00 PM 6.56 43.808 0.049 6.43 37.91 12.02
3/24/2021 3:45:00 PM 6.56 43.808 0.049 6.51 25.52 12.02
3/24/2021 4:00:00 PM 6.56 43.808 0.048 6.47 37.26 12.02
3/24/2021 4:15:00 PM 6.53 43.754 0.048 6.46 24.89 12.03
3/24/2021 4:30:00 PM 6.49 43.682 0.048 6.45 23.9 12.04
3/24/2021 4:45:00 PM 6.45 43.61 0.048 6.35 31.14 12.05
3/24/2021 5:00:00 PM 6.4 43.52 0.048 6.42 28.22 12.06
3/24/2021 5:15:00 PM 6.36 43.448 0.047 6.4 25.08 12.08
3/24/2021 5:30:00 PM 6.31 43.358 0.046 6.34 22.91 12.1
3/24/2021 5:45:00 PM 6.26 43.268 0.046 6.27 25.29 12.11
3/24/2021 6:00:00 PM 6.21 43.178 0.045 6.31 28.08 12.12
3/24/2021 6:15:00 PM 6.17 43.106 0.045 6.3 22.83 12.14
3/24/2021 6:30:00 PM 6.13 43.034 0.046 6.26 16.66 12.15
3/24/2021 6:45:00 PM 6.09 42.962 0.046 6.28 16.8 12.16
3/24/2021 7:00:00 PM 6.06 42.908 0.046 6.25 18.27 12.17
3/24/2021 7:15:00 PM 6.04 42.872 0.047 6.23 18.99 12.17
3/24/2021 7:30:00 PM 6.03 42.854 0.047 6.25 18.53 12.18
3/24/2021 7:45:00 PM 6.01 42.818 0.021 6.24 29.11 12.18
3/24/2021 8:00:00 PM 5.99 42.782 0.02 6.15 17.22 12.19
3/24/2021 8:15:00 PM 5.97 42.746 0.021 6.23 14.96 12.19
3/24/2021 8:30:00 PM 5.95 42.71 0.049 6.1 13.93 12.2
3/24/2021 8:45:00 PM 5.94 42.692 0.022 6.19 14.57 12.2
3/24/2021 9:00:00 PM 5.93 42.674 0.049 6.2 14.69 12.2
3/24/2021 9:15:00 PM 5.93 42.674 0.049 6.16 13.17 12.2
3/24/2021 9:30:00 PM 5.92 42.656 0.049 6.2 13.03 12.21
3/24/2021 9:45:00 PM 5.91 42.638 0.05 6.19 12.03 12.21
3/24/2021 10:00:00 PM 5.9 42.62 0.05 6.2 11.75 12.21
3/24/2021 10:15:00 PM 5.9 42.62 0.05 6.17 10.52 12.21
3/24/2021 10:30:00 PM 5.89 42.602 0.025 6.13 10.62 12.21
3/24/2021 10:45:00 PM 5.89 42.602 0.023 6.2 9.84 12.21
3/24/2021 11:00:00 PM 5.89 42.602 0.02 6.19 9.42 12.22
3/24/2021 11:15:00 PM 5.88 42.584 0.05 6.2 9.84 12.21
3/24/2021 11:30:00 PM 5.88 42.584 0.023 6.18 8.92 12.22
3/24/2021 11:45:00 PM 5.88 42.584 0.022 6.1 9.24 12.22
3/25/2021 12:00:00 AM 5.87 42.566 0.025 6.21 7.93 12.22
3/25/2021 12:15:00 AM 5.87 42.566 0.021 6.11 8.67 12.22
3/25/2021 12:30:00 AM 5.86 42.548 0.022 6.2 7.98 12.23
3/25/2021 12:45:00 AM 5.86 42.548 0.023 6.14 7.82 12.22
3/25/2021 1:00:00 AM 5.85 42.53 0.025 6.17 7.64 12.22
3/25/2021 1:15:00 AM 5.85 42.53 0.022 6.16 7.01 12.23
3/25/2021 1:30:00 AM 5.84 42.512 0.024 6.19 6.74 12.22
3/25/2021 1:45:00 AM 5.83 42.494 0.023 6.19 7.11 12.22
3/25/2021 2:00:00 AM 5.83 42.494 0.022 6.13 6.6 12.22
3/25/2021 2:15:00 AM 5.82 42.476 0.027 6.19 6.21 12.22
3/25/2021 2:30:00 AM 5.82 42.476 0.023 6.13 6.57 12.23
3/25/2021 2:45:00 AM 5.81 42.458 0.024 6.17 6.04 12.23
3/25/2021 3:00:00 AM 5.8 42.44 0.023 6.18 6.22 12.23
3/25/2021 3:15:00 AM 5.79 42.422 0.023 6.21 5.88 12.23
3/25/2021 3:30:00 AM 5.78 42.404 0.023 6.15 5.74 12.23
3/25/2021 3:45:00 AM 5.77 42.386 0.023 6.14 5.4 12.23
3/25/2021 4:00:00 AM 5.77 42.386 0.024 6.16 5.27 12.23
3/25/2021 4:15:00 AM 5.76 42.368 0.023 6.17 5.66 12.23
3/25/2021 4:30:00 AM 5.76 42.368 0.024 6.17 5.29 12.23
3/25/2021 4:45:00 AM 5.76 42.368 0.024 6.19 5.54 12.23
3/25/2021 5:00:00 AM 5.75 42.35 0.023 6.2 5.14 12.23
3/25/2021 5:15:00 AM 5.75 42.35 0.024 6.13 4.95 12.24
3/25/2021 5:30:00 AM 5.75 42.35 0.024 6.18 4.65 12.24
3/25/2021 5:45:00 AM 5.74 42.332 0.025 6.19 4.77 12.24
3/25/2021 6:00:00 AM 5.74 42.332 0.024 6.22 4.53 12.25
3/25/2021 6:15:00 AM 5.74 42.332 0.024 6.13 4.74 12.25
3/25/2021 6:30:00 AM 5.74 42.332 0.025 6.18 4.3 12.25
3/25/2021 6:45:00 AM 5.73 42.314 0.024 6.22 4.47 12.25
3/25/2021 7:00:00 AM 5.73 42.314 0.023 6.18 4.25 12.25
3/25/2021 7:15:00 AM 5.73 42.314 0.024 6.15 4.02 12.25
3/25/2021 7:30:00 AM 5.74 42.332 0.024 6.22 3.91 12.26
3/25/2021 7:45:00 AM 5.76 42.368 0.024 6.19 4.02 12.26
3/25/2021 8:00:00 AM 5.77 42.386 0.024 6.18 3.97 12.26
3/25/2021 8:15:00 AM 5.79 42.422 0.022 6.19 3.7 12.26
3/25/2021 8:30:00 AM 5.82 42.476 0.023 6.21 3.79 12.26
3/25/2021 8:45:00 AM 5.85 42.53 0.023 6.24 3.52 12.26
3/25/2021 9:00:00 AM 5.87 42.566 0.023 6.18 3.6 12.26
3/25/2021 9:15:00 AM 5.9 42.62 0.025 6.25 3.42 12.25
3/25/2021 9:30:00 AM 5.94 42.692 0.024 6.22 3.19 12.25
3/25/2021 9:45:00 AM 5.97 42.746 0.022 6.23 3.42 12.23
3/25/2021 10:00:00 AM 6 42.8 0.023 6.27 3.33 12.23
3/25/2021 10:15:00 AM 6.05 42.89 0.024 6.31 3.08 12.22
3/25/2021 10:30:00 AM 6.09 42.962 0.022 6.32 3.06 12.22
3/25/2021 10:45:00 AM 6.13 43.034 0.023 6.27 3.21 12.21
3/25/2021 11:00:00 AM 6.17 43.106 0.023 6.31 3.32 12.21
3/25/2021 11:15:00 AM 6.23 43.214 0.023 6.33 3.03 12.19
3/25/2021 11:30:00 AM 6.29 43.322 0.021 6.33 2.98 12.18
3/25/2021 11:45:00 AM 6.36 43.448 0.022 6.34 3.05 12.15
3/25/2021 12:00:00 PM 6.42 43.556 0.021 6.37 2.92 12.14
3/25/2021 12:15:00 PM 6.51 43.718 0.022 6.32 3.08 12.13
3/25/2021 12:30:00 PM 6.62 43.916 0.023 6.39 2.96 12.09
3/25/2021 12:45:00 PM 6.78 44.204 0.022 6.32 2.83 12.05
3/25/2021 1:00:00 PM 6.87 44.366 0.021 6.39 2.89 12.02
3/25/2021 1:15:00 PM 6.94 44.492 0.021 6.38 2.92 12
3/25/2021 1:30:00 PM 7.06 44.708 0.023 6.41 2.66 11.97
3/25/2021 1:45:00 PM 7.23 45.014 0.023 6.34 2.89 11.92
3/25/2021 2:00:00 PM 7.45 45.41 0.022 6.39 2.84 11.85
3/25/2021 2:15:00 PM 7.56 45.608 0.023 6.39 2.84 11.82
3/25/2021 2:30:00 PM 7.7 45.86 0.021 6.44 2.71 11.77
3/25/2021 2:45:00 PM 7.84 46.112 0.023 6.34 2.65 11.71
3/25/2021 3:00:00 PM 7.96 46.328 0.022 6.35 2.87 11.67
3/25/2021 3:15:00 PM 8.07 46.526 0.023 6.44 2.62 11.64
3/25/2021 3:30:00 PM 8.14 46.652 0.023 6.37 2.55 11.6
3/25/2021 3:45:00 PM 8.22 46.796 0.023 6.42 2.58 11.58
3/25/2021 4:00:00 PM 8.29 46.922 0.023 6.4 2.67 11.55
3/25/2021 4:15:00 PM 8.36 47.048 0.022 6.41 2.71 11.53
3/25/2021 4:30:00 PM 8.43 47.174 0.05 6.45 2.85 11.49
3/25/2021 4:45:00 PM 8.51 47.318 0.023 6.34 2.64 11.47
3/25/2021 5:00:00 PM 8.58 47.444 0.05 6.4 2.62 11.44
3/25/2021 5:15:00 PM 8.65 47.57 0.05 6.38 2.77 11.41
3/25/2021 5:30:00 PM 8.7 47.66 0.024 6.41 2.6 11.39
3/25/2021 5:45:00 PM 8.74 47.732 0.021 6.43 2.61 11.36
3/25/2021 6:00:00 PM 8.77 47.786 0.023 6.42 2.54 11.34
3/25/2021 6:15:00 PM 8.79 47.822 0.05 6.41 2.67 11.32
3/25/2021 6:30:00 PM 8.81 47.858 0.05 6.41 2.55 11.31
3/25/2021 6:45:00 PM 8.81 47.858 0.05 6.39 2.48 11.29
3/25/2021 7:00:00 PM 8.81 47.858 0.05 6.4 2.56 11.29
3/25/2021 7:15:00 PM 8.81 47.858 0.05 6.38 2.51 11.27
3/25/2021 7:30:00 PM 8.8 47.84 0.05 6.39 2.5 11.27
3/25/2021 7:45:00 PM 8.78 47.804 0.05 6.32 2.48 11.27
3/25/2021 8:00:00 PM 8.76 47.768 0.05 6.39 2.69 11.27
3/25/2021 8:15:00 PM 8.74 47.732 0.05 6.36 2.72 11.27
3/25/2021 8:30:00 PM 8.72 47.696 0.05 6.37 2.46 11.28
3/25/2021 8:45:00 PM 8.7 47.66 0.05 6.39 2.46 11.29
3/25/2021 9:00:00 PM 8.68 47.624 0.05 6.38 2.39 11.3
3/25/2021 9:15:00 PM 8.65 47.57 0.05 6.3 2.5 11.31
3/25/2021 9:30:00 PM 8.62 47.516 0.05 6.38 2.57 11.32
3/25/2021 9:45:00 PM 8.59 47.462 0.05 6.37 2.36 11.33
3/25/2021 10:00:00 PM 8.55 47.39 0.05 6.36 2.46 11.33
3/25/2021 10:15:00 PM 8.52 47.336 0.05 6.37 2.41 11.34
3/25/2021 10:30:00 PM 8.48 47.264 0.05 6.26 2.48 11.35
3/25/2021 10:45:00 PM 8.44 47.192 0.05 6.38 2.41 11.36
3/25/2021 11:00:00 PM 8.4 47.12 0.05 6.32 2.27 11.37
3/25/2021 11:15:00 PM 8.36 47.048 0.05 6.36 2.34 11.37
3/25/2021 11:30:00 PM 8.32 46.976 0.05 6.35 2.39 11.39
3/25/2021 11:45:00 PM 8.28 46.904 0.05 6.35 2.46 11.39
3/26/2021 12:00:00 AM 8.24 46.832 0.05 6.34 2.26 11.41
3/26/2021 12:15:00 AM 8.21 46.778 0.05 6.36 2.29 11.41
3/26/2021 12:30:00 AM 8.18 46.724 0.05 6.35 2.24 11.42
3/26/2021 12:45:00 AM 8.15 46.67 0.05 6.34 2.28 11.42
3/26/2021 1:00:00 AM 8.12 46.616 0.05 6.37 2.27 11.44
3/26/2021 1:15:00 AM 8.1 46.58 0.05 6.36 2.26 11.44
3/26/2021 1:30:00 AM 8.07 46.526 0.05 6.35 2.16 11.44
3/26/2021 1:45:00 AM 8.05 46.49 0.05 6.35 2.34 11.44
3/26/2021 2:00:00 AM 8.04 46.472 0.05 6.36 2.23 11.44
3/26/2021 2:15:00 AM 8.02 46.436 0.05 6.35 2.07 11.44
3/26/2021 2:30:00 AM 8.01 46.418 0.05 6.36 2.27 11.44
3/26/2021 2:45:00 AM 8 46.4 0.05 6.35 2.16 11.45
3/26/2021 3:00:00 AM 7.99 46.382 0.05 6.33 2.06 11.44
3/26/2021 3:15:00 AM 7.98 46.364 0.05 6.33 2.13 11.44
3/26/2021 3:30:00 AM 7.98 46.364 0.05 6.31 2.15 11.44
3/26/2021 3:45:00 AM 7.99 46.382 0.05 6.36 2.44 11.44
3/26/2021 4:00:00 AM 8 46.4 0.05 6.34 2.15 11.43
3/26/2021 4:15:00 AM 8.01 46.418 0.05 6.36 2.21 11.42
3/26/2021 4:30:00 AM 8.03 46.454 0.05 6.35 2.05 11.42
3/26/2021 4:45:00 AM 8.03 46.454 0.05 6.35 2.14 11.41
3/26/2021 5:00:00 AM 8.03 46.454 0.05 6.36 2.06 11.41
3/26/2021 5:15:00 AM 8.03 46.454 0.05 6.36 2.15 11.4
3/26/2021 5:30:00 AM 8.02 46.436 0.05 6.36 2.09 11.39
3/26/2021 5:45:00 AM 8.01 46.418 0.05 6.38 2.02 11.41
3/26/2021 6:00:00 AM 8 46.4 0.05 6.34 2.01 11.4
3/26/2021 6:15:00 AM 7.99 46.382 0.05 6.36 1.98 11.4
3/26/2021 6:30:00 AM 7.97 46.346 0.05 6.35 2.05 11.4
3/26/2021 6:45:00 AM 7.96 46.328 0.05 6.36 2.05 11.4
3/26/2021 7:00:00 AM 7.96 46.328 0.05 6.31 1.94 11.4
3/26/2021 7:15:00 AM 7.97 46.346 0.05 6.35 2.17 11.41
3/26/2021 7:30:00 AM 7.98 46.364 0.05 6.38 2.09 11.41
3/26/2021 7:45:00 AM 7.99 46.382 0.05 6.37 2.06 11.41
3/26/2021 8:00:00 AM 8 46.4 0.05 6.31 1.94 11.42
3/26/2021 8:15:00 AM 8.02 46.436 0.05 6.38 1.92 11.42
3/26/2021 8:30:00 AM 8.04 46.472 0.05 6.35 1.87 11.41
3/26/2021 8:45:00 AM 8.08 46.544 0.05 6.41 1.87 11.42
3/26/2021 9:00:00 AM 8.12 46.616 0.05 6.32 1.79 11.42
3/26/2021 9:15:00 AM 8.18 46.724 0.049 6.4 1.75 11.41
3/26/2021 9:30:00 AM 8.24 46.832 0.05 6.41 1.72 11.41
3/26/2021 9:45:00 AM 8.34 47.012 0.05 6.46 1.83 11.4
3/26/2021 10:00:00 AM 8.47 47.246 0.05 6.41 1.86 11.37
3/26/2021 10:15:00 AM 8.6 47.48 0.05 6.48 1.85 11.34
3/26/2021 10:30:00 AM 8.74 47.732 0.05 6.42 1.82 11.31
3/26/2021 10:45:00 AM 8.86 47.948 0.05 6.5 1.81 11.26
3/26/2021 11:00:00 AM 9.01 48.218 0.05 6.49 1.74 11.23
3/26/2021 11:15:00 AM 9.14 48.452 0.05 6.41 1.73 11.19
3/26/2021 11:30:00 AM 9.23 48.614 0.05 6.49 1.78 11.17
3/26/2021 11:45:00 AM 9.32 48.776 0.05 6.5 1.85 11.14
3/26/2021 12:00:00 PM 9.45 49.01 0.05 6.51 1.9 11.11
3/26/2021 12:15:00 PM 9.62 49.316 0.05 6.41 1.69 11.08
3/26/2021 12:30:00 PM 9.84 49.712 0.05 6.49 1.91 11.04
3/26/2021 12:45:00 PM 10.03 50.054 0.05 6.51 1.72 11
3/26/2021 1:00:00 PM 10.16 50.288 0.05 6.53 1.67 10.94
3/26/2021 1:15:00 PM 10.3 50.54 0.05 6.51 1.85 10.91
3/26/2021 1:30:00 PM 10.41 50.738 0.049 6.52 1.85 10.89
3/26/2021 1:45:00 PM 10.4 50.72 0.049 6.52 1.82 10.89
3/26/2021 2:00:00 PM 10.39 50.702 0.049 6.52 1.85 10.86
3/26/2021 2:15:00 PM 10.34 50.612 0.049 6.49 1.84 10.87
3/26/2021 2:30:00 PM 10.28 50.504 0.049 6.49 1.86 10.89
3/26/2021 2:45:00 PM 10.25 50.45 0.049 6.52 1.93 10.9
3/26/2021 3:00:00 PM 10.25 50.45 0.049 6.43 1.83 10.91
3/26/2021 3:15:00 PM 10.33 50.594 0.049 6.53 1.81 10.9
3/26/2021 3:30:00 PM 10.36 50.648 0.049 6.51 1.97 10.89
3/26/2021 3:45:00 PM 10.36 50.648 0.049 6.49 1.99 10.88
3/26/2021 4:00:00 PM 10.34 50.612 0.049 6.52 1.84 10.87
3/26/2021 4:15:00 PM 10.29 50.522 0.049 6.47 2.2 10.88
3/26/2021 4:30:00 PM 10.25 50.45 0.049 6.51 2.01 10.89
3/26/2021 4:45:00 PM 10.21 50.378 0.049 6.5 1.96 10.9
3/26/2021 5:00:00 PM 10.15 50.27 0.05 6.48 2 10.91
3/26/2021 5:15:00 PM 10.07 50.126 0.05 6.5 2.03 10.93
3/26/2021 5:30:00 PM 9.99 49.982 0.05 6.51 1.96 10.95
3/26/2021 5:45:00 PM 9.91 49.838 0.05 6.51 1.97 10.97
3/26/2021 6:00:00 PM 9.85 49.73 0.05 6.42 1.98 11
3/26/2021 6:15:00 PM 9.78 49.604 0.05 6.48 1.97 11.01
3/26/2021 6:30:00 PM 9.72 49.496 0.05 6.41 1.94 11.03
3/26/2021 6:45:00 PM 9.65 49.37 0.05 6.49 1.94 11.05
3/26/2021 7:00:00 PM 9.59 49.262 0.05 6.48 1.95 11.06
3/26/2021 7:15:00 PM 9.51 49.118 0.05 6.47 2.13 11.07
3/26/2021 7:30:00 PM 9.44 48.992 0.05 6.36 2.02 11.08
3/26/2021 7:45:00 PM 9.37 48.866 0.05 6.48 1.99 11.1
3/26/2021 8:00:00 PM 9.3 48.74 0.05 6.45 1.98 11.12
3/26/2021 8:15:00 PM 9.22 48.596 0.05 6.45 2.15 11.14
3/26/2021 8:30:00 PM 9.14 48.452 0.05 6.47 2.07 11.16
3/26/2021 8:45:00 PM 9.06 48.308 0.05 6.39 1.99 11.19
3/26/2021 9:00:00 PM 8.99 48.182 0.05 6.44 1.92 11.22
3/26/2021 9:15:00 PM 8.93 48.074 0.05 6.46 1.88 11.24
3/26/2021 9:30:00 PM 8.87 47.966 0.05 6.39 1.86 11.26
3/26/2021 9:45:00 PM 8.81 47.858 0.05 6.43 1.84 11.28
3/26/2021 10:00:00 PM 8.75 47.75 0.05 6.4 1.83 11.31
3/26/2021 10:15:00 PM 8.68 47.624 0.051 6.46 1.89 11.32
3/26/2021 10:30:00 PM 8.61 47.498 0.051 6.41 1.97 11.34
3/26/2021 10:45:00 PM 8.54 47.372 0.051 6.46 1.76 11.36
3/26/2021 11:00:00 PM 8.47 47.246 0.05 6.44 1.88 11.38
3/26/2021 11:15:00 PM 8.4 47.12 0.05 6.41 1.71 11.4
3/26/2021 11:30:00 PM 8.33 46.994 0.05 6.45 1.69 11.43
3/26/2021 11:45:00 PM 8.26 46.868 0.05 6.41 1.83 11.44
3/27/2021 12:00:00 AM 8.19 46.742 0.05 6.4 1.66 11.47
3/27/2021 12:15:00 AM 8.12 46.616 0.051 6.41 1.78 11.49
3/27/2021 12:30:00 AM 8.05 46.49 0.051 6.45 1.69 11.51
3/27/2021 12:45:00 AM 7.98 46.364 0.051 6.45 1.77 11.54
3/27/2021 1:00:00 AM 7.92 46.256 0.051 6.42 1.59 11.55
3/27/2021 1:15:00 AM 7.85 46.13 0.051 6.37 1.69 11.58
3/27/2021 1:30:00 AM 7.78 46.004 0.051 6.44 1.71 11.59
3/27/2021 1:45:00 AM 7.72 45.896 0.051 6.41 1.71 11.61
3/27/2021 2:00:00 AM 7.66 45.788 0.052 6.39 1.69 11.63
3/27/2021 2:15:00 AM 7.6 45.68 0.052 6.45 1.67 11.65
3/27/2021 2:30:00 AM 7.54 45.572 0.052 6.43 1.7 11.67
3/27/2021 2:45:00 AM 7.48 45.464 0.052 6.45 1.55 11.68
3/27/2021 3:00:00 AM 7.43 45.374 0.052 6.45 1.67 11.7
3/27/2021 3:15:00 AM 7.39 45.302 0.052 6.45 1.59 11.71
3/27/2021 3:30:00 AM 7.34 45.212 0.051 6.35 1.56 11.73
3/27/2021 3:45:00 AM 7.3 45.14 0.051 6.45 1.57 11.74
3/27/2021 4:00:00 AM 7.26 45.068 0.051 6.43 1.62 11.75
3/27/2021 4:15:00 AM 7.22 44.996 0.051 6.39 1.53 11.77
3/27/2021 4:30:00 AM 7.19 44.942 0.051 6.44 1.46 11.78
3/27/2021 4:45:00 AM 7.15 44.87 0.051 6.35 1.49 11.79
3/27/2021 5:00:00 AM 7.12 44.816 0.051 6.44 1.71 11.8
3/27/2021 5:15:00 AM 7.08 44.744 0.051 6.43 1.51 11.81
3/27/2021 5:30:00 AM 7.05 44.69 0.051 6.43 1.61 11.82
3/27/2021 5:45:00 AM 7.02 44.636 0.051 6.43 1.45 11.84
3/27/2021 6:00:00 AM 6.98 44.564 0.051 6.43 1.41 11.84
3/27/2021 6:15:00 AM 6.94 44.492 0.051 6.41 1.49 11.85
3/27/2021 6:30:00 AM 6.9 44.42 0.051 6.44 1.54 11.87
3/27/2021 6:45:00 AM 6.87 44.366 0.051 6.35 1.5 11.88
3/27/2021 7:00:00 AM 6.84 44.312 0.051 6.43 1.57 11.89
3/27/2021 7:15:00 AM 6.81 44.258 0.051 6.42 1.52 11.91
3/27/2021 7:30:00 AM 6.78 44.204 0.051 6.43 1.53 11.93
3/27/2021 7:45:00 AM 6.75 44.15 0.051 6.45 1.48 11.95
3/27/2021 8:00:00 AM 6.72 44.096 0.051 6.45 1.44 11.97
3/27/2021 8:15:00 AM 6.71 44.078 0.051 6.45 1.38 11.99
3/27/2021 8:30:00 AM 6.7 44.06 0.051 6.42 1.39 12.01
3/27/2021 8:45:00 AM 6.7 44.06 0.051 6.43 1.34 12.02
3/27/2021 9:00:00 AM 6.71 44.078 0.051 6.4 1.3 12.03
3/27/2021 9:15:00 AM 6.74 44.132 0.051 6.46 1.3 12.04
3/27/2021 9:30:00 AM 6.78 44.204 0.051 6.51 1.4 12.04
3/27/2021 9:45:00 AM 6.84 44.312 0.051 6.43 1.31 12.03
3/27/2021 10:00:00 AM 6.91 44.438 0.051 6.52 1.28 12.02
3/27/2021 10:15:00 AM 7 44.6 0.051 6.47 1.34 12
3/27/2021 10:30:00 AM 7.1 44.78 0.051 6.52 5 11.98
3/27/2021 10:45:00 AM 7.22 44.996 0.051 6.5 1.25 11.95
3/27/2021 11:00:00 AM 7.36 45.248 0.051 6.51 1.38 11.91
3/27/2021 11:15:00 AM 7.51 45.518 0.051 6.53 1.27 11.87
3/27/2021 11:30:00 AM 7.55 45.59 0.051 6.5 1.3 11.84
3/27/2021 11:45:00 AM 7.6 45.68 0.051 6.55 1.43 11.82
3/27/2021 12:00:00 PM 7.66 45.788 0.051 6.53 1.42 11.8
3/27/2021 12:15:00 PM 7.78 46.004 0.052 6.54 1.27 11.77
3/27/2021 12:30:00 PM 7.89 46.202 0.052 6.5 1.26 11.74
3/27/2021 12:45:00 PM 8 46.4 0.052 6.54 1.35 11.7
3/27/2021 1:00:00 PM 8.26 46.868 0.052 6.55 1.26 11.65
3/27/2021 1:15:00 PM 8.57 47.426 0.052 6.53 1.3 11.57
3/27/2021 1:30:00 PM 8.77 47.786 0.053 6.53 1.29 11.5
3/27/2021 1:45:00 PM 8.89 48.002 0.053 6.58 1.32 11.47
3/27/2021 2:00:00 PM 8.93 48.074 0.053 6.53 1.32 11.45
3/27/2021 2:15:00 PM 8.97 48.146 0.053 6.57 1.22 11.44
3/27/2021 2:30:00 PM 8.99 48.182 0.053 6.57 1.3 11.42
3/27/2021 2:45:00 PM 9.05 48.29 0.053 6.55 1.24 11.39
3/27/2021 3:00:00 PM 9.12 48.416 0.053 6.58 1.16 11.37
3/27/2021 3:15:00 PM 9.17 48.506 0.053 6.59 1.21 11.34
3/27/2021 3:30:00 PM 9.21 48.578 0.053 6.59 1.23 11.33
3/27/2021 3:45:00 PM 9.24 48.632 0.053 6.52 1.2 11.31
3/27/2021 4:00:00 PM 9.25 48.65 0.053 6.6 1.26 11.31
3/27/2021 4:15:00 PM 9.26 48.668 0.053 6.6 1.29 11.31
3/27/2021 4:30:00 PM 9.26 48.668 0.053 6.59 1.31 11.29
3/27/2021 4:45:00 PM 9.27 48.686 0.053 6.53 1.3 11.28
3/27/2021 5:00:00 PM 9.28 48.704 0.053 6.58 1.32 11.27
3/27/2021 5:15:00 PM 9.3 48.74 0.053 6.58 1.44 11.25
3/27/2021 5:30:00 PM 9.31 48.758 0.053 6.59 1.29 11.24
3/27/2021 5:45:00 PM 9.32 48.776 0.053 6.57 1.33 11.23
3/27/2021 6:00:00 PM 9.33 48.794 0.053 6.57 1.35 11.22
3/27/2021 6:15:00 PM 9.34 48.812 0.053 6.49 1.34 11.21
3/27/2021 6:30:00 PM 9.34 48.812 0.053 6.56 1.39 11.19
3/27/2021 6:45:00 PM 9.34 48.812 0.053 6.55 1.35 11.18
3/27/2021 7:00:00 PM 9.32 48.776 0.053 6.52 1.45 11.17
3/27/2021 7:15:00 PM 9.3 48.74 0.053 6.54 1.43 11.17
3/27/2021 7:30:00 PM 9.27 48.686 0.053 6.52 1.32 11.16
3/27/2021 7:45:00 PM 9.23 48.614 0.053 6.48 1.37 11.16
3/27/2021 8:00:00 PM 9.2 48.56 0.054 6.52 1.42 11.17
3/27/2021 8:15:00 PM 9.16 48.488 0.054 6.49 1.43 11.17
3/27/2021 8:30:00 PM 9.12 48.416 0.054 6.51 1.34 11.18
3/27/2021 8:45:00 PM 9.09 48.362 0.054 6.46 1.26 11.19
3/27/2021 9:00:00 PM 9.05 48.29 0.054 6.52 1.34 11.2
3/27/2021 9:15:00 PM 9 48.2 0.054 6.5 1.5 11.2
3/27/2021 9:30:00 PM 8.96 48.128 0.054 6.52 1.34 11.22
3/27/2021 9:45:00 PM 8.91 48.038 0.053 6.45 1.3 11.23
3/27/2021 10:00:00 PM 8.87 47.966 0.053 6.5 1.31 11.25
3/27/2021 10:15:00 PM 8.82 47.876 0.053 6.51 1.22 11.26
3/27/2021 10:30:00 PM 8.77 47.786 0.053 6.42 1.37 11.27
3/27/2021 10:45:00 PM 8.71 47.678 0.053 6.5 1.27 11.28
3/27/2021 11:00:00 PM 8.66 47.588 0.053 6.5 1.26 11.3
3/27/2021 11:15:00 PM 8.61 47.498 0.053 6.52 1.29 11.31
3/27/2021 11:30:00 PM 8.55 47.39 0.053 6.5 1.33 11.33
3/27/2021 11:45:00 PM 8.49 47.282 0.053 6.43 1.24 11.34
3/28/2021 12:00:00 AM 8.43 47.174 0.053 6.52 1.28 11.36
3/28/2021 12:15:00 AM 8.37 47.066 0.053 6.51 1.3 11.38
3/28/2021 12:30:00 AM 8.31 46.958 0.053 6.49 1.33 11.4
3/28/2021 12:45:00 AM 8.25 46.85 0.053 6.51 1.19 11.41
3/28/2021 1:00:00 AM 8.18 46.724 0.053 6.52 1.26 11.43
3/28/2021 1:15:00 AM 8.12 46.616 0.053 6.5 1.24 11.44
3/28/2021 1:30:00 AM 8.06 46.508 0.054 6.46 1.21 11.45
3/28/2021 1:45:00 AM 7.99 46.382 0.054 6.5 1.22 11.47
3/28/2021 2:00:00 AM 7.93 46.274 0.054 6.47 1.25 11.49
3/28/2021 2:15:00 AM 7.87 46.166 0.054 6.52 1.2 11.5
3/28/2021 2:30:00 AM 7.81 46.058 0.054 6.48 1.21 11.52
3/28/2021 2:45:00 AM 7.75 45.95 0.054 6.43 1.27 11.53
3/28/2021 3:00:00 AM 7.69 45.842 0.054 6.52 1.22 11.55
3/28/2021 3:15:00 AM 7.64 45.752 0.054 6.43 1.26 11.56
3/28/2021 3:30:00 AM 7.59 45.662 0.054 6.46 1.19 11.57
3/28/2021 3:45:00 AM 7.54 45.572 0.054 6.52 1.25 11.58
3/28/2021 4:00:00 AM 7.5 45.5 0.054 6.43 1.16 11.6
3/28/2021 4:15:00 AM 7.46 45.428 0.054 6.49 1.23 11.61
3/28/2021 4:30:00 AM 7.43 45.374 0.054 6.49 1.23 11.61
3/28/2021 4:45:00 AM 7.41 45.338 0.054 6.51 1.2 11.62
3/28/2021 5:00:00 AM 7.39 45.302 0.054 6.48 1.24 11.62
3/28/2021 5:15:00 AM 7.37 45.266 0.054 6.5 1.1 11.63
3/28/2021 5:30:00 AM 7.35 45.23 0.054 6.5 1.17 11.63
3/28/2021 5:45:00 AM 7.34 45.212 0.054 6.51 1.28 11.64
3/28/2021 6:00:00 AM 7.33 45.194 0.054 6.5 1.2 11.64
3/28/2021 6:15:00 AM 7.32 45.176 0.054 6.5 1.23 11.64
3/28/2021 6:30:00 AM 7.31 45.158 0.053 6.48 1.15 11.64
3/28/2021 6:45:00 AM 7.3 45.14 0.053 6.49 1.13 11.63
3/28/2021 7:00:00 AM 7.3 45.14 0.053 6.51 1.14 11.63
3/28/2021 7:15:00 AM 7.3 45.14 0.053 6.51 1.12 11.63
3/28/2021 7:30:00 AM 7.3 45.14 0.053 6.5 1.11 11.63
3/28/2021 7:45:00 AM 7.3 45.14 0.053 6.51 1.25 11.63
3/28/2021 8:00:00 AM 7.31 45.158 0.053 6.51 1.22 11.63
3/28/2021 8:15:00 AM 7.32 45.176 0.053 6.52 1.12 11.63
3/28/2021 8:30:00 AM 7.34 45.212 0.053 6.52 1.03 11.63
3/28/2021 8:45:00 AM 7.35 45.23 0.053 6.5 1.09 11.63
3/28/2021 9:00:00 AM 7.37 45.266 0.053 6.5 1.1 11.63
3/28/2021 9:15:00 AM 7.39 45.302 0.053 6.54 1.14 11.62
3/28/2021 9:30:00 AM 7.41 45.338 0.053 6.44 1.25 11.62
3/28/2021 9:45:00 AM 7.43 45.374 0.053 6.5 1.15 11.63
3/28/2021 10:00:00 AM 7.46 45.428 0.053 6.56 1.31 11.62
3/28/2021 10:15:00 AM 7.48 45.464 0.053 6.51 1.18 11.6
3/28/2021 10:30:00 AM 7.49 45.482 0.053 6.56 1.18 11.59
3/28/2021 10:45:00 AM 7.51 45.518 0.053 6.48 1.2 11.58
3/28/2021 11:00:00 AM 7.54 45.572 0.053 6.52 1.24 11.58
3/28/2021 11:15:00 AM 7.57 45.626 0.053 6.55 1.37 11.58
3/28/2021 11:30:00 AM 7.62 45.716 0.053 6.59 1.36 11.58
3/28/2021 11:45:00 AM 7.67 45.806 0.053 6.54 1.43 11.57
3/28/2021 12:00:00 PM 7.71 45.878 0.053 6.6 1.46 11.55
3/28/2021 12:15:00 PM 7.76 45.968 0.053 6.58 1.58 11.53
3/28/2021 12:30:00 PM 7.79 46.022 0.053 6.6 1.54 11.51
3/28/2021 12:45:00 PM 7.82 46.076 0.053 6.56 1.68 11.5
3/28/2021 1:00:00 PM 7.84 46.112 0.053 6.6 1.62 11.49
3/28/2021 1:15:00 PM 7.86 46.148 0.053 6.58 1.78 11.49
3/28/2021 1:30:00 PM 7.87 46.166 0.053 6.59 1.94 11.47
3/28/2021 1:45:00 PM 7.88 46.184 0.053 6.56 1.66 11.46
3/28/2021 2:00:00 PM 7.9 46.22 0.053 6.58 1.7 11.45
3/28/2021 2:15:00 PM 7.91 46.238 0.053 6.53 1.89 11.44
3/28/2021 2:30:00 PM 7.94 46.292 0.053 6.59 1.86 11.43
3/28/2021 2:45:00 PM 7.97 46.346 0.053 6.61 1.92 11.42
3/28/2021 3:00:00 PM 8 46.4 0.053 6.51 1.88 11.4
3/28/2021 3:15:00 PM 8.05 46.49 0.053 6.61 2 11.4
3/28/2021 3:30:00 PM 8.09 46.562 0.054 6.6 1.84 11.38
3/28/2021 3:45:00 PM 8.12 46.616 0.054 6.6 1.96 11.34
3/28/2021 4:00:00 PM 8.14 46.652 0.054 6.57 1.9 11.31
3/28/2021 4:15:00 PM 8.15 46.67 0.054 6.58 1.96 11.31
3/28/2021 4:30:00 PM 8.15 46.67 0.054 6.56 1.86 11.29
3/28/2021 4:45:00 PM 8.17 46.706 0.054 6.58 1.77 11.28
3/28/2021 5:00:00 PM 8.22 46.796 0.053 6.49 2.02 11.31
3/28/2021 5:15:00 PM 8.27 46.886 0.053 6.58 1.94 11.31
3/28/2021 5:30:00 PM 8.3 46.94 0.053 6.6 2.09 11.29
3/28/2021 5:45:00 PM 8.32 46.976 0.053 6.59 2.02 11.26
3/28/2021 6:00:00 PM 8.33 46.994 0.053 6.58 1.86 11.27
3/28/2021 6:15:00 PM 8.34 47.012 0.053 6.51 2.12 11.26
3/28/2021 6:30:00 PM 8.35 47.03 0.053 6.55 2.12 11.26
3/28/2021 6:45:00 PM 8.35 47.03 0.053 6.58 2.3 11.26
3/28/2021 7:00:00 PM 8.35 47.03 0.053 6.53 2.13 11.25
3/28/2021 7:15:00 PM 8.35 47.03 0.053 6.57 2.21 11.25
3/28/2021 7:30:00 PM 8.35 47.03 0.053 6.57 2.3 11.25
3/28/2021 7:45:00 PM 8.33 46.994 0.053 6.53 2.19 11.24
3/28/2021 8:00:00 PM 8.3 46.94 0.053 6.54 2.25 11.25
3/28/2021 8:15:00 PM 8.28 46.904 0.053 6.57 2.21 11.26
3/28/2021 8:30:00 PM 8.26 46.868 0.053 6.52 2.11 11.27
3/28/2021 8:45:00 PM 8.23 46.814 0.053 6.56 2.17 11.28
3/28/2021 9:00:00 PM 8.2 46.76 0.053 6.5 2.32 11.29
3/28/2021 9:15:00 PM 8.17 46.706 0.053 6.57 2.28 11.3
3/28/2021 9:30:00 PM 8.14 46.652 0.053 6.53 2.1 11.31
3/28/2021 9:45:00 PM 8.1 46.58 0.053 6.55 2.11 11.33
3/28/2021 10:00:00 PM 8.05 46.49 0.053 6.51 2.21 11.35
3/28/2021 10:15:00 PM 8 46.4 0.053 6.56 2.14 11.36
3/28/2021 10:30:00 PM 7.94 46.292 0.054 6.57 2.16 11.38
3/28/2021 10:45:00 PM 7.89 46.202 0.054 6.51 2.04 11.39
3/28/2021 11:00:00 PM 7.84 46.112 0.054 6.55 1.87 11.41
3/28/2021 11:15:00 PM 7.79 46.022 0.054 6.47 2.06 11.43
3/28/2021 11:30:00 PM 7.73 45.914 0.054 6.55 1.84 11.45
3/28/2021 11:45:00 PM 7.66 45.788 0.054 6.52 1.86 11.47
3/29/2021 12:00:00 AM 7.6 45.68 0.054 6.55 1.76 11.49
3/29/2021 12:15:00 AM 7.52 45.536 0.054 6.54 1.91 11.52
3/29/2021 12:30:00 AM 7.45 45.41 0.054 6.51 1.83 11.54
3/29/2021 12:45:00 AM 7.39 45.302 0.054 6.55 1.92 11.57
3/29/2021 1:00:00 AM 7.32 45.176 0.054 6.52 1.83 11.58
3/29/2021 1:15:00 AM 7.25 45.05 0.054 6.52 1.77 11.61
3/29/2021 1:30:00 AM 7.19 44.942 0.054 6.54 1.69 11.63
3/29/2021 1:45:00 AM 7.12 44.816 0.054 6.47 1.71 11.65
3/29/2021 2:00:00 AM 7.06 44.708 0.054 6.5 1.8 11.68
3/29/2021 2:15:00 AM 6.98 44.564 0.054 6.51 1.6 11.7
3/29/2021 2:30:00 AM 6.9 44.42 0.054 6.45 1.62 11.73
3/29/2021 2:45:00 AM 6.81 44.258 0.054 6.53 1.56 11.76
3/29/2021 3:00:00 AM 6.72 44.096 0.053 6.52 1.68 11.79
3/29/2021 3:15:00 AM 6.63 43.934 0.053 6.5 1.52 11.81
3/29/2021 3:30:00 AM 6.56 43.808 0.053 6.52 1.5 11.84
3/29/2021 3:45:00 AM 6.49 43.682 0.053 6.5 1.66 11.87
3/29/2021 4:00:00 AM 6.43 43.574 0.053 6.43 1.44 11.89
3/29/2021 4:15:00 AM 6.37 43.466 0.053 6.49 1.43 11.92
3/29/2021 4:30:00 AM 6.31 43.358 0.053 6.5 1.48 11.94
3/29/2021 4:45:00 AM 6.24 43.232 0.053 6.44 1.44 11.96
3/29/2021 5:00:00 AM 6.17 43.106 0.053 6.5 1.48 11.98
3/29/2021 5:15:00 AM 6.1 42.98 0.053 6.48 1.42 12.01
3/29/2021 5:30:00 AM 6.03 42.854 0.053 6.46 1.44 12.04
3/29/2021 5:45:00 AM 5.97 42.746 0.053 6.48 1.37 12.06
3/29/2021 6:00:00 AM 5.9 42.62 0.053 6.5 1.35 12.08
3/29/2021 6:15:00 AM 5.84 42.512 0.053 6.5 1.37 12.12
3/29/2021 6:30:00 AM 5.78 42.404 0.053 6.47 1.4 12.14
3/29/2021 6:45:00 AM 5.73 42.314 0.053 6.47 1.33 12.16
3/29/2021 7:00:00 AM 5.69 42.242 0.053 6.45 1.25 12.18
3/29/2021 7:15:00 AM 5.64 42.152 0.053 6.5 1.31 12.2
3/29/2021 7:30:00 AM 5.6 42.08 0.053 6.47 1.35 12.22
3/29/2021 7:45:00 AM 5.57 42.026 0.053 6.43 1.34 12.25
3/29/2021 8:00:00 AM 5.54 41.972 0.053 6.5 1.28 12.28
3/29/2021 8:15:00 AM 5.51 41.918 0.053 6.51 1.45 12.31
3/29/2021 8:30:00 AM 5.48 41.864 0.054 6.49 1.24 12.33
3/29/2021 8:45:00 AM 5.44 41.792 0.054 6.51 1.27 12.35
3/29/2021 9:00:00 AM 5.41 41.738 0.054 6.51 1.23 12.38
3/29/2021 9:15:00 AM 5.39 41.702 0.054 6.51 1.19 12.39
3/29/2021 9:30:00 AM 5.37 41.666 0.054 6.5 1.15 12.4
3/29/2021 9:45:00 AM 5.34 41.612 0.054 6.52 1.19 12.41
3/29/2021 10:00:00 AM 5.32 41.576 0.054 6.52 1.25 12.43
3/29/2021 10:15:00 AM 5.31 41.558 0.054 6.44 1.2 12.45
3/29/2021 10:30:00 AM 5.33 41.594 0.054 6.53 1.18 12.47
3/29/2021 10:45:00 AM 5.41 41.738 0.054 6.53 1.17 12.48
3/29/2021 11:00:00 AM 5.44 41.792 0.054 6.49 1.18 12.46
3/29/2021 11:15:00 AM 5.53 41.954 0.054 6.54 1.12 12.45
3/29/2021 11:30:00 AM 5.6 42.08 0.054 6.52 1.03 12.43
3/29/2021 11:45:00 AM 5.69 42.242 0.054 6.53 1.05 12.41
3/29/2021 12:00:00 PM 5.82 42.476 0.054 6.49 1.09 12.38
3/29/2021 12:15:00 PM 6 42.8 0.054 6.55 1.04 12.33
3/29/2021 12:30:00 PM 6.22 43.196 0.054 6.5 1.13 12.27
3/29/2021 12:45:00 PM 6.4 43.52 0.054 6.55 1.12 12.22
3/29/2021 1:00:00 PM 6.52 43.736 0.054 6.56 1.01 12.18
3/29/2021 1:15:00 PM 6.61 43.898 0.054 6.56 1.03 12.15
3/29/2021 1:30:00 PM 6.69 44.042 0.054 6.46 1.04 12.12
3/29/2021 1:45:00 PM 6.75 44.15 0.054 6.57 1.05 12.09
3/29/2021 2:00:00 PM 6.79 44.222 0.054 6.57 0.97 12.07
3/29/2021 2:15:00 PM 6.85 44.33 0.054 6.56 1.01 12.04
3/29/2021 2:30:00 PM 6.9 44.42 0.054 6.57 1.01 12.02
3/29/2021 2:45:00 PM 6.94 44.492 0.054 6.55 0.98 12
3/29/2021 3:00:00 PM 6.96 44.528 0.054 6.57 1.06 11.98
3/29/2021 3:15:00 PM 6.96 44.528 0.054 6.57 0.98 11.97
3/29/2021 3:30:00 PM 6.97 44.546 0.054 6.51 1.07 11.96
3/29/2021 3:45:00 PM 6.96 44.528 0.054 6.55 0.98 11.96
3/29/2021 4:00:00 PM 6.95 44.51 0.054 6.56 1.03 11.96
3/29/2021 4:15:00 PM 6.94 44.492 0.054 6.58 0.99 11.95
3/29/2021 4:30:00 PM 6.95 44.51 0.054 6.53 1.03 11.94
3/29/2021 4:45:00 PM 6.94 44.492 0.054 6.5 1.09 11.94
3/29/2021 5:00:00 PM 6.93 44.474 0.054 6.58 1.03 11.93
3/29/2021 5:15:00 PM 6.92 44.456 0.055 6.56 1.07 11.93
3/29/2021 5:30:00 PM 6.9 44.42 0.055 6.54 0.97 11.92
3/29/2021 5:45:00 PM 6.9 44.42 0.055 6.54 1.02 11.93
3/29/2021 6:00:00 PM 6.88 44.384 0.055 6.56 1.3 11.92
3/29/2021 6:15:00 PM 6.86 44.348 0.055 6.54 1.01 11.92
3/29/2021 6:30:00 PM 6.84 44.312 0.055 6.51 1 11.93
3/29/2021 6:45:00 PM 6.81 44.258 0.055 6.54 0.97 11.93
3/29/2021 7:00:00 PM 6.79 44.222 0.055 6.46 0.99 11.93
3/29/2021 7:15:00 PM 6.76 44.168 0.055 6.52 1.02 11.93
3/29/2021 7:30:00 PM 6.73 44.114 0.055 6.47 1.06 11.93
3/29/2021 7:45:00 PM 6.7 44.06 0.055 6.52 1.11 11.94
3/29/2021 8:00:00 PM 6.66 43.988 0.055 6.52 1.08 11.95
3/29/2021 8:15:00 PM 6.62 43.916 0.055 6.51 1.09 11.96
3/29/2021 8:30:00 PM 6.57 43.826 0.055 6.53 1.11 11.97
3/29/2021 8:45:00 PM 6.52 43.736 0.055 6.52 1.08 11.99
3/29/2021 9:00:00 PM 6.47 43.646 0.055 6.45 1.07 12.01
3/29/2021 9:15:00 PM 6.42 43.556 0.055 6.52 1.11 12.03
3/29/2021 9:30:00 PM 6.36 43.448 0.055 6.52 1.16 12.05
3/29/2021 9:45:00 PM 6.3 43.34 0.055 6.49 1.06 12.06
3/29/2021 10:00:00 PM 6.24 43.232 0.055 6.52 1.05 12.09
3/29/2021 10:15:00 PM 6.19 43.142 0.055 6.46 1 12.1
3/29/2021 10:30:00 PM 6.13 43.034 0.055 6.52 1.07 12.12
3/29/2021 10:45:00 PM 6.07 42.926 0.055 6.5 1.07 12.15
3/29/2021 11:00:00 PM 6.02 42.836 0.055 6.5 0.98 12.16
3/29/2021 11:15:00 PM 5.96 42.728 0.055 6.44 1.16 12.18
3/29/2021 11:30:00 PM 5.9 42.62 0.055 6.52 1.03 12.2
3/29/2021 11:45:00 PM 5.85 42.53 0.055 6.49 1.04 12.22
3/30/2021 12:00:00 AM 5.8 42.44 0.055 6.51 1.01 12.23
3/30/2021 12:15:00 AM 5.74 42.332 0.055 6.5 0.94 12.25
3/30/2021 12:30:00 AM 5.69 42.242 0.055 6.47 1.13 12.27
3/30/2021 12:45:00 AM 5.64 42.152 0.055 6.51 0.97 12.29
3/30/2021 1:00:00 AM 5.59 42.062 0.055 6.42 0.94 12.31
3/30/2021 1:15:00 AM 5.53 41.954 0.055 6.51 1 12.32
3/30/2021 1:30:00 AM 5.48 41.864 0.055 6.51 0.99 12.35
3/30/2021 1:45:00 AM 5.42 41.756 0.055 6.5 1.03 12.36
3/30/2021 2:00:00 AM 5.37 41.666 0.056 6.46 0.9 12.38
3/30/2021 2:15:00 AM 5.31 41.558 0.056 6.51 0.98 12.41
3/30/2021 2:30:00 AM 5.25 41.45 0.056 6.5 0.89 12.42
3/30/2021 2:45:00 AM 5.19 41.342 0.056 6.48 0.98 12.44
3/30/2021 3:00:00 AM 5.13 41.234 0.056 6.51 0.9 12.47
3/30/2021 3:15:00 AM 5.08 41.144 0.056 6.5 0.92 12.49
3/30/2021 3:30:00 AM 5.02 41.036 0.056 6.44 0.94 12.51
3/30/2021 3:45:00 AM 4.96 40.928 0.056 6.48 0.93 12.53
3/30/2021 4:00:00 AM 4.9 40.82 0.056 6.46 0.91 12.54
3/30/2021 4:15:00 AM 4.85 40.73 0.056 6.45 1 12.57
3/30/2021 4:30:00 AM 4.79 40.622 0.056 6.5 0.91 12.58
3/30/2021 4:45:00 AM 4.74 40.532 0.056 6.5 0.89 12.6
3/30/2021 5:00:00 AM 4.69 40.442 0.056 6.5 0.94 12.62
3/30/2021 5:15:00 AM 4.64 40.352 0.056 6.45 0.83 12.64
3/30/2021 5:30:00 AM 4.59 40.262 0.056 6.49 0.95 12.66
3/30/2021 5:45:00 AM 4.54 40.172 0.056 6.39 0.87 12.68
3/30/2021 6:00:00 AM 4.5 40.1 0.056 6.5 0.93 12.7
3/30/2021 6:15:00 AM 4.45 40.01 0.056 6.48 0.92 12.72
3/30/2021 6:30:00 AM 4.41 39.938 0.056 6.49 0.97 12.74
3/30/2021 6:45:00 AM 4.37 39.866 0.056 6.47 0.89 12.75
3/30/2021 7:00:00 AM 4.33 39.794 0.056 6.46 0.91 12.76
3/30/2021 7:15:00 AM 4.29 39.722 0.056 6.49 0.94 12.79
3/30/2021 7:30:00 AM 4.26 39.668 0.056 6.5 0.91 12.81
3/30/2021 7:45:00 AM 4.23 39.614 0.056 6.47 0.9 12.84
3/30/2021 8:00:00 AM 4.21 39.578 0.056 6.5 0.86 12.86
3/30/2021 8:15:00 AM 4.2 39.56 0.056 6.49 0.95 12.88
3/30/2021 8:30:00 AM 4.19 39.542 0.056 6.51 0.93 12.9
3/30/2021 8:45:00 AM 4.2 39.56 0.056 6.51 0.86 12.9
3/30/2021 9:00:00 AM 4.22 39.596 0.056 6.45 0.91 12.91
3/30/2021 9:15:00 AM 4.27 39.686 0.056 6.53 0.88 12.91
3/30/2021 9:30:00 AM 4.33 39.794 0.056 6.53 0.86 12.9
3/30/2021 9:45:00 AM 4.42 39.956 0.056 6.53 0.87 12.88
3/30/2021 10:00:00 AM 4.53 40.154 0.056 6.53 0.89 12.86
3/30/2021 10:15:00 AM 4.66 40.388 0.056 6.52 0.85 12.83
3/30/2021 10:30:00 AM 4.8 40.64 0.056 6.55 0.82 12.79
3/30/2021 10:45:00 AM 4.97 40.946 0.056 6.56 0.89 12.74
3/30/2021 11:00:00 AM 5.16 41.288 0.056 6.57 0.93 12.68
3/30/2021 11:15:00 AM 5.36 41.648 0.056 6.57 0.83 12.62
3/30/2021 11:30:00 AM 5.59 42.062 0.056 6.58 0.77 12.55
3/30/2021 11:45:00 AM 5.82 42.476 0.056 6.52 0.75 12.47
3/30/2021 12:00:00 PM 6.07 42.926 0.056 6.6 0.81 12.4
3/30/2021 12:15:00 PM 6.31 43.358 0.056 6.6 0.77 12.32
3/30/2021 12:30:00 PM 6.55 43.79 0.056 6.61 1 12.25
3/30/2021 12:45:00 PM 6.78 44.204 0.056 6.6 0.84 12.18
3/30/2021 1:00:00 PM 6.98 44.564 0.056 6.62 0.87 12.11
3/30/2021 1:15:00 PM 7.15 44.87 0.056 6.59 0.84 12.06
3/30/2021 1:30:00 PM 7.3 45.14 0.056 6.61 0.81 12.01
3/30/2021 1:45:00 PM 7.42 45.356 0.056 6.63 0.76 11.96
3/30/2021 2:00:00 PM 7.54 45.572 0.056 6.63 0.84 11.91
3/30/2021 2:15:00 PM 7.64 45.752 0.056 6.63 0.89 11.86
3/30/2021 2:30:00 PM 7.73 45.914 0.056 6.67 0.81 11.82
3/30/2021 2:45:00 PM 7.81 46.058 0.056 6.64 0.88 11.78
3/30/2021 3:00:00 PM 7.88 46.184 0.056 6.64 0.86 11.75
3/30/2021 3:15:00 PM 7.94 46.292 0.056 6.64 0.85 11.72
3/30/2021 3:30:00 PM 7.98 46.364 0.056 6.63 0.77 11.7
3/30/2021 3:45:00 PM 8.02 46.436 0.056 6.64 0.88 11.68
3/30/2021 4:00:00 PM 8.05 46.49 0.056 6.62 0.9 11.66
3/30/2021 4:15:00 PM 8.08 46.544 0.056 6.64 0.83 11.64
3/30/2021 4:30:00 PM 8.11 46.598 0.056 6.64 0.83 11.63
3/30/2021 4:45:00 PM 8.13 46.634 0.056 6.53 0.84 11.62
3/30/2021 5:00:00 PM 8.14 46.652 0.056 6.64 0.84 11.6
3/30/2021 5:15:00 PM 8.15 46.67 0.056 6.63 0.87 11.58
3/30/2021 5:30:00 PM 8.16 46.688 0.056 6.63 0.91 11.57
3/30/2021 5:45:00 PM 8.2 46.76 0.056 6.61 0.93 11.57
3/30/2021 6:00:00 PM 8.22 46.796 0.056 6.63 0.9 11.55
3/30/2021 6:15:00 PM 8.23 46.814 0.056 6.63 0.85 11.52
3/30/2021 6:30:00 PM 8.24 46.832 0.056 6.55 0.89 11.51
3/30/2021 6:45:00 PM 8.25 46.85 0.056 6.6 0.84 11.5
3/30/2021 7:00:00 PM 8.25 46.85 0.056 6.61 0.89 11.49
3/30/2021 7:15:00 PM 8.25 46.85 0.056 6.62 0.89 11.47
3/30/2021 7:30:00 PM 8.24 46.832 0.056 6.6 0.87 11.46
3/30/2021 7:45:00 PM 8.23 46.814 0.056 6.59 0.98 11.45
3/30/2021 8:00:00 PM 8.22 46.796 0.056 6.6 0.98 11.45
3/30/2021 8:15:00 PM 8.2 46.76 0.056 6.6 1 11.46
3/30/2021 8:30:00 PM 8.19 46.742 0.056 6.55 0.97 11.46
3/30/2021 8:45:00 PM 8.17 46.706 0.056 6.6 0.99 11.47
3/30/2021 9:00:00 PM 8.14 46.652 0.056 6.57 1.07 11.47
3/30/2021 9:15:00 PM 8.12 46.616 0.056 6.55 1 11.48
3/30/2021 9:30:00 PM 8.09 46.562 0.056 6.58 0.91 11.49
3/30/2021 9:45:00 PM 8.07 46.526 0.056 6.59 0.99 11.49
3/30/2021 10:00:00 PM 8.04 46.472 0.056 6.53 0.98 11.51
3/30/2021 10:15:00 PM 8.01 46.418 0.056 6.56 1.14 11.52
3/30/2021 10:30:00 PM 7.98 46.364 0.056 6.57 1.01 11.53
3/30/2021 10:45:00 PM 7.94 46.292 0.056 6.55 0.97 11.54
3/30/2021 11:00:00 PM 7.91 46.238 0.056 6.56 0.93 11.55
3/30/2021 11:15:00 PM 7.88 46.184 0.056 6.58 0.94 11.56
3/30/2021 11:30:00 PM 7.85 46.13 0.056 6.55 0.94 11.57
3/30/2021 11:45:00 PM 7.82 46.076 0.056 6.55 1.03 11.58
3/31/2021 12:00:00 AM 7.79 46.022 0.056 6.56 1 11.58
3/31/2021 12:15:00 AM 7.76 45.968 0.056 6.57 0.93 11.59
3/31/2021 12:30:00 AM 7.72 45.896 0.056 6.58 0.91 11.6
3/31/2021 12:45:00 AM 7.69 45.842 0.056 6.56 0.93 11.61
3/31/2021 1:00:00 AM 7.65 45.77 0.056 6.57 2.37 11.62
3/31/2021 1:15:00 AM 7.61 45.698 0.056 6.58 1.02 11.63
3/31/2021 1:30:00 AM 7.57 45.626 0.056 6.52 1 11.64
3/31/2021 1:45:00 AM 7.53 45.554 0.056 6.56 0.92 11.65
3/31/2021 2:00:00 AM 7.49 45.482 0.056 6.57 1.01 11.66
3/31/2021 2:15:00 AM 7.45 45.41 0.056 6.56 0.99 11.67
3/31/2021 2:30:00 AM 7.41 45.338 0.056 6.57 0.96 11.68
3/31/2021 2:45:00 AM 7.36 45.248 0.056 6.54 0.98 11.69
3/31/2021 3:00:00 AM 7.32 45.176 0.056 6.57 0.94 11.7
3/31/2021 3:15:00 AM 7.27 45.086 0.056 6.55 0.94 11.72
3/31/2021 3:30:00 AM 7.23 45.014 0.056 6.57 0.83 11.72
3/31/2021 3:45:00 AM 7.18 44.924 0.056 6.56 1 11.74
3/31/2021 4:00:00 AM 7.13 44.834 0.056 6.54 1.06 11.75
3/31/2021 4:15:00 AM 7.09 44.762 0.056 6.56 1 11.76
3/31/2021 4:30:00 AM 7.05 44.69 0.056 6.56 0.97 11.77
3/31/2021 4:45:00 AM 7.01 44.618 0.056 6.57 0.89 11.79
3/31/2021 5:00:00 AM 6.97 44.546 0.056 6.57 0.96 11.8
3/31/2021 5:15:00 AM 6.93 44.474 0.056 6.55 0.95 11.81
3/31/2021 5:30:00 AM 6.89 44.402 0.056 6.56 0.93 11.82
3/31/2021 5:45:00 AM 6.84 44.312 0.056 6.51 0.85 11.83
3/31/2021 6:00:00 AM 6.8 44.24 0.056 6.55 0.82 11.84
3/31/2021 6:15:00 AM 6.77 44.186 0.056 6.55 0.98 11.86
3/31/2021 6:30:00 AM 6.74 44.132 0.056 6.56 0.88 11.86
3/31/2021 6:45:00 AM 6.71 44.078 0.056 6.53 0.97 11.87
3/31/2021 7:00:00 AM 6.68 44.024 0.056 6.55 0.89 11.88
3/31/2021 7:15:00 AM 6.66 43.988 0.056 6.53 0.94 11.9
3/31/2021 7:30:00 AM 6.64 43.952 0.056 6.55 0.92 11.92
3/31/2021 7:45:00 AM 6.63 43.934 0.056 6.55 1.05 11.94
3/31/2021 8:00:00 AM 6.62 43.916 0.056 6.53 0.88 11.97
3/31/2021 8:15:00 AM 6.62 43.916 0.056 6.53 0.99 11.98
3/31/2021 8:30:00 AM 6.63 43.934 0.056 6.59 0.97 12
3/31/2021 8:45:00 AM 6.66 43.988 0.056 6.54 0.87 12.01
3/31/2021 9:00:00 AM 6.69 44.042 0.055 6.6 0.87 12.01
3/31/2021 9:15:00 AM 6.73 44.114 0.055 6.61 0.84 12
3/31/2021 9:30:00 AM 6.77 44.186 0.055 6.6 0.84 11.99
3/31/2021 9:45:00 AM 6.81 44.258 0.055 6.6 0.83 11.98
3/31/2021 10:00:00 AM 6.86 44.348 0.055 6.61 0.88 11.97
3/31/2021 10:15:00 AM 6.91 44.438 0.055 6.6 0.82 11.96
3/31/2021 10:30:00 AM 6.97 44.546 0.055 6.59 0.84 11.95
3/31/2021 10:45:00 AM 7.01 44.618 0.055 6.57 0.87 11.92
3/31/2021 11:00:00 AM 7.05 44.69 0.055 6.6 0.91 11.9
3/31/2021 11:15:00 AM 7.08 44.744 0.055 6.62 0.8 11.89
3/31/2021 11:30:00 AM 7.11 44.798 0.055 6.61 0.82 11.86
3/31/2021 11:45:00 AM 7.14 44.852 0.055 6.62 0.81 11.85
3/31/2021 12:00:00 PM 7.19 44.942 0.055 6.61 0.77 11.85
3/31/2021 12:15:00 PM 7.24 45.032 0.055 6.54 0.79 11.83
3/31/2021 12:30:00 PM 7.28 45.104 0.055 6.63 0.79 11.82
3/31/2021 12:45:00 PM 7.34 45.212 0.055 6.64 0.81 11.81
3/31/2021 1:00:00 PM 7.38 45.284 0.055 6.63 0.8 11.8
3/31/2021 1:15:00 PM 7.45 45.41 0.055 6.59 0.87 11.79
3/31/2021 1:30:00 PM 7.51 45.518 0.055 6.65 0.88 11.76
3/31/2021 1:45:00 PM 7.55 45.59 0.055 6.65 0.9 11.74
3/31/2021 2:00:00 PM 7.61 45.698 0.055 6.64 0.83 11.73
3/31/2021 2:15:00 PM 7.66 45.788 0.055 6.65 0.85 11.7
3/31/2021 2:30:00 PM 7.68 45.824 0.055 6.65 0.82 11.66
3/31/2021 2:45:00 PM 7.69 45.842 0.055 6.6 0.78 11.64
3/31/2021 3:00:00 PM 7.72 45.896 0.056 6.63 0.82 11.63
3/31/2021 3:15:00 PM 7.74 45.932 0.056 6.62 0.77 11.61
3/31/2021 3:30:00 PM 7.76 45.968 0.056 6.63 0.8 11.61
3/31/2021 3:45:00 PM 7.79 46.022 0.056 6.64 0.84 11.6
3/31/2021 4:00:00 PM 7.8 46.04 0.056 6.61 0.84 11.57
3/31/2021 4:15:00 PM 7.8 46.04 0.056 6.62 0.77 11.56
3/31/2021 4:30:00 PM 7.82 46.076 0.056 6.59 0.77 11.56
3/31/2021 4:45:00 PM 7.83 46.094 0.056 6.52 0.84 11.55
3/31/2021 5:00:00 PM 7.84 46.112 0.056 6.6 0.76 11.53
3/31/2021 5:15:00 PM 7.85 46.13 0.056 6.59 0.81 11.52
3/31/2021 5:30:00 PM 7.86 46.148 0.056 6.6 0.82 11.52
3/31/2021 5:45:00 PM 7.87 46.166 0.056 6.6 0.85 11.51
3/31/2021 6:00:00 PM 7.88 46.184 0.056 6.58 0.83 11.5
3/31/2021 6:15:00 PM 7.89 46.202 0.056 6.51 0.8 11.49
3/31/2021 6:30:00 PM 7.9 46.22 0.056 6.58 0.86 11.49
3/31/2021 6:45:00 PM 7.91 46.238 0.056 6.58 0.79 11.48
3/31/2021 7:00:00 PM 7.93 46.274 0.055 6.56 0.89 11.46
3/31/2021 7:15:00 PM 7.94 46.292 0.055 6.56 0.96 11.44
3/31/2021 7:30:00 PM 7.96 46.328 0.055 6.56 0.98 11.43
3/31/2021 7:45:00 PM 7.97 46.346 0.055 6.55 0.96 11.43
3/31/2021 8:00:00 PM 7.98 46.364 0.055 6.54 1.06 11.43
3/31/2021 8:15:00 PM 7.99 46.382 0.055 6.54 1.05 11.42
3/31/2021 8:30:00 PM 8.01 46.418 0.055 6.46 1 11.42
3/31/2021 8:45:00 PM 8.02 46.436 0.055 6.52 1.08 11.41
3/31/2021 9:00:00 PM 8.03 46.454 0.055 6.53 1.16 11.41
3/31/2021 9:15:00 PM 8.04 46.472 0.055 6.56 1.22 11.42
3/31/2021 9:30:00 PM 8.05 46.49 0.055 6.58 1.22 11.42
3/31/2021 9:45:00 PM 8.05 46.49 0.055 6.53 1.2 11.41
3/31/2021 10:00:00 PM 8.04 46.472 0.055 6.58 1.12 11.42
3/31/2021 10:15:00 PM 8.03 46.454 0.055 6.61 1.2 11.43
3/31/2021 10:30:00 PM 8.02 46.436 0.055 6.57 1.11 11.43
3/31/2021 10:45:00 PM 8.01 46.418 0.055 6.61 1.15 11.43
3/31/2021 11:00:00 PM 7.99 46.382 0.055 6.59 1.22 11.44
3/31/2021 11:15:00 PM 7.97 46.346 0.055 6.58 1.28 11.45
3/31/2021 11:30:00 PM 7.95 46.31 0.055 6.61 1.17 11.46
3/31/2021 11:45:00 PM 7.92 46.256 0.055 6.59 1.24 11.46
4/1/2021 12:00:00 AM 7.89 46.202 0.055 6.53 1.17 11.47
4/1/2021 12:15:00 AM 7.86 46.148 0.055 6.61 1.19 11.48
4/1/2021 12:30:00 AM 7.82 46.076 0.056 6.6 1.13 11.49
4/1/2021 12:45:00 AM 7.79 46.022 0.056 6.61 1.22 11.5
4/1/2021 1:00:00 AM 7.75 45.95 0.056 6.57 1.12 11.51
4/1/2021 1:15:00 AM 7.72 45.896 0.056 6.6 1.14 11.52
4/1/2021 1:30:00 AM 7.69 45.842 0.056 6.59 1.21 11.53
4/1/2021 1:45:00 AM 7.65 45.77 0.056 6.6 1.21 11.54
4/1/2021 2:00:00 AM 7.61 45.698 0.056 6.58 1.12 11.55
4/1/2021 2:15:00 AM 7.58 45.644 0.056 6.58 1.13 11.56
4/1/2021 2:30:00 AM 7.54 45.572 0.056 6.59 1.13 11.58
4/1/2021 2:45:00 AM 7.5 45.5 0.056 6.56 1.09 11.58
4/1/2021 3:00:00 AM 7.45 45.41 0.056 6.51 1.12 11.6
4/1/2021 3:15:00 AM 7.4 45.32 0.056 6.57 1.2 11.61
4/1/2021 3:30:00 AM 7.35 45.23 0.056 6.5 1.13 11.62
4/1/2021 3:45:00 AM 7.29 45.122 0.056 6.56 1.17 11.64
4/1/2021 4:00:00 AM 7.24 45.032 0.056 6.56 1.06 11.65
4/1/2021 4:15:00 AM 7.18 44.924 0.056 6.58 1.2 11.67
4/1/2021 4:30:00 AM 7.11 44.798 0.056 6.58 1.2 11.69
4/1/2021 4:45:00 AM 7.03 44.654 0.056 6.56 1.07 11.72
4/1/2021 5:00:00 AM 6.96 44.528 0.055 6.58 1.05 11.74
4/1/2021 5:15:00 AM 6.89 44.402 0.055 6.57 1.09 11.76
4/1/2021 5:30:00 AM 6.82 44.276 0.055 6.57 1.1 11.78
4/1/2021 5:45:00 AM 6.74 44.132 0.055 6.57 1.21 11.8
4/1/2021 6:00:00 AM 6.66 43.988 0.055 6.58 1.12 11.82
4/1/2021 6:15:00 AM 6.58 43.844 0.055 6.48 1.01 11.85
4/1/2021 6:30:00 AM 6.5 43.7 0.055 6.57 1.06 11.88
4/1/2021 6:45:00 AM 6.41 43.538 0.055 6.56 1.2 11.9
4/1/2021 7:00:00 AM 6.34 43.412 0.055 6.54 1.04 11.93
4/1/2021 7:15:00 AM 6.27 43.286 0.055 6.56 1.09 11.96
4/1/2021 7:30:00 AM 6.2 43.16 0.055 6.56 1.16 11.99
4/1/2021 7:45:00 AM 6.13 43.034 0.055 6.57 1.11 12.03
4/1/2021 8:00:00 AM 6.06 42.908 0.055 6.49 1.13 12.07
4/1/2021 8:15:00 AM 6 42.8 0.055 6.57 1.05 12.11
4/1/2021 8:30:00 AM 5.94 42.692 0.055 6.58 1.05 12.14
4/1/2021 8:45:00 AM 5.89 42.602 0.055 6.58 1.03 12.17
4/1/2021 9:00:00 AM 5.84 42.512 0.055 6.59 1.05 12.2
4/1/2021 9:15:00 AM 5.81 42.458 0.055 6.55 0.99 12.23
4/1/2021 9:30:00 AM 5.78 42.404 0.056 6.6 1.01 12.24
4/1/2021 9:45:00 AM 5.73 42.314 0.056 6.6 0.99 12.26
4/1/2021 10:00:00 AM 5.69 42.242 0.056 6.52 0.95 12.28
4/1/2021 10:15:00 AM 5.66 42.188 0.056 6.58 0.97 12.3
4/1/2021 10:30:00 AM 5.63 42.134 0.056 6.55 1.04 12.31
4/1/2021 10:45:00 AM 5.69 42.242 0.056 6.61 1.03 12.32
4/1/2021 11:00:00 AM 5.7 42.26 0.056 6.6 0.99 12.33
4/1/2021 11:15:00 AM 5.81 42.458 0.056 6.61 0.95 12.31
4/1/2021 11:30:00 AM 5.91 42.638 0.056 6.52 1.05 12.29
4/1/2021 11:45:00 AM 6.02 42.836 0.057 6.61 1 12.25
4/1/2021 12:00:00 PM 6.12 43.016 0.057 6.59 0.98 12.2
4/1/2021 12:15:00 PM 6.22 43.196 0.057 6.62 1.02 12.17
4/1/2021 12:30:00 PM 6.29 43.322 0.057 6.61 0.93 12.15
4/1/2021 12:45:00 PM 6.34 43.412 0.057 6.61 0.95 12.14
4/1/2021 1:00:00 PM 6.31 43.358 0.057 6.62 0.94 12.15
4/1/2021 1:15:00 PM 6.25 43.25 0.057 6.62 1.02 12.16
4/1/2021 1:30:00 PM 6.2 43.16 0.057 6.58 1 12.17
4/1/2021 1:45:00 PM 6.15 43.07 0.057 6.6 0.96 12.18
4/1/2021 2:00:00 PM 6.13 43.034 0.057 6.62 1.05 12.18
4/1/2021 2:15:00 PM 6.11 42.998 0.057 6.62 1.04 12.19
4/1/2021 2:30:00 PM 6.1 42.98 0.057 6.61 1.03 12.18
4/1/2021 2:45:00 PM 6.07 42.926 0.057 6.61 0.99 12.18
4/1/2021 3:00:00 PM 6.05 42.89 0.056 6.62 0.97 12.2
4/1/2021 3:15:00 PM 6.03 42.854 0.056 6.61 0.97 12.21
4/1/2021 3:30:00 PM 6.01 42.818 0.056 6.61 0.96 12.22
4/1/2021 3:45:00 PM 6.01 42.818 0.056 6.6 1.08 12.22
4/1/2021 4:00:00 PM 6.02 42.836 0.056 6.62 0.99 12.21
4/1/2021 4:15:00 PM 6 42.8 0.055 6.61 1.02 12.21
4/1/2021 4:30:00 PM 5.98 42.764 0.055 6.59 0.95 12.21
4/1/2021 4:45:00 PM 5.96 42.728 0.055 6.6 1.02 12.21
4/1/2021 5:00:00 PM 5.95 42.71 0.055 6.61 0.99 12.22
4/1/2021 5:15:00 PM 5.94 42.692 0.055 6.61 1 12.22
4/1/2021 5:30:00 PM 5.91 42.638 0.055 6.57 0.97 12.22
4/1/2021 5:45:00 PM 5.89 42.602 0.055 6.6 0.99 12.22
4/1/2021 6:00:00 PM 5.86 42.548 0.055 6.52 0.96 12.22
4/1/2021 6:15:00 PM 5.82 42.476 0.055 6.6 0.93 12.22
4/1/2021 6:30:00 PM 5.78 42.404 0.056 6.58 0.96 12.22
4/1/2021 6:45:00 PM 5.73 42.314 0.056 6.54 1.03 12.23
4/1/2021 7:00:00 PM 5.68 42.224 0.056 6.55 1 12.23
4/1/2021 7:15:00 PM 5.61 42.098 0.056 6.57 1 12.24
4/1/2021 7:30:00 PM 5.54 41.972 0.056 6.54 0.98 12.25
4/1/2021 7:45:00 PM 5.47 41.846 0.056 6.55 1.01 12.26
4/1/2021 8:00:00 PM 5.41 41.738 0.056 6.56 1 12.28
4/1/2021 8:15:00 PM 5.34 41.612 0.057 6.48 0.92 12.3
4/1/2021 8:30:00 PM 5.3 41.54 0.057 6.56 0.94 12.32
4/1/2021 8:45:00 PM 5.25 41.45 0.057 6.5 0.9 12.34
4/1/2021 9:00:00 PM 5.19 41.342 0.057 6.51 0.96 12.36
4/1/2021 9:15:00 PM 5.14 41.252 0.057 6.51 0.97 12.38
4/1/2021 9:30:00 PM 5.08 41.144 0.057 6.55 0.9 12.4
4/1/2021 9:45:00 PM 5.02 41.036 0.057 6.55 0.93 12.42
4/1/2021 10:00:00 PM 4.95 40.91 0.057 6.55 0.91 12.44
4/1/2021 10:15:00 PM 4.88 40.784 0.057 6.54 0.91 12.47
4/1/2021 10:30:00 PM 4.82 40.676 0.058 6.5 0.97 12.49
4/1/2021 10:45:00 PM 4.76 40.568 0.058 6.5 0.91 12.51
4/1/2021 11:00:00 PM 4.71 40.478 0.058 6.5 0.9 12.53
4/1/2021 11:15:00 PM 4.65 40.37 0.058 6.55 0.89 12.55
4/1/2021 11:30:00 PM 4.6 40.28 0.058 6.54 0.88 12.57
4/1/2021 11:45:00 PM 4.56 40.208 0.058 6.54 0.83 12.59
4/2/2021 12:00:00 AM 4.51 40.118 0.058 6.46 0.86 12.6
4/2/2021 12:15:00 AM 4.45 40.01 0.058 6.54 0.85 12.62
4/2/2021 12:30:00 AM 4.4 39.92 0.058 6.54 0.8 12.64
4/2/2021 12:45:00 AM 4.34 39.812 0.058 6.53 0.77 12.66
4/2/2021 1:00:00 AM 4.27 39.686 0.058 6.53 0.81 12.69
4/2/2021 1:15:00 AM 4.2 39.56 0.059 6.53 0.87 12.7
4/2/2021 1:30:00 AM 4.13 39.434 0.059 6.52 0.78 12.74
4/2/2021 1:45:00 AM 4.07 39.326 0.059 6.53 0.8 12.76
4/2/2021 2:00:00 AM 4.02 39.236 0.059 6.44 0.88 12.78
4/2/2021 2:15:00 AM 3.96 39.128 0.059 6.52 0.82 12.8
4/2/2021 2:30:00 AM 3.9 39.02 0.059 6.52 0.82 12.82
4/2/2021 2:45:00 AM 3.84 38.912 0.059 6.52 0.82 12.84
4/2/2021 3:00:00 AM 3.78 38.804 0.059 6.48 0.86 12.87
4/2/2021 3:15:00 AM 3.72 38.696 0.059 6.49 0.8 12.89
4/2/2021 3:30:00 AM 3.64 38.552 0.059 6.48 0.8 12.92
4/2/2021 3:45:00 AM 3.56 38.408 0.059 6.49 0.78 12.95
4/2/2021 4:00:00 AM 3.49 38.282 0.059 6.39 0.8 12.98
4/2/2021 4:15:00 AM 3.43 38.174 0.059 6.46 0.74 13
4/2/2021 4:30:00 AM 3.37 38.066 0.059 6.35 0.74 13.03
4/2/2021 4:45:00 AM 3.31 37.958 0.059 6.41 0.83 13.05
4/2/2021 5:00:00 AM 3.26 37.868 0.059 6.45 0.79 13.07
4/2/2021 5:15:00 AM 3.2 37.76 0.059 6.44 0.82 13.09
4/2/2021 5:30:00 AM 3.14 37.652 0.059 6.35 0.78 13.12
4/2/2021 5:45:00 AM 3.08 37.544 0.059 6.41 0.8 13.14
4/2/2021 6:00:00 AM 3.03 37.454 0.059 6.44 0.83 13.16
4/2/2021 6:15:00 AM 2.97 37.346 0.059 6.45 0.78 13.19
4/2/2021 6:30:00 AM 2.91 37.238 0.059 6.41 0.73 13.21
4/2/2021 6:45:00 AM 2.85 37.13 0.059 6.4 0.73 13.24
4/2/2021 7:00:00 AM 2.8 37.04 0.059 6.44 0.72 13.27
4/2/2021 7:15:00 AM 2.75 36.95 0.059 6.44 0.73 13.3
4/2/2021 7:30:00 AM 2.7 36.86 0.06 6.42 0.8 13.33
4/2/2021 7:45:00 AM 2.66 36.788 0.06 6.46 0.73 13.36
4/2/2021 8:00:00 AM 2.62 36.716 0.06 6.46 0.69 13.4
4/2/2021 8:15:00 AM 2.6 36.68 0.06 6.46 0.73 13.42
4/2/2021 8:30:00 AM 2.58 36.644 0.06 6.48 0.74 13.45
4/2/2021 8:45:00 AM 2.56 36.608 0.06 6.47 0.68 13.47
4/2/2021 9:00:00 AM 2.53 36.554 0.06 6.5 0.73 13.48
4/2/2021 9:15:00 AM 2.54 36.572 0.059 6.5 0.77 13.5
4/2/2021 9:30:00 AM 2.53 36.554 0.059 6.51 0.66 13.51
4/2/2021 9:45:00 AM 2.57 36.626 0.059 6.52 0.74 13.51
4/2/2021 10:00:00 AM 2.61 36.698 0.059 6.53 0.71 13.51
4/2/2021 10:15:00 AM 2.67 36.806 0.059 6.53 0.67 13.49
4/2/2021 10:30:00 AM 2.76 36.968 0.059 6.53 0.68 13.48
4/2/2021 10:45:00 AM 2.86 37.148 0.059 6.52 0.8 13.45
4/2/2021 11:00:00 AM 2.99 37.382 0.059 6.54 0.7 13.41
4/2/2021 11:15:00 AM 3.13 37.634 0.059 6.56 0.67 13.36
4/2/2021 11:30:00 AM 3.28 37.904 0.059 6.57 0.7 13.31
4/2/2021 11:45:00 AM 3.44 38.192 0.059 6.5 0.66 13.26
4/2/2021 12:00:00 PM 3.64 38.552 0.059 6.58 0.7 13.19
4/2/2021 12:15:00 PM 3.84 38.912 0.059 6.58 0.59 13.12
4/2/2021 12:30:00 PM 4.02 39.236 0.059 6.58 0.7 13.06
4/2/2021 12:45:00 PM 4.2 39.56 0.059 6.6 0.67 12.99
4/2/2021 1:00:00 PM 4.36 39.848 0.059 6.57 0.67 12.95
4/2/2021 1:15:00 PM 4.46 40.028 0.059 6.62 0.62 12.91
4/2/2021 1:30:00 PM 4.54 40.172 0.059 6.62 0.67 12.87
4/2/2021 1:45:00 PM 4.59 40.262 0.059 6.62 0.63 12.85
4/2/2021 2:00:00 PM 4.64 40.352 0.059 6.62 0.69 12.82
4/2/2021 2:15:00 PM 4.68 40.424 0.059 6.61 0.67 12.79
4/2/2021 2:30:00 PM 4.71 40.478 0.059 6.61 0.72 12.77
4/2/2021 2:45:00 PM 4.72 40.496 0.059 6.59 0.6 12.75
4/2/2021 3:00:00 PM 4.72 40.496 0.059 6.62 0.68 12.74
4/2/2021 3:15:00 PM 4.71 40.478 0.059 6.59 0.61 12.73
4/2/2021 3:30:00 PM 4.7 40.46 0.059 6.63 0.64 12.73
4/2/2021 3:45:00 PM 4.67 40.406 0.059 6.62 0.69 12.72
4/2/2021 4:00:00 PM 4.64 40.352 0.059 6.62 0.71 12.72
4/2/2021 4:15:00 PM 4.61 40.298 0.06 6.62 0.69 12.73
4/2/2021 4:30:00 PM 4.57 40.226 0.06 6.52 0.65 12.73
4/2/2021 4:45:00 PM 4.52 40.136 0.06 6.61 0.73 12.74
4/2/2021 5:00:00 PM 4.47 40.046 0.06 6.62 0.74 12.75
4/2/2021 5:15:00 PM 4.41 39.938 0.06 6.58 0.76 12.76
4/2/2021 5:30:00 PM 4.36 39.848 0.06 6.62 0.76 12.78
4/2/2021 5:45:00 PM 4.31 39.758 0.06 6.56 0.67 12.78
4/2/2021 6:00:00 PM 4.27 39.686 0.06 6.58 0.7 12.79
4/2/2021 6:15:00 PM 4.22 39.596 0.06 6.59 0.69 12.8
4/2/2021 6:30:00 PM 4.18 39.524 0.06 6.55 0.69 12.81
4/2/2021 6:45:00 PM 4.15 39.47 0.06 6.59 0.7 12.81
4/2/2021 7:00:00 PM 4.1 39.38 0.06 6.59 0.72 12.81
4/2/2021 7:15:00 PM 4.07 39.326 0.059 6.59 0.68 12.82
4/2/2021 7:30:00 PM 4.02 39.236 0.059 6.55 0.75 12.84
4/2/2021 7:45:00 PM 3.98 39.164 0.059 6.57 0.75 12.84
4/2/2021 8:00:00 PM 3.95 39.11 0.06 6.54 0.73 12.85
4/2/2021 8:15:00 PM 3.92 39.056 0.059 6.55 0.75 12.87
4/2/2021 8:30:00 PM 3.89 39.002 0.059 6.58 0.76 12.87
4/2/2021 8:45:00 PM 3.86 38.948 0.059 6.47 0.76 12.89
4/2/2021 9:00:00 PM 3.82 38.876 0.059 6.58 0.75 12.9
4/2/2021 9:15:00 PM 3.78 38.804 0.059 6.57 0.71 12.92
4/2/2021 9:30:00 PM 3.73 38.714 0.06 6.44 0.75 12.94
4/2/2021 9:45:00 PM 3.68 38.624 0.06 6.58 0.76 12.96
4/2/2021 10:00:00 PM 3.64 38.552 0.06 6.53 0.78 12.98
4/2/2021 10:15:00 PM 3.59 38.462 0.06 6.56 0.73 12.99
4/2/2021 10:30:00 PM 3.53 38.354 0.06 6.52 0.71 13.02
4/2/2021 10:45:00 PM 3.48 38.264 0.06 6.55 0.75 13.04
4/2/2021 11:00:00 PM 3.42 38.156 0.06 6.56 0.78 13.07
4/2/2021 11:15:00 PM 3.36 38.048 0.06 6.53 0.72 13.08
4/2/2021 11:30:00 PM 3.3 37.94 0.06 6.48 0.71 13.1
4/2/2021 11:45:00 PM 3.25 37.85 0.06 6.53 0.7 13.13
4/3/2021 12:00:00 AM 3.19 37.742 0.06 6.55 0.69 13.14
4/3/2021 12:15:00 AM 3.13 37.634 0.06 6.53 0.72 13.16
4/3/2021 12:30:00 AM 3.08 37.544 0.06 6.56 0.7 13.18
4/3/2021 12:45:00 AM 3.03 37.454 0.06 6.47 0.77 13.2
4/3/2021 1:00:00 AM 2.97 37.346 0.06 6.52 0.67 13.23
4/3/2021 1:15:00 AM 2.92 37.256 0.06 6.56 0.7 13.24
4/3/2021 1:30:00 AM 2.87 37.166 0.059 6.52 0.68 13.26
4/3/2021 1:45:00 AM 2.82 37.076 0.059 6.54 0.69 13.28
4/3/2021 2:00:00 AM 2.77 36.986 0.059 6.45 0.79 13.3
4/3/2021 2:15:00 AM 2.72 36.896 0.059 6.54 0.69 13.32
4/3/2021 2:30:00 AM 2.67 36.806 0.06 6.5 0.66 13.34
4/3/2021 2:45:00 AM 2.62 36.716 0.06 6.55 0.7 13.36
4/3/2021 3:00:00 AM 2.57 36.626 0.06 6.54 0.7 13.38
4/3/2021 3:15:00 AM 2.52 36.536 0.06 6.48 0.66 13.4
4/3/2021 3:30:00 AM 2.47 36.446 0.06 6.53 0.68 13.41
4/3/2021 3:45:00 AM 2.42 36.356 0.06 6.54 0.68 13.44
4/3/2021 4:00:00 AM 2.36 36.248 0.06 6.54 0.65 13.45
4/3/2021 4:15:00 AM 2.31 36.158 0.06 6.5 0.66 13.48
4/3/2021 4:30:00 AM 2.26 36.068 0.06 6.53 0.68 13.5
4/3/2021 4:45:00 AM 2.21 35.978 0.06 6.47 0.67 13.52
4/3/2021 5:00:00 AM 2.16 35.888 0.06 6.53 0.69 13.54
4/3/2021 5:15:00 AM 2.11 35.798 0.06 6.47 0.65 13.57
4/3/2021 5:30:00 AM 2.06 35.708 0.06 6.47 0.66 13.59
4/3/2021 5:45:00 AM 2.01 35.618 0.06 6.51 0.67 13.61
4/3/2021 6:00:00 AM 1.96 35.528 0.06 6.41 0.69 13.62
4/3/2021 6:15:00 AM 1.91 35.438 0.06 6.51 0.67 13.66
4/3/2021 6:30:00 AM 1.86 35.348 0.06 6.51 0.67 13.68
4/3/2021 6:45:00 AM 1.81 35.258 0.06 6.51 0.72 13.69
4/3/2021 7:00:00 AM 1.76 35.168 0.06 6.5 0.71 13.72
4/3/2021 7:15:00 AM 1.72 35.096 0.06 6.5 0.63 13.76
4/3/2021 7:30:00 AM 1.69 35.042 0.06 6.48 0.68 13.79
4/3/2021 7:45:00 AM 1.67 35.006 0.06 6.51 0.74 13.82
4/3/2021 8:00:00 AM 1.65 34.97 0.06 6.51 0.71 13.84
4/3/2021 8:15:00 AM 1.64 34.952 0.06 6.52 0.69 13.87
4/3/2021 8:30:00 AM 1.64 34.952 0.06 6.53 0.75 13.89
4/3/2021 8:45:00 AM 1.66 34.988 0.059 6.47 0.73 13.88
4/3/2021 9:00:00 AM 1.69 35.042 0.059 6.54 0.67 13.9
4/3/2021 9:15:00 AM 1.74 35.132 0.059 6.55 0.68 13.88
4/3/2021 9:30:00 AM 1.81 35.258 0.059 6.51 0.64 13.87
4/3/2021 9:45:00 AM 1.9 35.42 0.059 6.56 0.65 13.86
4/3/2021 10:00:00 AM 2 35.6 0.059 6.56 0.62 13.83
4/3/2021 10:15:00 AM 2.11 35.798 0.059 6.57 0.69 13.8
4/3/2021 10:30:00 AM 2.25 36.05 0.059 6.58 0.59 13.76
4/3/2021 10:45:00 AM 2.41 36.338 0.059 6.58 0.6 13.71
4/3/2021 11:00:00 AM 2.58 36.644 0.059 6.59 0.64 13.65
4/3/2021 11:15:00 AM 2.78 37.004 0.059 6.59 0.62 13.58
4/3/2021 11:30:00 AM 2.99 37.382 0.059 6.61 0.62 13.49
4/3/2021 11:45:00 AM 3.23 37.814 0.059 6.62 0.62 13.41
4/3/2021 12:00:00 PM 3.48 38.264 0.059 6.61 0.65 13.32
4/3/2021 12:15:00 PM 3.75 38.75 0.059 6.61 0.63 13.23
4/3/2021 12:30:00 PM 4.01 39.218 0.059 6.64 0.56 13.13
4/3/2021 12:45:00 PM 4.26 39.668 0.059 6.64 0.55 13.04
4/3/2021 1:00:00 PM 4.48 40.064 0.059 6.65 0.57 12.96
4/3/2021 1:15:00 PM 4.68 40.424 0.059 6.66 0.57 12.9
4/3/2021 1:30:00 PM 4.84 40.712 0.059 6.59 0.53 12.83
4/3/2021 1:45:00 PM 4.98 40.964 0.059 6.65 0.51 12.77
4/3/2021 2:00:00 PM 5.06 41.108 0.059 6.62 0.59 12.72
4/3/2021 2:15:00 PM 5.13 41.234 0.059 6.66 0.56 12.68
4/3/2021 2:30:00 PM 5.2 41.36 0.059 6.68 0.54 12.65
4/3/2021 2:45:00 PM 5.24 41.432 0.059 6.67 0.54 12.62
4/3/2021 3:00:00 PM 5.28 41.504 0.059 6.68 0.56 12.59
4/3/2021 3:15:00 PM 5.32 41.576 0.059 6.69 0.56 12.57
4/3/2021 3:30:00 PM 5.33 41.594 0.059 6.65 0.58 12.56
4/3/2021 3:45:00 PM 5.34 41.612 0.059 6.69 0.57 12.55
4/3/2021 4:00:00 PM 5.35 41.63 0.059 6.69 0.56 12.54
4/3/2021 4:15:00 PM 5.35 41.63 0.059 6.6 0.52 12.54
4/3/2021 4:30:00 PM 5.33 41.594 0.059 6.68 0.63 12.53
4/3/2021 4:45:00 PM 5.3 41.54 0.059 6.69 0.59 12.53
4/3/2021 5:00:00 PM 5.28 41.504 0.059 6.69 0.57 12.53
4/3/2021 5:15:00 PM 5.26 41.468 0.059 6.65 0.62 12.53
4/3/2021 5:30:00 PM 5.24 41.432 0.059 6.69 0.63 12.54
4/3/2021 5:45:00 PM 5.22 41.396 0.059 6.65 0.6 12.53
4/3/2021 6:00:00 PM 5.22 41.396 0.059 6.63 0.61 12.53
4/3/2021 6:15:00 PM 5.22 41.396 0.059 6.67 0.63 12.52
4/3/2021 6:30:00 PM 5.23 41.414 0.059 6.65 0.61 12.51
4/3/2021 6:45:00 PM 5.23 41.414 0.059 6.61 0.57 12.5
4/3/2021 7:00:00 PM 5.23 41.414 0.059 6.62 0.66 12.48
4/3/2021 7:15:00 PM 5.22 41.396 0.059 6.64 0.6 12.46
4/3/2021 7:30:00 PM 5.2 41.36 0.059 6.64 0.56 12.43
4/3/2021 7:45:00 PM 5.18 41.324 0.059 6.63 0.67 12.42
4/3/2021 8:00:00 PM 5.17 41.306 0.059 6.58 0.62 12.42
4/3/2021 8:15:00 PM 5.16 41.288 0.06 6.56 0.63 12.42
4/3/2021 8:30:00 PM 5.14 41.252 0.06 6.62 0.7 12.42
4/3/2021 8:45:00 PM 5.13 41.234 0.06 6.62 0.62 12.42
4/3/2021 9:00:00 PM 5.12 41.216 0.06 6.6 0.63 12.43
4/3/2021 9:15:00 PM 5.11 41.198 0.06 6.62 0.63 12.43
4/3/2021 9:30:00 PM 5.09 41.162 0.06 6.61 0.66 12.44
4/3/2021 9:45:00 PM 5.08 41.144 0.06 6.57 0.65 12.44
4/3/2021 10:00:00 PM 5.06 41.108 0.06 6.61 0.61 12.45
4/3/2021 10:15:00 PM 5.04 41.072 0.06 6.57 0.63 12.46
4/3/2021 10:30:00 PM 5.02 41.036 0.06 6.55 0.65 12.47
4/3/2021 10:45:00 PM 5.01 41.018 0.06 6.61 0.6 12.47
4/3/2021 11:00:00 PM 4.99 40.982 0.06 6.61 0.61 12.48
4/3/2021 11:15:00 PM 4.98 40.964 0.06 6.59 0.69 12.49
4/3/2021 11:30:00 PM 4.97 40.946 0.06 6.6 0.61 12.49
4/3/2021 11:45:00 PM 4.96 40.928 0.06 6.52 0.62 12.49
4/4/2021 12:00:00 AM 4.94 40.892 0.06 6.57 0.63 12.49
4/4/2021 12:15:00 AM 4.93 40.874 0.06 6.59 0.64 12.5
4/4/2021 12:30:00 AM 4.92 40.856 0.06 6.59 0.7 12.5
4/4/2021 12:45:00 AM 4.91 40.838 0.06 6.61 0.63 12.5
4/4/2021 1:00:00 AM 4.9 40.82 0.06 6.61 0.62 12.5
4/4/2021 1:15:00 AM 4.89 40.802 0.06 6.57 0.59 12.5
4/4/2021 1:30:00 AM 4.87 40.766 0.06 6.61 0.62 12.5
4/4/2021 1:45:00 AM 4.86 40.748 0.06 6.55 0.61 12.51
4/4/2021 2:00:00 AM 4.85 40.73 0.06 6.6 0.61 12.5
4/4/2021 2:15:00 AM 4.84 40.712 0.059 6.5 0.61 12.51
4/4/2021 2:30:00 AM 4.83 40.694 0.059 6.6 0.65 12.51
4/4/2021 2:45:00 AM 4.82 40.676 0.059 6.58 0.65 12.51
4/4/2021 3:00:00 AM 4.81 40.658 0.059 6.59 0.6 12.51
4/4/2021 3:15:00 AM 4.8 40.64 0.059 6.59 0.62 12.51
4/4/2021 3:30:00 AM 4.79 40.622 0.059 6.58 0.61 12.51
4/4/2021 3:45:00 AM 4.78 40.604 0.059 6.6 0.64 12.52
4/4/2021 4:00:00 AM 4.77 40.586 0.059 6.58 0.66 12.52
4/4/2021 4:15:00 AM 4.75 40.55 0.059 6.6 0.61 12.51
4/4/2021 4:30:00 AM 4.74 40.532 0.059 6.61 0.58 12.51
4/4/2021 4:45:00 AM 4.73 40.514 0.059 6.6 0.57 12.53
4/4/2021 5:00:00 AM 4.71 40.478 0.059 6.5 0.59 12.53
4/4/2021 5:15:00 AM 4.7 40.46 0.059 6.6 0.58 12.53
4/4/2021 5:30:00 AM 4.68 40.424 0.059 6.56 0.61 12.54
4/4/2021 5:45:00 AM 4.65 40.37 0.059 6.6 0.65 12.54
4/4/2021 6:00:00 AM 4.62 40.316 0.059 6.49 0.61 12.55
4/4/2021 6:15:00 AM 4.59 40.262 0.059 6.59 0.57 12.56
4/4/2021 6:30:00 AM 4.56 40.208 0.059 6.56 0.56 12.56
4/4/2021 6:45:00 AM 4.54 40.172 0.059 6.6 0.59 12.58
4/4/2021 7:00:00 AM 4.52 40.136 0.059 6.54 0.59 12.59
4/4/2021 7:15:00 AM 4.51 40.118 0.059 6.6 0.58 12.6
4/4/2021 7:30:00 AM 4.5 40.1 0.059 6.61 0.59 12.62
4/4/2021 7:45:00 AM 4.5 40.1 0.059 6.61 0.71 12.65
4/4/2021 8:00:00 AM 4.51 40.118 0.059 6.62 0.63 12.67
4/4/2021 8:15:00 AM 4.51 40.118 0.059 6.59 0.65 12.69
4/4/2021 8:30:00 AM 4.52 40.136 0.059 6.56 0.62 12.7
4/4/2021 8:45:00 AM 4.54 40.172 0.059 6.63 0.6 12.71
4/4/2021 9:00:00 AM 4.57 40.226 0.059 6.62 0.58 12.71
4/4/2021 9:15:00 AM 4.62 40.316 0.059 6.61 0.62 12.7
4/4/2021 9:30:00 AM 4.68 40.424 0.059 6.65 0.56 12.7
4/4/2021 9:45:00 AM 4.77 40.586 0.059 6.65 0.57 12.67
4/4/2021 10:00:00 AM 4.87 40.766 0.059 6.66 0.6 12.65
4/4/2021 10:15:00 AM 4.99 40.982 0.059 6.67 0.56 12.63
4/4/2021 10:30:00 AM 5.13 41.234 0.059 6.68 0.55 12.6
4/4/2021 10:45:00 AM 5.29 41.522 0.059 6.65 0.61 12.55
4/4/2021 11:00:00 AM 5.46 41.828 0.059 6.67 0.65 12.5
4/4/2021 11:15:00 AM 5.66 42.188 0.059 6.68 0.62 12.44
4/4/2021 11:30:00 AM 5.88 42.584 0.059 6.69 0.6 12.37
4/4/2021 11:45:00 AM 6.12 43.016 0.059 6.69 0.53 12.3
4/4/2021 12:00:00 PM 6.31 43.358 0.059 6.63 0.61 12.22
4/4/2021 12:15:00 PM 6.57 43.826 0.059 6.71 0.61 12.15
4/4/2021 12:30:00 PM 6.9 44.42 0.059 6.72 0.6 12.07
4/4/2021 12:45:00 PM 7.14 44.852 0.059 6.69 0.52 11.99
4/4/2021 1:00:00 PM 7.34 45.212 0.059 6.73 0.55 11.92
4/4/2021 1:15:00 PM 7.54 45.572 0.058 6.62 0.53 11.85
4/4/2021 1:30:00 PM 7.68 45.824 0.058 6.71 0.53 11.8
4/4/2021 1:45:00 PM 7.82 46.076 0.058 6.73 0.5 11.76
4/4/2021 2:00:00 PM 7.92 46.256 0.058 6.73 0.5 11.72
4/4/2021 2:15:00 PM 7.93 46.274 0.058 6.73 0.52 11.69
4/4/2021 2:30:00 PM 7.97 46.346 0.058 6.73 0.58 11.68
4/4/2021 2:45:00 PM 8.03 46.454 0.058 6.65 0.54 11.67
4/4/2021 3:00:00 PM 8.07 46.526 0.058 6.75 0.56 11.65
4/4/2021 3:15:00 PM 8.07 46.526 0.058 6.73 0.54 11.62
4/4/2021 3:30:00 PM 8.07 46.526 0.058 6.73 0.52 11.59
4/4/2021 3:45:00 PM 8.04 46.472 0.058 6.73 0.59 11.58
4/4/2021 4:00:00 PM 8.03 46.454 0.059 6.73 0.51 11.59
4/4/2021 4:15:00 PM 8.02 46.436 0.059 6.73 0.6 11.59
4/4/2021 4:30:00 PM 8.02 46.436 0.059 6.69 0.62 11.59
4/4/2021 4:45:00 PM 8.02 46.436 0.059 6.73 0.57 11.58
4/4/2021 5:00:00 PM 8 46.4 0.059 6.72 0.59 11.57
4/4/2021 5:15:00 PM 7.98 46.364 0.059 6.72 0.57 11.57
4/4/2021 5:30:00 PM 7.93 46.274 0.059 6.71 0.59 11.57
4/4/2021 5:45:00 PM 7.89 46.202 0.059 6.7 0.64 11.58
4/4/2021 6:00:00 PM 7.85 46.13 0.059 6.7 0.63 11.58
4/4/2021 6:15:00 PM 7.81 46.058 0.059 6.68 0.61 11.58
4/4/2021 6:30:00 PM 7.77 45.986 0.059 6.63 0.62 11.59
4/4/2021 6:45:00 PM 7.73 45.914 0.059 6.7 0.67 11.59
4/4/2021 7:00:00 PM 7.69 45.842 0.059 6.68 0.63 11.59
4/4/2021 7:15:00 PM 7.66 45.788 0.059 6.69 0.64 11.59
4/4/2021 7:30:00 PM 7.63 45.734 0.059 6.68 0.65 11.58
4/4/2021 7:45:00 PM 7.6 45.68 0.059 6.63 0.6 11.58
4/4/2021 8:00:00 PM 7.57 45.626 0.059 6.65 0.68 11.58
4/4/2021 8:15:00 PM 7.54 45.572 0.059 6.67 0.6 11.59
4/4/2021 8:30:00 PM 7.51 45.518 0.059 6.66 0.67 11.59
4/4/2021 8:45:00 PM 7.48 45.464 0.059 6.66 0.72 11.6
4/4/2021 9:00:00 PM 7.45 45.41 0.059 6.61 0.64 11.61
4/4/2021 9:15:00 PM 7.42 45.356 0.059 6.61 0.65 11.62
4/4/2021 9:30:00 PM 7.39 45.302 0.059 6.66 0.74 11.64
4/4/2021 9:45:00 PM 7.34 45.212 0.059 6.66 0.66 11.64
4/4/2021 10:00:00 PM 7.3 45.14 0.059 6.64 0.69 11.66
4/4/2021 10:15:00 PM 7.26 45.068 0.059 6.62 0.69 11.67
4/4/2021 10:30:00 PM 7.21 44.978 0.059 6.64 0.72 11.69
4/4/2021 10:45:00 PM 7.16 44.888 0.059 6.58 0.74 11.71
4/4/2021 11:00:00 PM 7.1 44.78 0.059 6.6 0.72 11.72
4/4/2021 11:15:00 PM 7.05 44.69 0.059 6.65 0.67 11.74
4/4/2021 11:30:00 PM 6.99 44.582 0.059 6.65 0.69 11.76
4/4/2021 11:45:00 PM 6.92 44.456 0.059 6.66 0.62 11.78
4/5/2021 12:00:00 AM 6.86 44.348 0.059 6.65 0.68 11.79
4/5/2021 12:15:00 AM 6.8 44.24 0.06 6.66 0.69 11.81
4/5/2021 12:30:00 AM 6.73 44.114 0.06 6.65 0.62 11.83
4/5/2021 12:45:00 AM 6.66 43.988 0.06 6.65 0.71 11.85
4/5/2021 1:00:00 AM 6.59 43.862 0.06 6.6 0.7 11.87
4/5/2021 1:15:00 AM 6.53 43.754 0.06 6.65 0.68 11.89
4/5/2021 1:30:00 AM 6.46 43.628 0.06 6.64 0.68 11.92
4/5/2021 1:45:00 AM 6.39 43.502 0.06 6.65 0.67 11.94
4/5/2021 2:00:00 AM 6.32 43.376 0.06 6.65 0.68 11.96
4/5/2021 2:15:00 AM 6.25 43.25 0.06 6.64 0.65 11.98
4/5/2021 2:30:00 AM 6.18 43.124 0.06 6.62 0.74 12
4/5/2021 2:45:00 AM 6.11 42.998 0.06 6.63 0.82 12.02
4/5/2021 3:00:00 AM 6.05 42.89 0.06 6.62 0.71 12.04
4/5/2021 3:15:00 AM 5.98 42.764 0.06 6.62 0.81 12.06
4/5/2021 3:30:00 AM 5.91 42.638 0.06 6.64 0.7 12.08
4/5/2021 3:45:00 AM 5.85 42.53 0.06 6.63 0.66 12.1
4/5/2021 4:00:00 AM 5.78 42.404 0.06 6.64 0.73 12.13
4/5/2021 4:15:00 AM 5.71 42.278 0.06 6.61 0.67 12.15
4/5/2021 4:30:00 AM 5.65 42.17 0.06 6.64 0.64 12.17
4/5/2021 4:45:00 AM 5.58 42.044 0.06 6.59 0.72 12.19
4/5/2021 5:00:00 AM 5.52 41.936 0.06 6.56 0.7 12.21
4/5/2021 5:15:00 AM 5.45 41.81 0.06 6.64 0.65 12.24
4/5/2021 5:30:00 AM 5.38 41.684 0.06 6.62 0.67 12.25
4/5/2021 5:45:00 AM 5.32 41.576 0.06 6.62 0.69 12.28
4/5/2021 6:00:00 AM 5.27 41.486 0.06 6.62 0.71 12.3
4/5/2021 6:15:00 AM 5.21 41.378 0.06 6.61 0.67 12.32
4/5/2021 6:30:00 AM 5.16 41.288 0.06 6.63 0.78 12.34
4/5/2021 6:45:00 AM 5.1 41.18 0.06 6.61 0.69 12.37
4/5/2021 7:00:00 AM 5.05 41.09 0.059 6.61 0.69 12.39
4/5/2021 7:15:00 AM 5.01 41.018 0.059 6.59 0.67 12.42
4/5/2021 7:30:00 AM 4.97 40.946 0.059 6.63 0.67 12.46
4/5/2021 7:45:00 AM 4.94 40.892 0.059 6.64 0.72 12.49
4/5/2021 8:00:00 AM 4.91 40.838 0.059 6.65 0.66 12.52
4/5/2021 8:15:00 AM 4.9 40.82 0.059 6.66 0.71 12.54
4/5/2021 8:30:00 AM 4.9 40.82 0.059 6.65 0.72 12.56
4/5/2021 8:45:00 AM 4.91 40.838 0.059 6.66 0.64 12.57
4/5/2021 9:00:00 AM 4.95 40.91 0.059 6.58 0.7 12.58
4/5/2021 9:15:00 AM 5 41 0.059 6.62 0.68 12.58
4/5/2021 9:30:00 AM 5.07 41.126 0.059 6.67 0.61 12.57
4/5/2021 9:45:00 AM 5.17 41.306 0.059 6.68 0.61 12.55
4/5/2021 10:00:00 AM 5.28 41.504 0.059 6.69 0.65 12.52
4/5/2021 10:15:00 AM 5.41 41.738 0.059 6.69 0.6 12.5
4/5/2021 10:30:00 AM 5.55 41.99 0.059 6.69 0.64 12.47
4/5/2021 10:45:00 AM 5.71 42.278 0.059 6.72 0.64 12.42
4/5/2021 11:00:00 AM 5.89 42.602 0.058 6.7 0.6 12.37
4/5/2021 11:15:00 AM 6.1 42.98 0.058 6.72 0.62 12.31
4/5/2021 11:30:00 AM 6.32 43.376 0.058 6.71 0.53 12.24
4/5/2021 11:45:00 AM 6.57 43.826 0.058 6.71 0.57 12.16
4/5/2021 12:00:00 PM 6.83 44.294 0.058 6.68 0.52 12.08
4/5/2021 12:15:00 PM 7.12 44.816 0.058 6.67 0.49 12
4/5/2021 12:30:00 PM 7.41 45.338 0.058 6.7 0.51 11.91
4/5/2021 12:45:00 PM 7.68 45.824 0.059 6.7 0.51 11.83
4/5/2021 1:00:00 PM 7.93 46.274 0.059 6.71 0.5 11.75
4/5/2021 1:15:00 PM 8.15 46.67 0.059 6.71 0.48 11.68
4/5/2021 1:30:00 PM 8.33 46.994 0.059 6.67 0.5 11.62
4/5/2021 1:45:00 PM 8.47 47.246 0.059 6.71 0.45 11.57
4/5/2021 2:00:00 PM 8.57 47.426 0.059 6.69 0.5 11.54
4/5/2021 2:15:00 PM 8.63 47.534 0.059 6.69 0.46 11.51
4/5/2021 2:30:00 PM 8.68 47.624 0.059 6.72 0.51 11.48
4/5/2021 2:45:00 PM 8.7 47.66 0.059 6.72 0.54 11.46
4/5/2021 3:00:00 PM 8.73 47.714 0.059 6.7 0.58 11.44
4/5/2021 3:15:00 PM 8.75 47.75 0.059 6.71 0.49 11.42
4/5/2021 3:30:00 PM 8.76 47.768 0.059 6.65 0.56 11.41
4/5/2021 3:45:00 PM 8.76 47.768 0.059 6.71 0.53 11.4
4/5/2021 4:00:00 PM 8.76 47.768 0.059 6.71 0.59 11.38
4/5/2021 4:15:00 PM 8.76 47.768 0.059 6.69 0.55 11.38
4/5/2021 4:30:00 PM 8.75 47.75 0.059 6.72 0.53 11.38
4/5/2021 4:45:00 PM 8.72 47.696 0.06 6.7 0.56 11.38
4/5/2021 5:00:00 PM 8.68 47.624 0.059 6.71 0.54 11.38
4/5/2021 5:15:00 PM 8.65 47.57 0.059 6.71 0.57 11.39
4/5/2021 5:30:00 PM 8.63 47.534 0.059 6.7 0.57 11.4
4/5/2021 5:45:00 PM 8.58 47.444 0.059 6.7 0.53 11.41
4/5/2021 6:00:00 PM 8.54 47.372 0.059 6.7 0.61 11.41
4/5/2021 6:15:00 PM 8.5 47.3 0.059 6.65 0.57 11.41
4/5/2021 6:30:00 PM 8.47 47.246 0.059 6.68 0.57 11.4
4/5/2021 6:45:00 PM 8.44 47.192 0.059 6.67 0.62 11.4
4/5/2021 7:00:00 PM 8.4 47.12 0.059 6.68 0.63 11.39
4/5/2021 7:15:00 PM 8.36 47.048 0.059 6.65 0.61 11.38
4/5/2021 7:30:00 PM 8.32 46.976 0.059 6.63 0.64 11.37
4/5/2021 7:45:00 PM 8.27 46.886 0.059 6.63 0.65 11.36
4/5/2021 8:00:00 PM 8.23 46.814 0.059 6.63 0.63 11.37
4/5/2021 8:15:00 PM 8.19 46.742 0.059 6.63 0.7 11.37
4/5/2021 8:30:00 PM 8.15 46.67 0.059 6.62 0.69 11.38
4/5/2021 8:45:00 PM 8.11 46.598 0.059 6.62 0.63 11.39
4/5/2021 9:00:00 PM 8.08 46.544 0.059 6.62 0.66 11.4
4/5/2021 9:15:00 PM 8.05 46.49 0.06 6.6 0.66 11.4
4/5/2021 9:30:00 PM 8.01 46.418 0.06 6.62 0.7 11.42
4/5/2021 9:45:00 PM 7.99 46.382 0.06 6.61 0.69 11.42
4/5/2021 10:00:00 PM 7.96 46.328 0.06 6.61 0.65 11.43
4/5/2021 10:15:00 PM 7.94 46.292 0.06 6.57 0.67 11.45
4/5/2021 10:30:00 PM 7.92 46.256 0.06 6.61 0.65 11.46
4/5/2021 10:45:00 PM 7.89 46.202 0.06 6.61 0.67 11.46
4/5/2021 11:00:00 PM 7.86 46.148 0.06 6.59 0.62 11.47
4/5/2021 11:15:00 PM 7.83 46.094 0.06 6.62 0.71 11.48
4/5/2021 11:30:00 PM 7.8 46.04 0.06 6.62 0.68 11.49
4/5/2021 11:45:00 PM 7.77 45.986 0.06 6.55 0.67 11.5
4/6/2021 12:00:00 AM 7.74 45.932 0.06 6.6 0.7 11.5
4/6/2021 12:15:00 AM 7.7 45.86 0.06 6.62 0.69 11.52
4/6/2021 12:30:00 AM 7.66 45.788 0.06 6.61 0.72 11.53
4/6/2021 12:45:00 AM 7.61 45.698 0.06 6.62 0.65 11.54
4/6/2021 1:00:00 AM 7.57 45.626 0.06 6.62 0.63 11.55
4/6/2021 1:15:00 AM 7.51 45.518 0.06 6.61 0.65 11.56
4/6/2021 1:30:00 AM 7.46 45.428 0.06 6.62 0.67 11.58
4/6/2021 1:45:00 AM 7.41 45.338 0.06 6.56 0.68 11.59
4/6/2021 2:00:00 AM 7.36 45.248 0.06 6.6 0.69 11.61
4/6/2021 2:15:00 AM 7.3 45.14 0.06 6.62 0.69 11.62
4/6/2021 2:30:00 AM 7.25 45.05 0.06 6.62 0.74 11.64
4/6/2021 2:45:00 AM 7.19 44.942 0.06 6.63 0.63 11.65
4/6/2021 3:00:00 AM 7.13 44.834 0.06 6.61 0.62 11.67
4/6/2021 3:15:00 AM 7.06 44.708 0.06 6.63 0.71 11.68
4/6/2021 3:30:00 AM 7 44.6 0.06 6.63 0.64 11.7
4/6/2021 3:45:00 AM 6.93 44.474 0.06 6.63 0.67 11.72
4/6/2021 4:00:00 AM 6.87 44.366 0.06 6.59 0.63 11.74
4/6/2021 4:15:00 AM 6.8 44.24 0.06 6.61 0.69 11.76
4/6/2021 4:30:00 AM 6.74 44.132 0.059 6.61 0.65 11.78
4/6/2021 4:45:00 AM 6.68 44.024 0.059 6.59 0.69 11.8
4/6/2021 5:00:00 AM 6.61 43.898 0.059 6.61 0.67 11.82
4/6/2021 5:15:00 AM 6.55 43.79 0.059 6.61 0.64 11.84
4/6/2021 5:30:00 AM 6.48 43.664 0.059 6.61 0.64 11.86
4/6/2021 5:45:00 AM 6.42 43.556 0.059 6.6 0.7 11.88
4/6/2021 6:00:00 AM 6.36 43.448 0.059 6.61 0.64 11.9
4/6/2021 6:15:00 AM 6.3 43.34 0.059 6.59 0.67 11.92
4/6/2021 6:30:00 AM 6.24 43.232 0.059 6.6 0.63 11.94
4/6/2021 6:45:00 AM 6.19 43.142 0.059 6.59 0.72 11.96
4/6/2021 7:00:00 AM 6.14 43.052 0.059 6.6 0.63 11.99
4/6/2021 7:15:00 AM 6.1 42.98 0.059 6.61 0.7 12.02
4/6/2021 7:30:00 AM 6.06 42.908 0.059 6.62 0.68 12.06
4/6/2021 7:45:00 AM 6.03 42.854 0.059 6.61 0.69 12.09
4/6/2021 8:00:00 AM 6.01 42.818 0.059 6.58 0.64 12.12
4/6/2021 8:15:00 AM 6 42.8 0.059 6.63 0.64 12.14
4/6/2021 8:30:00 AM 6 42.8 0.059 6.6 0.63 12.17
4/6/2021 8:45:00 AM 6.02 42.836 0.059 6.64 0.59 12.18
4/6/2021 9:00:00 AM 6.05 42.89 0.059 6.64 0.64 12.19
4/6/2021 9:15:00 AM 6.1 42.98 0.059 6.64 0.68 12.19
4/6/2021 9:30:00 AM 6.18 43.124 0.059 6.66 0.61 12.18
4/6/2021 9:45:00 AM 6.28 43.304 0.059 6.63 0.62 12.16
4/6/2021 10:00:00 AM 6.39 43.502 0.059 6.68 0.61 12.14
4/6/2021 10:15:00 AM 6.53 43.754 0.059 6.7 0.59 12.12
4/6/2021 10:30:00 AM 6.67 44.006 0.059 6.69 0.58 12.08
4/6/2021 10:45:00 AM 6.84 44.312 0.059 6.7 0.57 12.04
4/6/2021 11:00:00 AM 7.02 44.636 0.059 6.7 0.56 12
4/6/2021 11:15:00 AM 7.22 44.996 0.059 6.71 0.57 11.94
4/6/2021 11:30:00 AM 7.45 45.41 0.059 6.7 0.52 11.88
4/6/2021 11:45:00 AM 7.7 45.86 0.059 6.72 0.61 11.8
4/6/2021 12:00:00 PM 7.97 46.346 0.059 6.71 0.71 11.72
4/6/2021 12:15:00 PM 8.27 46.886 0.059 6.74 0.65 11.64
4/6/2021 12:30:00 PM 8.57 47.426 0.059 6.74 0.6 11.55
4/6/2021 12:45:00 PM 8.85 47.93 0.059 6.7 0.62 11.48
4/6/2021 1:00:00 PM 9.11 48.398 0.059 6.75 0.58 11.4
4/6/2021 1:15:00 PM 9.33 48.794 0.059 6.75 0.63 11.34
4/6/2021 1:30:00 PM 9.49 49.082 0.059 6.74 0.61 11.29
4/6/2021 1:45:00 PM 9.61 49.298 0.059 6.76 0.54 11.24
4/6/2021 2:00:00 PM 9.69 49.442 0.059 6.75 0.58 11.21
4/6/2021 2:15:00 PM 9.75 49.55 0.059 6.76 0.53 11.19
4/6/2021 2:30:00 PM 9.78 49.604 0.059 6.76 0.53 11.16
4/6/2021 2:45:00 PM 9.8 49.64 0.059 6.76 0.5 11.14
4/6/2021 3:00:00 PM 9.8 49.64 0.059 6.76 0.54 11.13
4/6/2021 3:15:00 PM 9.8 49.64 0.059 6.73 0.57 11.12
4/6/2021 3:30:00 PM 9.8 49.64 0.059 6.74 0.61 11.1
4/6/2021 3:45:00 PM 9.78 49.604 0.059 6.75 0.61 11.1
4/6/2021 4:00:00 PM 9.75 49.55 0.059 6.74 0.56 11.09
4/6/2021 4:15:00 PM 9.72 49.496 0.059 6.75 0.57 11.09
4/6/2021 4:30:00 PM 9.68 49.424 0.059 6.75 0.59 11.09
4/6/2021 4:45:00 PM 9.64 49.352 0.059 6.75 0.59 11.09
4/6/2021 5:00:00 PM 9.58 49.244 0.059 6.69 0.62 11.1
4/6/2021 5:15:00 PM 9.52 49.136 0.059 6.73 0.66 11.1
4/6/2021 5:30:00 PM 9.44 48.992 0.059 6.72 0.62 11.11
4/6/2021 5:45:00 PM 9.37 48.866 0.06 6.72 0.57 11.12
4/6/2021 6:00:00 PM 9.3 48.74 0.06 6.72 0.58 11.14
4/6/2021 6:15:00 PM 9.23 48.614 0.06 6.69 0.66 11.15
4/6/2021 6:30:00 PM 9.17 48.506 0.06 6.7 0.6 11.16
4/6/2021 6:45:00 PM 9.11 48.398 0.06 6.69 0.57 11.17
4/6/2021 7:00:00 PM 9.05 48.29 0.06 6.61 0.62 11.17
4/6/2021 7:15:00 PM 8.99 48.182 0.06 6.66 0.61 11.17
4/6/2021 7:30:00 PM 8.93 48.074 0.06 6.65 0.58 11.17
4/6/2021 7:45:00 PM 8.87 47.966 0.06 6.66 0.63 11.17
4/6/2021 8:00:00 PM 8.82 47.876 0.06 6.65 0.59 11.18
4/6/2021 8:15:00 PM 8.76 47.768 0.06 6.64 0.6 11.18
4/6/2021 8:30:00 PM 8.72 47.696 0.06 6.64 0.64 11.19
4/6/2021 8:45:00 PM 8.69 47.642 0.06 6.64 0.6 11.2
4/6/2021 9:00:00 PM 8.66 47.588 0.06 6.61 0.6 11.21
4/6/2021 9:15:00 PM 8.65 47.57 0.06 6.63 0.56 11.22
4/6/2021 9:30:00 PM 8.63 47.534 0.06 6.63 0.65 11.22
4/6/2021 9:45:00 PM 8.62 47.516 0.06 6.62 0.64 11.23
4/6/2021 10:00:00 PM 8.61 47.498 0.06 6.62 0.62 11.22
4/6/2021 10:15:00 PM 8.59 47.462 0.06 6.58 0.67 11.23
4/6/2021 10:30:00 PM 8.58 47.444 0.06 6.62 0.7 11.23
4/6/2021 10:45:00 PM 8.57 47.426 0.06 6.63 0.67 11.25
4/6/2021 11:00:00 PM 8.55 47.39 0.06 6.6 0.61 11.25
4/6/2021 11:15:00 PM 8.53 47.354 0.06 6.57 0.65 11.26
4/6/2021 11:30:00 PM 8.51 47.318 0.06 6.63 0.62 11.27
4/6/2021 11:45:00 PM 8.49 47.282 0.06 6.54 0.66 11.27
4/7/2021 12:00:00 AM 8.47 47.246 0.06 6.6 0.64 11.28
4/7/2021 12:15:00 AM 8.43 47.174 0.06 6.62 0.64 11.29
4/7/2021 12:30:00 AM 8.4 47.12 0.06 6.63 0.6 11.3
4/7/2021 12:45:00 AM 8.37 47.066 0.06 6.63 0.63 11.3
4/7/2021 1:00:00 AM 8.34 47.012 0.06 6.63 0.65 11.32
4/7/2021 1:15:00 AM 8.31 46.958 0.06 6.63 0.63 11.32
4/7/2021 1:30:00 AM 8.28 46.904 0.06 6.63 0.59 11.33
4/7/2021 1:45:00 AM 8.25 46.85 0.06 6.58 0.59 11.34
4/7/2021 2:00:00 AM 8.22 46.796 0.06 6.63 0.66 11.35
4/7/2021 2:15:00 AM 8.19 46.742 0.06 6.62 0.62 11.36
4/7/2021 2:30:00 AM 8.16 46.688 0.06 6.63 0.6 11.37
4/7/2021 2:45:00 AM 8.13 46.634 0.06 6.62 0.62 11.38
4/7/2021 3:00:00 AM 8.1 46.58 0.06 6.64 0.59 11.39
4/7/2021 3:15:00 AM 8.07 46.526 0.06 6.63 0.63 11.39
4/7/2021 3:30:00 AM 8.05 46.49 0.06 6.63 0.61 11.4
4/7/2021 3:45:00 AM 8.02 46.436 0.06 6.63 0.61 11.41
4/7/2021 4:00:00 AM 7.99 46.382 0.06 6.63 0.62 11.41
4/7/2021 4:15:00 AM 7.96 46.328 0.06 6.64 0.69 11.42
4/7/2021 4:30:00 AM 7.93 46.274 0.06 6.64 0.62 11.43
4/7/2021 4:45:00 AM 7.9 46.22 0.06 6.57 0.62 11.44
4/7/2021 5:00:00 AM 7.87 46.166 0.06 6.64 0.57 11.45
4/7/2021 5:15:00 AM 7.84 46.112 0.06 6.56 0.6 11.45
4/7/2021 5:30:00 AM 7.82 46.076 0.06 6.63 0.61 11.46
4/7/2021 5:45:00 AM 7.8 46.04 0.06 6.64 0.63 11.47
4/7/2021 6:00:00 AM 7.77 45.986 0.06 6.63 0.59 11.49
4/7/2021 6:15:00 AM 7.75 45.95 0.06 6.64 0.62 11.49
4/7/2021 6:30:00 AM 7.72 45.896 0.06 6.62 0.67 11.5
4/7/2021 6:45:00 AM 7.7 45.86 0.06 6.65 0.63 11.5
4/7/2021 7:00:00 AM 7.68 45.824 0.06 6.64 0.65 11.51
4/7/2021 7:15:00 AM 7.66 45.788 0.06 6.63 0.65 11.53
4/7/2021 7:30:00 AM 7.64 45.752 0.06 6.63 0.6 11.54
4/7/2021 7:45:00 AM 7.63 45.734 0.06 6.65 0.64 11.58
4/7/2021 8:00:00 AM 7.63 45.734 0.06 6.61 0.61 11.61
4/7/2021 8:15:00 AM 7.63 45.734 0.06 6.67 0.61 11.63
4/7/2021 8:30:00 AM 7.64 45.752 0.06 6.68 0.59 11.65
4/7/2021 8:45:00 AM 7.66 45.788 0.06 6.68 0.61 11.67
4/7/2021 9:00:00 AM 7.7 45.86 0.06 6.7 0.69 11.7
4/7/2021 9:15:00 AM 7.74 45.932 0.06 6.7 0.6 11.69
4/7/2021 9:30:00 AM 7.76 45.968 0.06 6.69 0.57 11.69
4/7/2021 9:45:00 AM 7.86 46.148 0.06 6.72 0.61 11.68
4/7/2021 10:00:00 AM 7.95 46.31 0.06 6.73 0.57 11.67
4/7/2021 10:15:00 AM 8 46.4 0.06 6.72 0.55 11.66
4/7/2021 10:30:00 AM 8.1 46.58 0.06 6.74 0.64 11.64
4/7/2021 10:45:00 AM 8.17 46.706 0.059 6.72 0.65 11.63
4/7/2021 11:00:00 AM 8.37 47.066 0.059 6.74 0.58 11.59
4/7/2021 11:15:00 AM 8.54 47.372 0.059 6.74 0.59 11.55
4/7/2021 11:30:00 AM 8.73 47.714 0.059 6.75 0.56 11.5
4/7/2021 11:45:00 AM 8.94 48.092 0.059 6.73 0.54 11.45
4/7/2021 12:00:00 PM 9.19 48.542 0.059 6.76 0.58 11.38
4/7/2021 12:15:00 PM 9.48 49.064 0.059 6.76 0.57 11.3
4/7/2021 12:30:00 PM 9.78 49.604 0.059 6.76 0.58 11.22
4/7/2021 12:45:00 PM 10.07 50.126 0.059 6.77 0.51 11.14
4/7/2021 1:00:00 PM 10.35 50.63 0.059 6.73 0.5 11.07
4/7/2021 1:15:00 PM 10.6 51.08 0.059 6.77 0.51 10.99
4/7/2021 1:30:00 PM 10.81 51.458 0.059 6.75 0.49 10.93
4/7/2021 1:45:00 PM 10.97 51.746 0.059 6.78 0.6 10.88
4/7/2021 2:00:00 PM 11.09 51.962 0.059 6.78 0.56 10.84
4/7/2021 2:15:00 PM 11.18 52.124 0.059 6.79 0.53 10.81
4/7/2021 2:30:00 PM 11.25 52.25 0.059 6.78 0.56 10.78
4/7/2021 2:45:00 PM 11.33 52.394 0.06 6.79 0.55 10.77
4/7/2021 3:00:00 PM 11.37 52.466 0.06 6.8 0.56 10.75
4/7/2021 3:15:00 PM 11.38 52.484 0.06 6.8 0.55 10.73
4/7/2021 3:30:00 PM 11.38 52.484 0.06 6.8 0.55 10.72
4/7/2021 3:45:00 PM 11.4 52.52 0.06 6.8 0.55 10.71
4/7/2021 4:00:00 PM 11.37 52.466 0.06 6.79 0.5 10.7
4/7/2021 4:15:00 PM 11.34 52.412 0.06 6.79 0.6 10.7
4/7/2021 4:30:00 PM 11.34 52.412 0.06 6.79 0.57 10.71
4/7/2021 4:45:00 PM 11.29 52.322 0.06 6.8 0.53 10.7
4/7/2021 5:00:00 PM 11.23 52.214 0.06 6.77 0.54 10.69
4/7/2021 5:15:00 PM 11.16 52.088 0.06 6.78 0.53 10.68
4/7/2021 5:30:00 PM 11.1 51.98 0.06 6.77 0.5 10.69
4/7/2021 5:45:00 PM 11.02 51.836 0.06 6.78 0.54 10.7
4/7/2021 6:00:00 PM 10.95 51.71 0.06 6.67 0.65 10.7
4/7/2021 6:15:00 PM 10.89 51.602 0.06 6.76 0.53 10.71
4/7/2021 6:30:00 PM 10.82 51.476 0.06 6.75 0.54 10.71
4/7/2021 6:45:00 PM 10.75 51.35 0.06 6.73 0.57 10.71
4/7/2021 7:00:00 PM 10.69 51.242 0.06 6.71 0.56 10.72
4/7/2021 7:15:00 PM 10.61 51.098 0.06 6.72 0.58 10.72
4/7/2021 7:30:00 PM 10.54 50.972 0.06 6.67 0.56 10.72
4/7/2021 7:45:00 PM 10.47 50.846 0.06 6.71 0.54 10.72
4/7/2021 8:00:00 PM 10.41 50.738 0.06 6.7 0.58 10.73
4/7/2021 8:15:00 PM 10.35 50.63 0.061 6.68 0.54 10.74
4/7/2021 8:30:00 PM 10.29 50.522 0.061 6.68 0.63 10.75
4/7/2021 8:45:00 PM 10.23 50.414 0.061 6.68 0.59 10.77
4/7/2021 9:00:00 PM 10.18 50.324 0.061 6.58 0.57 10.78
4/7/2021 9:15:00 PM 10.13 50.234 0.061 6.68 0.54 10.8
4/7/2021 9:30:00 PM 10.09 50.162 0.061 6.65 0.63 10.81
4/7/2021 9:45:00 PM 10.04 50.072 0.061 6.67 0.6 10.82
4/7/2021 10:00:00 PM 9.99 49.982 0.061 6.68 0.61 10.83
4/7/2021 10:15:00 PM 9.95 49.91 0.061 6.65 0.65 10.85
4/7/2021 10:30:00 PM 9.9 49.82 0.061 6.63 0.63 10.86
4/7/2021 10:45:00 PM 9.85 49.73 0.061 6.66 0.65 10.87
4/7/2021 11:00:00 PM 9.8 49.64 0.061 6.68 0.69 10.88
4/7/2021 11:15:00 PM 9.75 49.55 0.061 6.67 0.6 10.9
4/7/2021 11:30:00 PM 9.69 49.442 0.061 6.66 0.6 10.92
4/7/2021 11:45:00 PM 9.63 49.334 0.061 6.68 0.64 10.93
4/8/2021 12:00:00 AM 9.57 49.226 0.061 6.68 0.67 10.95
4/8/2021 12:15:00 AM 9.5 49.1 0.061 6.68 0.64 10.97
4/8/2021 12:30:00 AM 9.44 48.992 0.061 6.67 0.56 10.99
4/8/2021 12:45:00 AM 9.37 48.866 0.061 6.68 0.61 11.01
4/8/2021 1:00:00 AM 9.31 48.758 0.061 6.67 0.77 11.02
4/8/2021 1:15:00 AM 9.24 48.632 0.061 6.59 0.55 11.04
4/8/2021 1:30:00 AM 9.17 48.506 0.061 6.68 0.62 11.06
4/8/2021 1:45:00 AM 9.11 48.398 0.06 6.66 0.61 11.08
4/8/2021 2:00:00 AM 9.04 48.272 0.06 6.67 0.59 11.1
4/8/2021 2:15:00 AM 8.97 48.146 0.06 6.67 0.58 11.11
4/8/2021 2:30:00 AM 8.91 48.038 0.06 6.67 0.66 11.13
4/8/2021 2:45:00 AM 8.85 47.93 0.061 6.67 0.61 11.14
4/8/2021 3:00:00 AM 8.79 47.822 0.061 6.66 0.59 11.17
4/8/2021 3:15:00 AM 8.73 47.714 0.061 6.66 0.59 11.19
4/8/2021 3:30:00 AM 8.67 47.606 0.061 6.66 0.61 11.21
4/8/2021 3:45:00 AM 8.61 47.498 0.061 6.59 0.58 11.23
4/8/2021 4:00:00 AM 8.56 47.408 0.061 6.67 0.58 11.24
4/8/2021 4:15:00 AM 8.5 47.3 0.061 6.66 0.58 11.26
4/8/2021 4:30:00 AM 8.44 47.192 0.061 6.55 0.58 11.28
4/8/2021 4:45:00 AM 8.38 47.084 0.061 6.65 0.63 11.3
4/8/2021 5:00:00 AM 8.33 46.994 0.061 6.65 0.64 11.32
4/8/2021 5:15:00 AM 8.28 46.904 0.061 6.65 0.65 11.34
4/8/2021 5:30:00 AM 8.22 46.796 0.061 6.64 0.6 11.35
4/8/2021 5:45:00 AM 8.17 46.706 0.061 6.63 0.59 11.37
4/8/2021 6:00:00 AM 8.12 46.616 0.061 6.65 0.68 11.38
4/8/2021 6:15:00 AM 8.07 46.526 0.061 6.63 0.64 11.4
4/8/2021 6:30:00 AM 8.02 46.436 0.061 6.64 0.65 11.41
4/8/2021 6:45:00 AM 7.97 46.346 0.061 6.65 0.62 11.43
4/8/2021 7:00:00 AM 7.93 46.274 0.061 6.63 0.59 11.46
4/8/2021 7:15:00 AM 7.91 46.238 0.061 6.67 0.61 11.51
4/8/2021 7:30:00 AM 7.89 46.202 0.061 6.67 0.6 11.55
4/8/2021 7:45:00 AM 7.88 46.184 0.061 6.67 0.6 11.58
4/8/2021 8:00:00 AM 7.88 46.184 0.061 6.69 0.57 11.61
4/8/2021 8:15:00 AM 7.88 46.184 0.06 6.69 0.6 11.62
4/8/2021 8:30:00 AM 7.9 46.22 0.06 6.69 0.63 11.63
4/8/2021 8:45:00 AM 7.94 46.292 0.06 6.7 0.6 11.65
4/8/2021 9:00:00 AM 7.99 46.382 0.06 6.71 0.58 11.65
4/8/2021 9:15:00 AM 8.05 46.49 0.06 6.71 0.53 11.64
4/8/2021 9:30:00 AM 8.13 46.634 0.06 6.72 0.63 11.64
4/8/2021 9:45:00 AM 8.23 46.814 0.06 6.75 0.56 11.63
4/8/2021 10:00:00 AM 8.3 46.94 0.06 6.75 0.58 11.61
4/8/2021 10:15:00 AM 8.46 47.228 0.06 6.76 0.57 11.6
4/8/2021 10:30:00 AM 8.61 47.498 0.059 6.76 0.56 11.57
4/8/2021 10:45:00 AM 8.74 47.732 0.059 6.77 0.5 11.53
4/8/2021 11:00:00 AM 8.89 48.002 0.059 6.77 0.53 11.49
4/8/2021 11:15:00 AM 9.11 48.398 0.059 6.78 0.52 11.44
4/8/2021 11:30:00 AM 9.34 48.812 0.059 6.79 0.52 11.37
4/8/2021 11:45:00 AM 9.55 49.19 0.059 6.79 0.56 11.31
4/8/2021 12:00:00 PM 9.82 49.676 0.059 6.8 0.5 11.24
4/8/2021 12:15:00 PM 10.09 50.162 0.059 6.79 0.53 11.18
4/8/2021 12:30:00 PM 10.38 50.684 0.059 6.8 0.44 11.1
4/8/2021 12:45:00 PM 10.67 51.206 0.059 6.8 0.47 11.02
4/8/2021 1:00:00 PM 10.96 51.728 0.059 6.81 0.5 10.94
4/8/2021 1:15:00 PM 11.22 52.196 0.059 6.82 0.48 10.87
4/8/2021 1:30:00 PM 11.43 52.574 0.059 6.82 0.52 10.81
4/8/2021 1:45:00 PM 11.6 52.88 0.059 6.81 0.44 10.76
4/8/2021 2:00:00 PM 11.73 53.114 0.059 6.82 0.51 10.71
4/8/2021 2:15:00 PM 11.82 53.276 0.059 6.83 0.45 10.67
4/8/2021 2:30:00 PM 11.88 53.384 0.059 6.83 0.49 10.65
4/8/2021 2:45:00 PM 11.91 53.438 0.059 6.81 0.44 10.63
4/8/2021 3:00:00 PM 11.93 53.474 0.059 6.83 0.49 10.62
4/8/2021 3:15:00 PM 11.93 53.474 0.06 6.82 0.51 10.59
4/8/2021 3:30:00 PM 11.92 53.456 0.06 6.71 0.51 10.6
4/8/2021 3:45:00 PM 11.91 53.438 0.06 6.82 0.55 10.59
4/8/2021 4:00:00 PM 11.9 53.42 0.06 6.77 0.51 10.57
4/8/2021 4:15:00 PM 11.88 53.384 0.06 6.8 0.52 10.56
4/8/2021 4:30:00 PM 11.87 53.366 0.06 6.82 0.49 10.55
4/8/2021 4:45:00 PM 11.85 53.33 0.06 6.75 0.49 10.56
4/8/2021 5:00:00 PM 11.82 53.276 0.06 6.81 0.51 10.55
4/8/2021 5:15:00 PM 11.77 53.186 0.061 6.79 0.51 10.54
4/8/2021 5:30:00 PM 11.71 53.078 0.061 6.79 0.52 10.54
4/8/2021 5:45:00 PM 11.65 52.97 0.061 6.79 0.54 10.55
4/8/2021 6:00:00 PM 11.58 52.844 0.061 6.78 0.53 10.56
4/8/2021 6:15:00 PM 11.51 52.718 0.061 6.76 0.56 10.56
4/8/2021 6:30:00 PM 11.45 52.61 0.061 6.69 0.55 10.57
4/8/2021 6:45:00 PM 11.38 52.484 0.061 6.77 0.53 10.57
4/8/2021 7:00:00 PM 11.31 52.358 0.061 6.76 0.53 10.57
4/8/2021 7:15:00 PM 11.24 52.232 0.061 6.72 0.53 10.57
4/8/2021 7:30:00 PM 11.16 52.088 0.061 6.73 0.53 10.57
4/8/2021 7:45:00 PM 11.09 51.962 0.061 6.71 0.57 10.57
4/8/2021 8:00:00 PM 11.02 51.836 0.061 6.71 0.55 10.58
4/8/2021 8:15:00 PM 10.95 51.71 0.061 6.71 0.63 10.59
4/8/2021 8:30:00 PM 10.87 51.566 0.061 6.69 0.63 10.61
4/8/2021 8:45:00 PM 10.8 51.44 0.061 6.7 0.68 10.63
4/8/2021 9:00:00 PM 10.74 51.332 0.061 6.69 0.59 10.65
4/8/2021 9:15:00 PM 10.68 51.224 0.061 6.69 0.66 10.66
4/8/2021 9:30:00 PM 10.63 51.134 0.061 6.69 0.59 10.68
4/8/2021 9:45:00 PM 10.59 51.062 0.062 6.7 0.64 10.69
4/8/2021 10:00:00 PM 10.56 51.008 0.062 6.7 0.64 10.7
4/8/2021 10:15:00 PM 10.53 50.954 0.063 6.69 0.7 10.71
4/8/2021 10:30:00 PM 10.5 50.9 0.064 6.68 0.7 10.71
4/8/2021 10:45:00 PM 10.47 50.846 0.064 6.69 0.68 10.72
4/8/2021 11:00:00 PM 10.45 50.81 0.065 6.6 0.65 10.73
4/8/2021 11:15:00 PM 10.42 50.756 0.065 6.7 0.74 10.73
4/8/2021 11:30:00 PM 10.4 50.72 0.065 6.67 0.68 10.74
4/8/2021 11:45:00 PM 10.37 50.666 0.066 6.69 0.67 10.75
4/9/2021 12:00:00 AM 10.34 50.612 0.066 6.68 0.67 10.76
4/9/2021 12:15:00 AM 10.31 50.558 0.066 6.69 0.67 10.77
4/9/2021 12:30:00 AM 10.27 50.486 0.066 6.57 0.68 10.78
4/9/2021 12:45:00 AM 10.23 50.414 0.066 6.7 0.64 10.79
4/9/2021 1:00:00 AM 10.19 50.342 0.066 6.58 0.71 10.8
4/9/2021 1:15:00 AM 10.14 50.252 0.066 6.69 0.64 10.82
4/9/2021 1:30:00 AM 10.09 50.162 0.066 6.69 0.65 10.83
4/9/2021 1:45:00 AM 10.05 50.09 0.065 6.69 0.69 10.84
4/9/2021 2:00:00 AM 9.99 49.982 0.065 6.69 0.73 10.86
4/9/2021 2:15:00 AM 9.94 49.892 0.064 6.69 0.75 10.87
4/9/2021 2:30:00 AM 9.89 49.802 0.064 6.69 0.71 10.89
4/9/2021 2:45:00 AM 9.83 49.694 0.064 6.6 0.69 10.9
4/9/2021 3:00:00 AM 9.78 49.604 0.063 6.67 0.73 10.92
4/9/2021 3:15:00 AM 9.72 49.496 0.063 6.69 0.74 10.93
4/9/2021 3:30:00 AM 9.67 49.406 0.063 6.68 0.73 10.95
4/9/2021 3:45:00 AM 9.62 49.316 0.063 6.67 0.71 10.96
4/9/2021 4:00:00 AM 9.57 49.226 0.063 6.68 0.69 10.98
4/9/2021 4:15:00 AM 9.52 49.136 0.063 6.66 0.7 10.99
4/9/2021 4:30:00 AM 9.47 49.046 0.062 6.68 0.82 11
4/9/2021 4:45:00 AM 9.43 48.974 0.062 6.67 0.72 11.01
4/9/2021 5:00:00 AM 9.39 48.902 0.062 6.67 0.69 11.02
4/9/2021 5:15:00 AM 9.36 48.848 0.062 6.68 0.72 11.03
4/9/2021 5:30:00 AM 9.33 48.794 0.062 6.68 0.74 11.06
4/9/2021 5:45:00 AM 9.3 48.74 0.062 6.65 0.73 11.05
4/9/2021 6:00:00 AM 9.27 48.686 0.062 6.67 0.69 11.07
4/9/2021 6:15:00 AM 9.24 48.632 0.062 6.66 0.72 11.07
4/9/2021 6:30:00 AM 9.21 48.578 0.062 6.67 0.68 11.08
4/9/2021 6:45:00 AM 9.18 48.524 0.062 6.67 0.72 11.09
4/9/2021 7:00:00 AM 9.15 48.47 0.061 6.65 0.7 11.11
4/9/2021 7:15:00 AM 9.13 48.434 0.061 6.68 0.68 11.16
4/9/2021 7:30:00 AM 9.13 48.434 0.061 6.66 0.64 11.2
4/9/2021 7:45:00 AM 9.13 48.434 0.061 6.71 0.72 11.22
4/9/2021 8:00:00 AM 9.14 48.452 0.061 6.7 0.7 11.24
4/9/2021 8:15:00 AM 9.15 48.47 0.061 6.72 0.65 11.26
4/9/2021 8:30:00 AM 9.15 48.47 0.061 6.71 0.65 11.26
4/9/2021 8:45:00 AM 9.16 48.488 0.061 6.72 0.66 11.25
4/9/2021 9:00:00 AM 9.19 48.542 0.061 6.73 0.67 11.26
4/9/2021 9:15:00 AM 9.22 48.596 0.06 6.73 0.67 11.28
4/9/2021 9:30:00 AM 9.25 48.65 0.06 6.75 0.69 11.28
4/9/2021 9:45:00 AM 9.28 48.704 0.06 6.7 0.66 11.28
4/9/2021 10:00:00 AM 9.32 48.776 0.06 6.78 0.68 11.28
4/9/2021 10:15:00 AM 9.35 48.83 0.06 6.78 0.61 11.28
4/9/2021 10:30:00 AM 9.38 48.884 0.06 6.78 0.61 11.26
4/9/2021 10:45:00 AM 9.39 48.902 0.06 6.77 0.63 11.22
4/9/2021 11:00:00 AM 9.4 48.92 0.06 6.73 0.65 11.22
4/9/2021 11:15:00 AM 9.47 49.046 0.06 6.79 0.59 11.25
4/9/2021 11:30:00 AM 9.53 49.154 0.06 6.76 0.6 11.25
4/9/2021 11:45:00 AM 9.54 49.172 0.06 6.78 0.65 11.23
4/9/2021 12:00:00 PM 9.56 49.208 0.06 6.79 0.63 11.21
4/9/2021 12:15:00 PM 9.57 49.226 0.06 6.79 0.64 11.2
4/9/2021 12:30:00 PM 9.58 49.244 0.06 6.79 0.66 11.18
4/9/2021 12:45:00 PM 9.59 49.262 0.06 6.79 0.66 11.16
4/9/2021 1:00:00 PM 9.6 49.28 0.06 6.77 0.65 11.15
4/9/2021 1:15:00 PM 9.61 49.298 0.06 6.79 0.66 11.16
4/9/2021 1:30:00 PM 9.65 49.37 0.06 6.78 0.69 11.19
4/9/2021 1:45:00 PM 9.69 49.442 0.06 6.8 0.65 11.18
4/9/2021 2:00:00 PM 9.7 49.46 0.06 6.81 0.65 11.16
4/9/2021 2:15:00 PM 9.72 49.496 0.06 6.8 0.65 11.15
4/9/2021 2:30:00 PM 9.74 49.532 0.06 6.8 0.73 11.15
4/9/2021 2:45:00 PM 9.76 49.568 0.06 6.8 0.64 11.13
4/9/2021 3:00:00 PM 9.78 49.604 0.06 6.77 0.6 11.13
4/9/2021 3:15:00 PM 9.8 49.64 0.06 6.81 0.67 11.13
4/9/2021 3:30:00 PM 9.83 49.694 0.06 6.8 0.67 11.13
4/9/2021 3:45:00 PM 9.84 49.712 0.06 6.77 0.63 11.12
4/9/2021 4:00:00 PM 9.85 49.73 0.06 6.81 0.66 11.11
4/9/2021 4:15:00 PM 9.86 49.748 0.06 6.81 0.61 11.1
4/9/2021 4:30:00 PM 9.87 49.766 0.06 6.81 0.67 11.09
4/9/2021 4:45:00 PM 9.89 49.802 0.06 6.81 0.59 11.09
4/9/2021 5:00:00 PM 9.88 49.784 0.06 6.8 0.58 11.07
4/9/2021 5:15:00 PM 9.88 49.784 0.06 6.8 0.7 11.07
4/9/2021 5:30:00 PM 9.89 49.802 0.06 6.81 0.57 11.07
4/9/2021 5:45:00 PM 9.89 49.802 0.06 6.79 0.64 11.06
4/9/2021 6:00:00 PM 9.88 49.784 0.06 6.79 0.61 11.04
4/9/2021 6:15:00 PM 9.86 49.748 0.06 6.75 0.59 11.01
4/9/2021 6:30:00 PM 9.84 49.712 0.06 6.76 0.63 10.98
4/9/2021 6:45:00 PM 9.83 49.694 0.06 6.71 0.6 10.97
4/9/2021 7:00:00 PM 9.81 49.658 0.06 6.74 0.58 10.95
4/9/2021 7:15:00 PM 9.78 49.604 0.06 6.74 0.52 10.95
4/9/2021 7:30:00 PM 9.76 49.568 0.06 6.7 0.59 10.95
4/9/2021 7:45:00 PM 9.74 49.532 0.06 6.69 0.6 10.95
4/9/2021 8:00:00 PM 9.72 49.496 0.061 6.72 0.6 10.94
4/9/2021 8:15:00 PM 9.7 49.46 0.061 6.7 0.63 10.95
4/9/2021 8:30:00 PM 9.68 49.424 0.061 6.62 0.75 10.95
4/9/2021 8:45:00 PM 9.65 49.37 0.061 6.66 0.68 10.96
4/9/2021 9:00:00 PM 9.63 49.334 0.061 6.7 0.71 10.96
4/9/2021 9:15:00 PM 9.62 49.316 0.061 6.7 0.62 10.97
4/9/2021 9:30:00 PM 9.6 49.28 0.061 6.69 0.68 10.97
4/9/2021 9:45:00 PM 9.58 49.244 0.061 6.69 0.7 10.98
4/9/2021 10:00:00 PM 9.56 49.208 0.061 6.69 0.63 10.99
4/9/2021 10:15:00 PM 9.54 49.172 0.061 6.68 0.66 10.99
4/9/2021 10:30:00 PM 9.53 49.154 0.061 6.69 0.74 10.98
4/9/2021 10:45:00 PM 9.51 49.118 0.061 6.69 0.68 10.99
4/9/2021 11:00:00 PM 9.5 49.1 0.061 6.7 0.72 11
4/9/2021 11:15:00 PM 9.49 49.082 0.061 6.68 0.58 11
4/9/2021 11:30:00 PM 9.47 49.046 0.061 6.68 0.68 11
4/9/2021 11:45:00 PM 9.46 49.028 0.061 6.71 0.64 11.01
4/10/2021 12:00:00 AM 9.45 49.01 0.061 6.71 0.69 11.01
4/10/2021 12:15:00 AM 9.44 48.992 0.061 6.71 0.62 11.02
4/10/2021 12:30:00 AM 9.42 48.956 0.062 6.71 0.68 11.02
4/10/2021 12:45:00 AM 9.41 48.938 0.062 6.7 0.73 11.02
4/10/2021 1:00:00 AM 9.39 48.902 0.062 6.7 0.68 11.01
4/10/2021 1:15:00 AM 9.38 48.884 0.062 6.69 0.66 11.02
4/10/2021 1:30:00 AM 9.37 48.866 0.062 6.7 0.63 11.03
4/10/2021 1:45:00 AM 9.36 48.848 0.062 6.7 0.67 11.03
4/10/2021 2:00:00 AM 9.35 48.83 0.062 6.7 0.63 11.04
4/10/2021 2:15:00 AM 9.34 48.812 0.062 6.68 1.05 11.04
4/10/2021 2:30:00 AM 9.33 48.794 0.062 6.7 0.65 11.04
4/10/2021 2:45:00 AM 9.32 48.776 0.062 6.69 0.7 11.04
4/10/2021 3:00:00 AM 9.31 48.758 0.062 6.69 0.7 11.04
4/10/2021 3:15:00 AM 9.3 48.74 0.062 6.65 0.7 11.03
4/10/2021 3:30:00 AM 9.29 48.722 0.062 6.7 0.66 11.04
4/10/2021 3:45:00 AM 9.28 48.704 0.062 6.69 0.64 11.04
4/10/2021 4:00:00 AM 9.27 48.686 0.062 6.69 0.68 11.04
4/10/2021 4:15:00 AM 9.26 48.668 0.062 6.7 0.65 11.04
4/10/2021 4:30:00 AM 9.26 48.668 0.062 6.68 0.66 11.05
4/10/2021 4:45:00 AM 9.25 48.65 0.062 6.69 0.65 11.04
4/10/2021 5:00:00 AM 9.24 48.632 0.062 6.7 0.62 11.05
4/10/2021 5:15:00 AM 9.23 48.614 0.062 6.7 0.61 11.05
4/10/2021 5:30:00 AM 9.22 48.596 0.062 6.7 0.69 11.05
4/10/2021 5:45:00 AM 9.22 48.596 0.062 6.68 0.66 11.06
4/10/2021 6:00:00 AM 9.21 48.578 0.062 6.7 0.63 11.05
4/10/2021 6:15:00 AM 9.2 48.56 0.062 6.69 0.58 11.06
4/10/2021 6:30:00 AM 9.2 48.56 0.062 6.68 0.67 11.07
4/10/2021 6:45:00 AM 9.19 48.542 0.062 6.69 0.65 11.07
4/10/2021 7:00:00 AM 9.18 48.524 0.062 6.69 0.62 11.07
4/10/2021 7:15:00 AM 9.18 48.524 0.062 6.69 0.65 11.1
4/10/2021 7:30:00 AM 9.18 48.524 0.062 6.7 0.63 11.11
4/10/2021 7:45:00 AM 9.19 48.542 0.062 6.7 0.61 11.14
4/10/2021 8:00:00 AM 9.19 48.542 0.062 6.71 0.63 11.16
4/10/2021 8:15:00 AM 9.2 48.56 0.062 6.72 0.57 11.17
4/10/2021 8:30:00 AM 9.22 48.596 0.062 6.68 0.6 11.21
4/10/2021 8:45:00 AM 9.25 48.65 0.062 6.76 0.59 11.22
4/10/2021 9:00:00 AM 9.27 48.686 0.062 6.77 0.59 11.22
4/10/2021 9:15:00 AM 9.31 48.758 0.062 6.78 0.57 11.23
4/10/2021 9:30:00 AM 9.34 48.812 0.061 6.78 0.6 11.23
4/10/2021 9:45:00 AM 9.38 48.884 0.061 6.79 0.56 11.23
4/10/2021 10:00:00 AM 9.43 48.974 0.061 6.79 0.58 11.24
4/10/2021 10:15:00 AM 9.48 49.064 0.061 6.81 0.6 11.23
4/10/2021 10:30:00 AM 9.53 49.154 0.061 6.8 0.55 11.22
4/10/2021 10:45:00 AM 9.59 49.262 0.061 6.81 0.57 11.21
4/10/2021 11:00:00 AM 9.63 49.334 0.061 6.82 0.62 11.18
4/10/2021 11:15:00 AM 9.7 49.46 0.061 6.81 0.59 11.18
4/10/2021 11:30:00 AM 9.78 49.604 0.061 6.83 0.58 11.16
4/10/2021 11:45:00 AM 9.86 49.748 0.061 6.83 0.67 11.15
4/10/2021 12:00:00 PM 9.93 49.874 0.061 6.83 0.61 11.13
4/10/2021 12:15:00 PM 10.03 50.054 0.06 6.83 0.55 11.12
4/10/2021 12:30:00 PM 10.13 50.234 0.06 6.84 0.55 11.1
4/10/2021 12:45:00 PM 10.25 50.45 0.06 6.85 0.57 11.07
4/10/2021 1:00:00 PM 10.42 50.756 0.06 6.85 0.52 11.04
4/10/2021 1:15:00 PM 10.64 51.152 0.06 6.86 0.56 10.98
4/10/2021 1:30:00 PM 10.86 51.548 0.06 6.79 0.55 10.93
4/10/2021 1:45:00 PM 11.05 51.89 0.06 6.86 0.5 10.89
4/10/2021 2:00:00 PM 11.18 52.124 0.06 6.87 0.61 10.84
4/10/2021 2:15:00 PM 11.31 52.358 0.06 6.87 0.52 10.81
4/10/2021 2:30:00 PM 11.41 52.538 0.06 6.86 0.58 10.77
4/10/2021 2:45:00 PM 11.5 52.7 0.06 6.86 0.57 10.74
4/10/2021 3:00:00 PM 11.61 52.898 0.06 6.87 0.58 10.7
4/10/2021 3:15:00 PM 11.66 52.988 0.06 6.86 0.51 10.67
4/10/2021 3:30:00 PM 11.71 53.078 0.06 6.87 0.52 10.67
4/10/2021 3:45:00 PM 11.74 53.132 0.06 6.87 0.55 10.65
4/10/2021 4:00:00 PM 11.75 53.15 0.06 6.87 0.52 10.63
4/10/2021 4:15:00 PM 11.78 53.204 0.06 6.86 0.54 10.6
4/10/2021 4:30:00 PM 11.8 53.24 0.06 6.86 0.54 10.59
4/10/2021 4:45:00 PM 11.83 53.294 0.06 6.77 0.55 10.58
4/10/2021 5:00:00 PM 11.85 53.33 0.06 6.86 0.54 10.57
4/10/2021 5:15:00 PM 11.86 53.348 0.06 6.86 0.57 10.55
4/10/2021 5:30:00 PM 11.85 53.33 0.061 6.82 0.56 10.54
4/10/2021 5:45:00 PM 11.83 53.294 0.061 6.85 0.56 10.53
4/10/2021 6:00:00 PM 11.8 53.24 0.061 6.85 0.52 10.52
4/10/2021 6:15:00 PM 11.76 53.168 0.061 6.81 0.54 10.52
4/10/2021 6:30:00 PM 11.72 53.096 0.061 6.84 0.58 10.5
4/10/2021 6:45:00 PM 11.67 53.006 0.061 6.82 0.55 10.49
4/10/2021 7:00:00 PM 11.62 52.916 0.061 6.81 0.56 10.48
4/10/2021 7:15:00 PM 11.56 52.808 0.061 6.79 0.57 10.46
4/10/2021 7:30:00 PM 11.49 52.682 0.061 6.78 0.5 10.44
4/10/2021 7:45:00 PM 11.43 52.574 0.061 6.75 0.61 10.43
4/10/2021 8:00:00 PM 11.36 52.448 0.061 6.74 0.63 10.42
4/10/2021 8:15:00 PM 11.29 52.322 0.061 6.72 0.58 10.43
4/10/2021 8:30:00 PM 11.22 52.196 0.061 6.72 0.64 10.43
4/10/2021 8:45:00 PM 11.16 52.088 0.062 6.71 0.61 10.45
4/10/2021 9:00:00 PM 11.09 51.962 0.062 6.7 0.65 10.46
4/10/2021 9:15:00 PM 11.03 51.854 0.062 6.71 0.66 10.47
4/10/2021 9:30:00 PM 10.97 51.746 0.062 6.72 0.7 10.49
4/10/2021 9:45:00 PM 10.91 51.638 0.062 6.7 0.66 10.5
4/10/2021 10:00:00 PM 10.85 51.53 0.062 6.7 0.64 10.51
4/10/2021 10:15:00 PM 10.8 51.44 0.062 6.64 0.64 10.53
4/10/2021 10:30:00 PM 10.74 51.332 0.062 6.68 0.61 10.55
4/10/2021 10:45:00 PM 10.69 51.242 0.062 6.73 0.65 10.56
4/10/2021 11:00:00 PM 10.65 51.17 0.062 6.71 0.65 10.56
4/10/2021 11:15:00 PM 10.6 51.08 0.062 6.67 0.62 10.58
4/10/2021 11:30:00 PM 10.56 51.008 0.062 6.7 0.67 10.58
4/10/2021 11:45:00 PM 10.52 50.936 0.062 6.7 0.64 10.6
4/11/2021 12:00:00 AM 10.49 50.882 0.062 6.67 0.68 10.61
4/11/2021 12:15:00 AM 10.45 50.81 0.062 6.7 0.69 10.62
4/11/2021 12:30:00 AM 10.42 50.756 0.062 6.71 0.69 10.62
4/11/2021 12:45:00 AM 10.39 50.702 0.062 6.69 0.69 10.62
4/11/2021 1:00:00 AM 10.35 50.63 0.062 6.69 0.67 10.63
4/11/2021 1:15:00 AM 10.32 50.576 0.062 6.65 0.63 10.64
4/11/2021 1:30:00 AM 10.29 50.522 0.062 6.7 0.69 10.65
4/11/2021 1:45:00 AM 10.26 50.468 0.062 6.7 0.7 10.65
4/11/2021 2:00:00 AM 10.22 50.396 0.062 6.7 0.63 10.66
4/11/2021 2:15:00 AM 10.19 50.342 0.062 6.68 0.71 10.66
4/11/2021 2:30:00 AM 10.16 50.288 0.062 6.69 0.65 10.67
4/11/2021 2:45:00 AM 10.13 50.234 0.062 6.71 0.65 10.67
4/11/2021 3:00:00 AM 10.11 50.198 0.062 6.72 0.71 10.68
4/11/2021 3:15:00 AM 10.09 50.162 0.062 6.72 0.65 10.68
4/11/2021 3:30:00 AM 10.07 50.126 0.062 6.72 0.67 10.69
4/11/2021 3:45:00 AM 10.06 50.108 0.062 6.71 0.64 10.69
4/11/2021 4:00:00 AM 10.04 50.072 0.062 6.71 0.65 10.69
4/11/2021 4:15:00 AM 10.03 50.054 0.062 6.72 0.68 10.69
4/11/2021 4:30:00 AM 10.01 50.018 0.062 6.7 0.67 10.69
4/11/2021 4:45:00 AM 10 50 0.062 6.71 0.66 10.69
4/11/2021 5:00:00 AM 9.99 49.982 0.062 6.71 0.7 10.69
4/11/2021 5:15:00 AM 9.97 49.946 0.062 6.71 0.66 10.7
4/11/2021 5:30:00 AM 9.96 49.928 0.062 6.72 0.65 10.7
4/11/2021 5:45:00 AM 9.95 49.91 0.061 6.7 0.76 10.7
4/11/2021 6:00:00 AM 9.94 49.892 0.061 6.65 0.75 10.7
4/11/2021 6:15:00 AM 9.93 49.874 0.061 6.71 0.72 10.7
4/11/2021 6:30:00 AM 9.92 49.856 0.061 6.71 0.72 10.7
4/11/2021 6:45:00 AM 9.91 49.838 0.061 6.7 0.74 10.7
4/11/2021 7:00:00 AM 9.9 49.82 0.061 6.7 0.88 10.71
4/11/2021 7:15:00 AM 9.89 49.802 0.061 6.7 0.88 10.72
4/11/2021 7:30:00 AM 9.89 49.802 0.061 6.7 0.88 10.73
4/11/2021 7:45:00 AM 9.88 49.784 0.061 6.62 0.81 10.74
4/11/2021 8:00:00 AM 9.88 49.784 0.061 6.71 0.87 10.75
4/11/2021 8:15:00 AM 9.89 49.802 0.061 6.71 0.84 10.75
4/11/2021 8:30:00 AM 9.9 49.82 0.06 6.71 0.9 10.76
4/11/2021 8:45:00 AM 9.91 49.838 0.06 6.71 0.92 10.76
4/11/2021 9:00:00 AM 9.92 49.856 0.06 6.71 0.98 10.77
4/11/2021 9:15:00 AM 9.93 49.874 0.06 6.71 1.12 10.78
4/11/2021 9:30:00 AM 9.95 49.91 0.06 6.7 1.28 10.8
4/11/2021 9:45:00 AM 9.98 49.964 0.059 6.72 1.43 10.79
4/11/2021 10:00:00 AM 10 50 0.059 6.73 1.52 10.78
4/11/2021 10:15:00 AM 10.02 50.036 0.059 6.73 1.65 10.8
4/11/2021 10:30:00 AM 10.05 50.09 0.059 6.75 1.77 10.82
4/11/2021 10:45:00 AM 10.08 50.144 0.059 6.74 2.17 10.82
4/11/2021 11:00:00 AM 10.12 50.216 0.059 6.77 2.54 10.81
4/11/2021 11:15:00 AM 10.16 50.288 0.058 6.79 2.88 10.81
4/11/2021 11:30:00 AM 10.19 50.342 0.058 6.8 3.27 10.8
4/11/2021 11:45:00 AM 10.23 50.414 0.058 6.78 3.53 10.79
4/11/2021 12:00:00 PM 10.26 50.468 0.058 6.79 3.86 10.77
4/11/2021 12:15:00 PM 10.29 50.522 0.058 6.8 4.14 10.76
4/11/2021 12:30:00 PM 10.33 50.594 0.058 6.8 4.62 10.77
4/11/2021 12:45:00 PM 10.37 50.666 0.058 6.8 4.73 10.75
4/11/2021 1:00:00 PM 10.38 50.684 0.057 6.79 4.87 10.73
4/11/2021 1:15:00 PM 10.41 50.738 0.057 6.79 4.89 10.73
4/11/2021 1:30:00 PM 10.43 50.774 0.057 6.78 5.25 10.71
4/11/2021 1:45:00 PM 10.46 50.828 0.057 6.78 5.29 10.71
4/11/2021 2:00:00 PM 10.49 50.882 0.057 6.78 5.63 10.72
4/11/2021 2:15:00 PM 10.51 50.918 0.057 6.78 5.54 10.7
4/11/2021 2:30:00 PM 10.54 50.972 0.058 6.77 5.99 10.7
4/11/2021 2:45:00 PM 10.57 51.026 0.058 6.78 5.82 10.69
4/11/2021 3:00:00 PM 10.61 51.098 0.058 6.77 6.23 10.68
4/11/2021 3:15:00 PM 10.65 51.17 0.058 6.77 6.17 10.67
4/11/2021 3:30:00 PM 10.7 51.26 0.057 6.77 6.27 10.67
4/11/2021 3:45:00 PM 10.75 51.35 0.057 6.76 5.9 10.65
4/11/2021 4:00:00 PM 10.8 51.44 0.057 6.76 6.15 10.64
4/11/2021 4:15:00 PM 10.84 51.512 0.057 6.73 6.66 10.61
4/11/2021 4:30:00 PM 10.87 51.566 0.057 6.74 6.37 10.58
4/11/2021 4:45:00 PM 10.9 51.62 0.057 6.73 6.24 10.57
4/11/2021 5:00:00 PM 10.93 51.674 0.058 6.72 6.43 10.56
4/11/2021 5:15:00 PM 10.95 51.71 0.058 6.71 7 10.55
4/11/2021 5:30:00 PM 10.95 51.71 0.057 6.7 6.72 10.53
4/11/2021 5:45:00 PM 10.96 51.728 0.057 6.66 6.6 10.52
4/11/2021 6:00:00 PM 10.97 51.746 0.057 6.68 6.81 10.52
4/11/2021 6:15:00 PM 10.98 51.764 0.057 6.67 6.68 10.52
4/11/2021 6:30:00 PM 10.99 51.782 0.056 6.64 6.79 10.52
4/11/2021 6:45:00 PM 10.99 51.782 0.056 6.64 6.59 10.51
4/11/2021 7:00:00 PM 10.99 51.782 0.056 6.63 6.71 10.51
4/11/2021 7:15:00 PM 10.99 51.782 0.056 6.64 6.31 10.51
4/11/2021 7:30:00 PM 10.99 51.782 0.056 6.6 6.58 10.5
4/11/2021 7:45:00 PM 10.99 51.782 0.056 6.6 6.74 10.5
4/11/2021 8:00:00 PM 11 51.8 0.057 6.59 6.55 10.5
4/11/2021 8:15:00 PM 11 51.8 0.057 6.6 6.44 10.5
4/11/2021 8:30:00 PM 10.99 51.782 0.057 6.53 6.32 10.51
4/11/2021 8:45:00 PM 10.98 51.764 0.057 6.59 6.61 10.51
4/11/2021 9:00:00 PM 10.98 51.764 0.057 6.59 6.38 10.52
4/11/2021 9:15:00 PM 10.97 51.746 0.057 6.59 6.27 10.53
4/11/2021 9:30:00 PM 10.96 51.728 0.057 6.54 5.99 10.53
4/11/2021 9:45:00 PM 10.94 51.692 0.057 6.59 6.3 10.54
4/11/2021 10:00:00 PM 10.93 51.674 0.057 6.57 6.13 10.55
4/11/2021 10:15:00 PM 10.91 51.638 0.057 6.58 6.08 10.55
4/11/2021 10:30:00 PM 10.9 51.62 0.056 6.56 5.89 10.55
4/11/2021 10:45:00 PM 10.88 51.584 0.056 6.55 5.99 10.56
4/11/2021 11:00:00 PM 10.86 51.548 0.056 6.55 5.93 10.56
4/11/2021 11:15:00 PM 10.83 51.494 0.056 6.55 5.79 10.58
4/11/2021 11:30:00 PM 10.81 51.458 0.055 6.53 6.48 10.58
4/11/2021 11:45:00 PM 10.78 51.404 0.055 6.54 5.86 10.59
4/12/2021 12:00:00 AM 10.75 51.35 0.055 6.53 5.78 10.6
4/12/2021 12:15:00 AM 10.72 51.296 0.055 6.53 5.54 10.62
4/12/2021 12:30:00 AM 10.68 51.224 0.055 6.53 5.42 10.63
4/12/2021 12:45:00 AM 10.65 51.17 0.055 6.52 5.09 10.64
4/12/2021 1:00:00 AM 10.61 51.098 0.055 6.51 5.09 10.66
4/12/2021 1:15:00 AM 10.58 51.044 0.055 6.5 4.72 10.67
4/12/2021 1:30:00 AM 10.54 50.972 0.055 6.5 4.72 10.67
4/12/2021 1:45:00 AM 10.5 50.9 0.055 6.5 4.43 10.68
4/12/2021 2:00:00 AM 10.46 50.828 0.055 6.49 4.67 10.7
4/12/2021 2:15:00 AM 10.41 50.738 0.055 6.45 4.31 10.7
4/12/2021 2:30:00 AM 10.38 50.684 0.055 6.49 4.11 10.71
4/12/2021 2:45:00 AM 10.34 50.612 0.055 6.48 4.01 10.72
4/12/2021 3:00:00 AM 10.3 50.54 0.055 6.48 4.14 10.73
4/12/2021 3:15:00 AM 10.26 50.468 0.056 6.47 3.96 10.74
4/12/2021 3:30:00 AM 10.22 50.396 0.056 6.48 4.09 10.75
4/12/2021 3:45:00 AM 10.18 50.324 0.056 6.47 3.98 10.77
4/12/2021 4:00:00 AM 10.14 50.252 0.056 6.47 3.76 10.78
4/12/2021 4:15:00 AM 10.1 50.18 0.056 6.47 3.59 10.79
4/12/2021 4:30:00 AM 10.06 50.108 0.056 6.45 3.57 10.8
4/12/2021 4:45:00 AM 10.02 50.036 0.056 6.47 3.72 10.81
4/12/2021 5:00:00 AM 9.98 49.964 0.056 6.46 3.37 10.82
4/12/2021 5:15:00 AM 9.94 49.892 0.056 6.46 3.46 10.83
4/12/2021 5:30:00 AM 9.9 49.82 0.056 6.46 3.14 10.84
4/12/2021 5:45:00 AM 9.86 49.748 0.056 6.46 3.34 10.85
4/12/2021 6:00:00 AM 9.83 49.694 0.056 6.46 3.38 10.86
4/12/2021 6:15:00 AM 9.8 49.64 0.056 6.45 3.17 10.87
4/12/2021 6:30:00 AM 9.76 49.568 0.056 6.41 3.19 10.88
4/12/2021 6:45:00 AM 9.73 49.514 0.057 6.47 3.05 10.89
4/12/2021 7:00:00 AM 9.7 49.46 0.057 6.46 2.77 10.9
4/12/2021 7:15:00 AM 9.67 49.406 0.057 6.43 2.88 10.92
4/12/2021 7:30:00 AM 9.64 49.352 0.057 6.45 2.81 10.93
4/12/2021 7:45:00 AM 9.61 49.298 0.057 6.47 2.76 10.94
4/12/2021 8:00:00 AM 9.58 49.244 0.058 6.47 2.87 10.95
4/12/2021 8:15:00 AM 9.55 49.19 0.058 6.47 2.73 10.97
4/12/2021 8:30:00 AM 9.53 49.154 0.058 6.47 2.56 10.98
4/12/2021 8:45:00 AM 9.5 49.1 0.058 6.48 2.56 10.98
4/12/2021 9:00:00 AM 9.48 49.064 0.058 6.47 2.51 11.01
4/12/2021 9:15:00 AM 9.46 49.028 0.058 6.48 2.46 11.03
4/12/2021 9:30:00 AM 9.44 48.992 0.058 6.47 2.56 11.03
4/12/2021 9:45:00 AM 9.43 48.974 0.058 6.49 2.37 11.04
4/12/2021 10:00:00 AM 9.4 48.92 0.059 6.49 2.37 11.04
4/12/2021 10:15:00 AM 9.37 48.866 0.059 6.49 2.57 11.06
4/12/2021 10:30:00 AM 9.35 48.83 0.059 6.49 2.39 11.07
4/12/2021 10:45:00 AM 9.33 48.794 0.059 6.49 2.45 11.1
4/12/2021 11:00:00 AM 9.33 48.794 0.059 6.5 2.39 11.11
4/12/2021 11:15:00 AM 9.32 48.776 0.059 6.5 2.23 11.12
4/12/2021 11:30:00 AM 9.34 48.812 0.059 6.5 2.29 11.14
4/12/2021 11:45:00 AM 9.36 48.848 0.059 6.51 2.14 11.13
4/12/2021 12:00:00 PM 9.38 48.884 0.059 6.51 2.45 11.13
4/12/2021 12:15:00 PM 9.38 48.884 0.059 6.51 2.11 11.12
4/12/2021 12:30:00 PM 9.39 48.902 0.059 6.5 2.28 11.13
4/12/2021 12:45:00 PM 9.4 48.92 0.059 6.51 2.13 11.12
4/12/2021 1:00:00 PM 9.39 48.902 0.059 6.51 2.16 11.11
4/12/2021 1:15:00 PM 9.39 48.902 0.059 6.51 2.17 11.12
4/12/2021 1:30:00 PM 9.39 48.902 0.059 6.5 2.08 11.12
4/12/2021 1:45:00 PM 9.37 48.866 0.059 6.5 2.08 11.12
4/12/2021 2:00:00 PM 9.36 48.848 0.059 6.51 2.02 11.12
4/12/2021 2:15:00 PM 9.35 48.83 0.059 6.5 2.21 11.12
4/12/2021 2:30:00 PM 9.33 48.794 0.059 6.5 2.07 11.12
4/12/2021 2:45:00 PM 9.31 48.758 0.059 6.51 1.89 11.12
4/12/2021 3:00:00 PM 9.29 48.722 0.059 6.49 1.88 11.13
4/12/2021 3:15:00 PM 9.3 48.74 0.059 6.5 1.86 11.14
4/12/2021 3:30:00 PM 9.29 48.722 0.059 6.5 1.95 11.12
4/12/2021 3:45:00 PM 9.28 48.704 0.059 6.48 1.92 11.12
4/12/2021 4:00:00 PM 9.27 48.686 0.059 6.5 1.8 11.12
4/12/2021 4:15:00 PM 9.25 48.65 0.059 6.5 1.92 11.12
4/12/2021 4:30:00 PM 9.24 48.632 0.059 6.49 1.98 11.12
4/12/2021 4:45:00 PM 9.22 48.596 0.059 6.5 1.93 11.12
4/12/2021 5:00:00 PM 9.19 48.542 0.059 6.49 1.9 11.11
4/12/2021 5:15:00 PM 9.17 48.506 0.059 6.5 1.94 11.12
4/12/2021 5:30:00 PM 9.15 48.47 0.059 6.49 1.81 11.12
4/12/2021 5:45:00 PM 9.14 48.452 0.059 6.49 1.85 11.12
4/12/2021 6:00:00 PM 9.12 48.416 0.059 6.48 1.79 11.13
4/12/2021 6:15:00 PM 9.1 48.38 0.059 6.49 1.79 11.13
4/12/2021 6:30:00 PM 9.08 48.344 0.059 6.49 1.7 11.14
4/12/2021 6:45:00 PM 9.07 48.326 0.059 6.48 1.96 11.14
4/12/2021 7:00:00 PM 9.06 48.308 0.059 6.48 1.74 11.14
4/12/2021 7:15:00 PM 9.04 48.272 0.059 6.48 1.71 11.14
4/12/2021 7:30:00 PM 9.03 48.254 0.059 6.48 1.71 11.14
4/12/2021 7:45:00 PM 9.01 48.218 0.059 6.45 1.69 11.15
4/12/2021 8:00:00 PM 8.99 48.182 0.059 6.48 1.77 11.15
4/12/2021 8:15:00 PM 8.97 48.146 0.059 6.48 1.84 11.15
4/12/2021 8:30:00 PM 8.95 48.11 0.059 6.43 1.71 11.16
4/12/2021 8:45:00 PM 8.93 48.074 0.059 6.48 1.71 11.17
4/12/2021 9:00:00 PM 8.92 48.056 0.059 6.48 1.77 11.18
4/12/2021 9:15:00 PM 8.9 48.02 0.058 6.47 1.85 11.18
4/12/2021 9:30:00 PM 8.88 47.984 0.058 6.44 1.68 11.19
4/12/2021 9:45:00 PM 8.86 47.948 0.058 6.47 1.69 11.2
4/12/2021 10:00:00 PM 8.84 47.912 0.058 6.47 1.67 11.2
4/12/2021 10:15:00 PM 8.82 47.876 0.058 6.48 1.62 11.21
4/12/2021 10:30:00 PM 8.8 47.84 0.058 6.46 1.6 11.21
4/12/2021 10:45:00 PM 8.79 47.822 0.058 6.48 1.56 11.23
4/12/2021 11:00:00 PM 8.76 47.768 0.058 6.48 1.61 11.23
4/12/2021 11:15:00 PM 8.74 47.732 0.058 6.49 1.69 11.24
4/12/2021 11:30:00 PM 8.72 47.696 0.058 6.48 1.56 11.24
4/12/2021 11:45:00 PM 8.7 47.66 0.058 6.46 1.65 11.25
4/13/2021 12:00:00 AM 8.68 47.624 0.058 6.49 1.49 11.26
4/13/2021 12:15:00 AM 8.66 47.588 0.058 6.49 1.53 11.27
4/13/2021 12:30:00 AM 8.63 47.534 0.058 6.49 1.52 11.27
4/13/2021 12:45:00 AM 8.61 47.498 0.058 6.49 1.59 11.28
4/13/2021 1:00:00 AM 8.59 47.462 0.058 6.49 1.54 11.29
4/13/2021 1:15:00 AM 8.57 47.426 0.058 6.49 1.51 11.29
4/13/2021 1:30:00 AM 8.56 47.408 0.058 6.5 1.45 11.29
4/13/2021 1:45:00 AM 8.54 47.372 0.058 6.48 1.52 11.3
4/13/2021 2:00:00 AM 8.52 47.336 0.058 6.49 1.49 11.31
4/13/2021 2:15:00 AM 8.5 47.3 0.058 6.5 1.65 11.31
4/13/2021 2:30:00 AM 8.49 47.282 0.058 6.5 1.56 11.32
4/13/2021 2:45:00 AM 8.47 47.246 0.058 6.46 1.43 11.32
4/13/2021 3:00:00 AM 8.45 47.21 0.058 6.5 1.38 11.33
4/13/2021 3:15:00 AM 8.44 47.192 0.058 6.49 1.47 11.33
4/13/2021 3:30:00 AM 8.43 47.174 0.058 6.49 1.4 11.34
4/13/2021 3:45:00 AM 8.41 47.138 0.058 6.49 1.46 11.34
4/13/2021 4:00:00 AM 8.4 47.12 0.058 6.49 1.46 11.34
4/13/2021 4:15:00 AM 8.39 47.102 0.058 6.51 1.49 11.35
4/13/2021 4:30:00 AM 8.37 47.066 0.058 6.5 1.4 11.36
4/13/2021 4:45:00 AM 8.36 47.048 0.058 6.51 1.36 11.36
4/13/2021 5:00:00 AM 8.34 47.012 0.058 6.51 1.34 11.37
4/13/2021 5:15:00 AM 8.32 46.976 0.058 6.52 1.42 11.38
4/13/2021 5:30:00 AM 8.31 46.958 0.058 6.5 1.36 11.38
4/13/2021 5:45:00 AM 8.29 46.922 0.058 6.53 1.41 11.39
4/13/2021 6:00:00 AM 8.27 46.886 0.058 6.52 1.37 11.39
4/13/2021 6:15:00 AM 8.26 46.868 0.058 6.52 1.35 11.4
4/13/2021 6:30:00 AM 8.24 46.832 0.058 6.51 1.35 11.4
4/13/2021 6:45:00 AM 8.22 46.796 0.058 6.52 1.32 11.41
4/13/2021 7:00:00 AM 8.21 46.778 0.058 6.52 1.33 11.42
4/13/2021 7:15:00 AM 8.2 46.76 0.057 6.53 1.3 11.45
4/13/2021 7:30:00 AM 8.2 46.76 0.057 6.45 1.27 11.46
4/13/2021 7:45:00 AM 8.2 46.76 0.057 6.54 1.28 11.48
4/13/2021 8:00:00 AM 8.2 46.76 0.057 6.54 1.25 11.49
4/13/2021 8:15:00 AM 8.21 46.778 0.057 6.56 1.29 11.51
4/13/2021 8:30:00 AM 8.23 46.814 0.057 6.57 1.44 11.52
4/13/2021 8:45:00 AM 8.27 46.886 0.057 6.58 1.19 11.53
4/13/2021 9:00:00 AM 8.32 46.976 0.057 6.59 1.25 11.53
4/13/2021 9:15:00 AM 8.35 47.03 0.057 6.57 1.26 11.52
4/13/2021 9:30:00 AM 8.42 47.156 0.057 6.59 1.21 11.52
4/13/2021 9:45:00 AM 8.49 47.282 0.057 6.59 1.17 11.51
4/13/2021 10:00:00 AM 8.6 47.48 0.057 6.6 1.18 11.49
4/13/2021 10:15:00 AM 8.73 47.714 0.057 6.61 1.19 11.46
4/13/2021 10:30:00 AM 8.8 47.84 0.057 6.61 1.16 11.44
4/13/2021 10:45:00 AM 8.83 47.894 0.057 6.6 1.22 11.42
4/13/2021 11:00:00 AM 8.91 48.038 0.057 6.58 1.08 11.41
4/13/2021 11:15:00 AM 9.04 48.272 0.057 6.61 1.21 11.38
4/13/2021 11:30:00 AM 9.2 48.56 0.057 6.62 1.21 11.34
4/13/2021 11:45:00 AM 9.39 48.902 0.057 6.63 1.12 11.29
4/13/2021 12:00:00 PM 9.53 49.154 0.057 6.62 1.15 11.25
4/13/2021 12:15:00 PM 9.67 49.406 0.057 6.63 1.11 11.21
4/13/2021 12:30:00 PM 9.88 49.784 0.056 6.64 1.21 11.15
4/13/2021 12:45:00 PM 10.09 50.162 0.057 6.65 1.22 11.12
4/13/2021 1:00:00 PM 10.12 50.216 0.056 6.65 1.22 11.11
4/13/2021 1:15:00 PM 10.11 50.198 0.056 6.65 1.06 11.09
4/13/2021 1:30:00 PM 10.15 50.27 0.056 6.65 1.17 11.06
4/13/2021 1:45:00 PM 10.14 50.252 0.056 6.66 1.13 11.04
4/13/2021 2:00:00 PM 10.13 50.234 0.056 6.65 1.18 11.05
4/13/2021 2:15:00 PM 10.14 50.252 0.056 6.66 1.17 11.06
4/13/2021 2:30:00 PM 10.17 50.306 0.056 6.65 1.17 11.05
4/13/2021 2:45:00 PM 10.2 50.36 0.056 6.66 1.11 11.04
4/13/2021 3:00:00 PM 10.25 50.45 0.056 6.64 1.12 11.02
4/13/2021 3:15:00 PM 10.27 50.486 0.056 6.65 1.15 11.01
4/13/2021 3:30:00 PM 10.27 50.486 0.056 6.57 1.18 10.99
4/13/2021 3:45:00 PM 10.28 50.504 0.056 6.61 1.17 10.98
4/13/2021 4:00:00 PM 10.29 50.522 0.056 6.65 1.14 10.97
4/13/2021 4:15:00 PM 10.33 50.594 0.056 6.64 1.14 10.96
4/13/2021 4:30:00 PM 10.39 50.702 0.056 6.64 1.22 10.95
4/13/2021 4:45:00 PM 10.42 50.756 0.056 6.62 1.26 10.92
4/13/2021 5:00:00 PM 10.45 50.81 0.056 6.57 1.13 10.91
4/13/2021 5:15:00 PM 10.48 50.864 0.056 6.65 1.12 10.91
4/13/2021 5:30:00 PM 10.51 50.918 0.056 6.65 1.11 10.89
4/13/2021 5:45:00 PM 10.54 50.972 0.056 6.64 1.04 10.88
4/13/2021 6:00:00 PM 10.53 50.954 0.056 6.63 1.16 10.86
4/13/2021 6:15:00 PM 10.52 50.936 0.056 6.63 1.18 10.86
4/13/2021 6:30:00 PM 10.52 50.936 0.056 6.62 1.16 10.85
4/13/2021 6:45:00 PM 10.52 50.936 0.056 6.62 1.13 10.84
4/13/2021 7:00:00 PM 10.51 50.918 0.056 6.6 1.15 10.82
4/13/2021 7:15:00 PM 10.5 50.9 0.057 6.6 1.21 10.81
4/13/2021 7:30:00 PM 10.49 50.882 0.057 6.56 1.18 10.8
4/13/2021 7:45:00 PM 10.47 50.846 0.057 6.59 1.19 10.8
4/13/2021 8:00:00 PM 10.46 50.828 0.057 6.56 1.14 10.79
4/13/2021 8:15:00 PM 10.45 50.81 0.057 6.57 1.15 10.79
4/13/2021 8:30:00 PM 10.44 50.792 0.057 6.57 1.28 10.79
4/13/2021 8:45:00 PM 10.44 50.792 0.057 6.56 1.23 10.79
4/13/2021 9:00:00 PM 10.42 50.756 0.057 6.56 1.25 10.79
4/13/2021 9:15:00 PM 10.4 50.72 0.057 6.56 1.16 10.8
4/13/2021 9:30:00 PM 10.37 50.666 0.057 6.49 1.23 10.81
4/13/2021 9:45:00 PM 10.34 50.612 0.057 6.56 1.26 10.81
4/13/2021 10:00:00 PM 10.3 50.54 0.057 6.53 1.19 10.82
4/13/2021 10:15:00 PM 10.26 50.468 0.057 6.56 1.3 10.83
4/13/2021 10:30:00 PM 10.22 50.396 0.057 6.56 1.18 10.84
4/13/2021 10:45:00 PM 10.18 50.324 0.057 6.56 1.28 10.85
4/13/2021 11:00:00 PM 10.14 50.252 0.057 6.52 1.25 10.87
4/13/2021 11:15:00 PM 10.09 50.162 0.057 6.56 1.17 10.87
4/13/2021 11:30:00 PM 10.05 50.09 0.057 6.56 1.14 10.89
4/13/2021 11:45:00 PM 10 50 0.057 6.53 1.23 10.9
4/14/2021 12:00:00 AM 9.96 49.928 0.057 6.55 1.18 10.92
4/14/2021 12:15:00 AM 9.91 49.838 0.057 6.57 1.24 10.93
4/14/2021 12:30:00 AM 9.85 49.73 0.057 6.56 1.42 10.94
4/14/2021 12:45:00 AM 9.8 49.64 0.057 6.55 1.34 10.96
4/14/2021 1:00:00 AM 9.75 49.55 0.057 6.57 1.2 10.97
4/14/2021 1:15:00 AM 9.7 49.46 0.057 6.56 1.16 10.98
4/14/2021 1:30:00 AM 9.66 49.388 0.057 6.57 1.3 11
4/14/2021 1:45:00 AM 9.61 49.298 0.057 6.54 1.15 11.01
4/14/2021 2:00:00 AM 9.56 49.208 0.057 6.55 1.21 11.02
4/14/2021 2:15:00 AM 9.52 49.136 0.057 6.52 1.3 11.04
4/14/2021 2:30:00 AM 9.48 49.064 0.057 6.55 1.2 11.05
4/14/2021 2:45:00 AM 9.43 48.974 0.057 6.44 1.12 11.05
4/14/2021 3:00:00 AM 9.4 48.92 0.057 6.56 1.1 11.07
4/14/2021 3:15:00 AM 9.36 48.848 0.057 6.56 1.11 11.08
4/14/2021 3:30:00 AM 9.32 48.776 0.057 6.52 1.1 11.09
4/14/2021 3:45:00 AM 9.27 48.686 0.057 6.55 1.14 11.1
4/14/2021 4:00:00 AM 9.22 48.596 0.057 6.53 1.18 11.12
4/14/2021 4:15:00 AM 9.17 48.506 0.057 6.51 1.2 11.13
4/14/2021 4:30:00 AM 9.11 48.398 0.057 6.53 1.18 11.14
4/14/2021 4:45:00 AM 9.06 48.308 0.057 6.53 1.04 11.16
4/14/2021 5:00:00 AM 9.01 48.218 0.056 6.5 1.09 11.18
4/14/2021 5:15:00 AM 8.95 48.11 0.056 6.55 1.17 11.19
4/14/2021 5:30:00 AM 8.9 48.02 0.056 6.53 1.05 11.2
4/14/2021 5:45:00 AM 8.84 47.912 0.056 6.54 1.04 11.22
4/14/2021 6:00:00 AM 8.79 47.822 0.056 6.53 1.07 11.23
4/14/2021 6:15:00 AM 8.73 47.714 0.056 6.52 1.05 11.25
4/14/2021 6:30:00 AM 8.68 47.624 0.056 6.54 1.14 11.27
4/14/2021 6:45:00 AM 8.63 47.534 0.056 6.54 1.07 11.29
4/14/2021 7:00:00 AM 8.58 47.444 0.056 6.54 1.06 11.32
4/14/2021 7:15:00 AM 8.54 47.372 0.055 6.5 0.99 11.35
4/14/2021 7:30:00 AM 8.51 47.318 0.055 6.53 1.03 11.38
4/14/2021 7:45:00 AM 8.49 47.282 0.055 6.55 1 11.4
4/14/2021 8:00:00 AM 8.5 47.3 0.055 6.55 1.08 11.42
4/14/2021 8:15:00 AM 8.51 47.318 0.055 6.56 1.03 11.44
4/14/2021 8:30:00 AM 8.53 47.354 0.055 6.6 0.93 11.45
4/14/2021 8:45:00 AM 8.55 47.39 0.055 6.6 1 11.44
4/14/2021 9:00:00 AM 8.59 47.462 0.055 6.6 0.94 11.44
4/14/2021 9:15:00 AM 8.64 47.552 0.055 6.62 0.93 11.44
4/14/2021 9:30:00 AM 8.68 47.624 0.055 6.63 0.94 11.43
4/14/2021 9:45:00 AM 8.75 47.75 0.055 6.62 0.93 11.42
4/14/2021 10:00:00 AM 8.82 47.876 0.055 6.62 0.99 11.41
4/14/2021 10:15:00 AM 8.91 48.038 0.055 6.64 0.88 11.39
4/14/2021 10:30:00 AM 9 48.2 0.055 6.61 0.89 11.37
4/14/2021 10:45:00 AM 9.1 48.38 0.055 6.64 0.84 11.35
4/14/2021 11:00:00 AM 9.18 48.524 0.055 6.65 0.9 11.33
4/14/2021 11:15:00 AM 9.26 48.668 0.055 6.66 0.91 11.3
4/14/2021 11:30:00 AM 9.35 48.83 0.055 6.67 0.85 11.28
4/14/2021 11:45:00 AM 9.46 49.028 0.055 6.66 0.87 11.26
4/14/2021 12:00:00 PM 9.52 49.136 0.055 6.68 0.88 11.22
4/14/2021 12:15:00 PM 9.61 49.298 0.055 6.62 0.85 11.2
4/14/2021 12:30:00 PM 9.73 49.514 0.055 6.68 0.84 11.18
4/14/2021 12:45:00 PM 9.85 49.73 0.055 6.69 0.86 11.15
4/14/2021 1:00:00 PM 9.94 49.892 0.055 6.69 0.91 11.12
4/14/2021 1:15:00 PM 10.03 50.054 0.055 6.7 0.8 11.08
4/14/2021 1:30:00 PM 10.14 50.252 0.055 6.7 0.84 11.06
4/14/2021 1:45:00 PM 10.25 50.45 0.055 6.7 0.86 11.03
4/14/2021 2:00:00 PM 10.33 50.594 0.055 6.64 0.8 11
4/14/2021 2:15:00 PM 10.4 50.72 0.055 6.71 0.84 10.97
4/14/2021 2:30:00 PM 10.46 50.828 0.055 6.7 0.83 10.95
4/14/2021 2:45:00 PM 10.53 50.954 0.055 6.7 0.86 10.92
4/14/2021 3:00:00 PM 10.59 51.062 0.055 6.71 0.89 10.9
4/14/2021 3:15:00 PM 10.66 51.188 0.055 6.71 0.97 10.88
4/14/2021 3:30:00 PM 10.71 51.278 0.055 6.71 0.83 10.86
4/14/2021 3:45:00 PM 10.77 51.386 0.055 6.66 0.83 10.84
4/14/2021 4:00:00 PM 10.81 51.458 0.055 6.72 0.96 10.82
4/14/2021 4:15:00 PM 10.86 51.548 0.055 6.71 0.86 10.81
4/14/2021 4:30:00 PM 10.91 51.638 0.055 6.72 0.95 10.79
4/14/2021 4:45:00 PM 10.95 51.71 0.055 6.66 0.76 10.76
4/14/2021 5:00:00 PM 11 51.8 0.055 6.72 0.9 10.74
4/14/2021 5:15:00 PM 10.99 51.782 0.055 6.64 0.85 10.72
4/14/2021 5:30:00 PM 10.98 51.764 0.055 6.69 0.8 10.7
4/14/2021 5:45:00 PM 10.96 51.728 0.055 6.69 0.87 10.69
4/14/2021 6:00:00 PM 10.95 51.71 0.055 6.65 0.86 10.68
4/14/2021 6:15:00 PM 10.94 51.692 0.055 6.6 0.82 10.67
4/14/2021 6:30:00 PM 10.93 51.674 0.055 6.67 0.93 10.66
4/14/2021 6:45:00 PM 10.92 51.656 0.055 6.65 0.78 10.66
4/14/2021 7:00:00 PM 10.9 51.62 0.055 6.66 0.83 10.64
4/14/2021 7:15:00 PM 10.88 51.584 0.055 6.65 0.87 10.64
4/14/2021 7:30:00 PM 10.85 51.53 0.055 6.66 0.97 10.63
4/14/2021 7:45:00 PM 10.81 51.458 0.055 6.64 0.85 10.63
4/14/2021 8:00:00 PM 10.78 51.404 0.055 6.62 0.92 10.63
4/14/2021 8:15:00 PM 10.74 51.332 0.055 6.64 0.92 10.64
4/14/2021 8:30:00 PM 10.71 51.278 0.055 6.63 0.98 10.64
4/14/2021 8:45:00 PM 10.68 51.224 0.055 6.63 0.94 10.64
4/14/2021 9:00:00 PM 10.64 51.152 0.055 6.63 0.94 10.65
4/14/2021 9:15:00 PM 10.59 51.062 0.055 6.63 0.92 10.66
4/14/2021 9:30:00 PM 10.55 50.99 0.055 6.52 0.95 10.68
4/14/2021 9:45:00 PM 10.5 50.9 0.055 6.63 0.95 10.69
4/14/2021 10:00:00 PM 10.45 50.81 0.055 6.59 0.93 10.7
4/14/2021 10:15:00 PM 10.4 50.72 0.055 6.59 0.93 10.71
4/14/2021 10:30:00 PM 10.35 50.63 0.055 6.63 1.01 10.72
4/14/2021 10:45:00 PM 10.3 50.54 0.055 6.63 0.95 10.74
4/14/2021 11:00:00 PM 10.24 50.432 0.055 6.61 0.94 10.75
4/14/2021 11:15:00 PM 10.18 50.324 0.055 6.52 0.94 10.76
4/14/2021 11:30:00 PM 10.12 50.216 0.055 6.63 0.96 10.77
4/14/2021 11:45:00 PM 10.07 50.126 0.055 6.56 1.01 10.79
4/15/2021 12:00:00 AM 10.01 50.018 0.055 6.62 1.04 10.81
4/15/2021 12:15:00 AM 9.95 49.91 0.055 6.49 0.96 10.82
4/15/2021 12:30:00 AM 9.89 49.802 0.055 6.62 0.93 10.83
4/15/2021 12:45:00 AM 9.85 49.73 0.055 6.59 0.94 10.85
4/15/2021 1:00:00 AM 9.81 49.658 0.055 6.6 0.97 10.86
4/15/2021 1:15:00 AM 9.78 49.604 0.055 6.61 0.93 10.87
4/15/2021 1:30:00 AM 9.75 49.55 0.055 6.62 0.99 10.87
4/15/2021 1:45:00 AM 9.72 49.496 0.055 6.61 0.94 10.88
4/15/2021 2:00:00 AM 9.68 49.424 0.055 6.57 1.06 10.88
4/15/2021 2:15:00 AM 9.64 49.352 0.055 6.61 0.92 10.9
4/15/2021 2:30:00 AM 9.6 49.28 0.055 6.58 0.93 10.91
4/15/2021 2:45:00 AM 9.55 49.19 0.055 6.61 0.92 10.92
4/15/2021 3:00:00 AM 9.5 49.1 0.055 6.61 0.93 10.93
4/15/2021 3:15:00 AM 9.45 49.01 0.055 6.59 0.92 10.94
4/15/2021 3:30:00 AM 9.4 48.92 0.056 6.61 0.89 10.96
4/15/2021 3:45:00 AM 9.36 48.848 0.056 6.61 0.91 10.96
4/15/2021 4:00:00 AM 9.32 48.776 0.056 6.61 1.04 10.98
4/15/2021 4:15:00 AM 9.28 48.704 0.056 6.56 0.97 10.99
4/15/2021 4:30:00 AM 9.24 48.632 0.056 6.62 0.94 11
4/15/2021 4:45:00 AM 9.2 48.56 0.056 6.6 0.88 11.01
4/15/2021 5:00:00 AM 9.16 48.488 0.056 6.61 0.92 11.02
4/15/2021 5:15:00 AM 9.13 48.434 0.056 6.62 0.96 11.02
4/15/2021 5:30:00 AM 9.09 48.362 0.055 6.6 0.9 11.03
4/15/2021 5:45:00 AM 9.05 48.29 0.055 6.62 0.94 11.04
4/15/2021 6:00:00 AM 9.02 48.236 0.055 6.54 0.9 11.05
4/15/2021 6:15:00 AM 8.98 48.164 0.055 6.62 0.91 11.05
4/15/2021 6:30:00 AM 8.95 48.11 0.055 6.61 0.88 11.07
4/15/2021 6:45:00 AM 8.91 48.038 0.055 6.52 0.93 11.09
4/15/2021 7:00:00 AM 8.88 47.984 0.055 6.62 0.93 11.11
4/15/2021 7:15:00 AM 8.84 47.912 0.055 6.61 0.86 11.14
4/15/2021 7:30:00 AM 8.82 47.876 0.055 6.64 0.91 11.17
4/15/2021 7:45:00 AM 8.81 47.858 0.055 6.64 0.88 11.2
4/15/2021 8:00:00 AM 8.81 47.858 0.055 6.66 0.85 11.23
4/15/2021 8:15:00 AM 8.82 47.876 0.055 6.67 0.83 11.25
4/15/2021 8:30:00 AM 8.86 47.948 0.055 6.59 0.85 11.26
4/15/2021 8:45:00 AM 8.87 47.966 0.055 6.66 0.81 11.25
4/15/2021 9:00:00 AM 8.88 47.984 0.055 6.69 0.82 11.24
4/15/2021 9:15:00 AM 8.89 48.002 0.055 6.62 0.91 11.24
4/15/2021 9:30:00 AM 8.91 48.038 0.055 6.69 0.8 11.23
4/15/2021 9:45:00 AM 8.92 48.056 0.055 6.66 0.78 11.24
4/15/2021 10:00:00 AM 8.94 48.092 0.055 6.66 0.76 11.23
4/15/2021 10:15:00 AM 8.96 48.128 0.055 6.68 0.76 11.23
4/15/2021 10:30:00 AM 8.99 48.182 0.055 6.71 0.77 11.23
4/15/2021 10:45:00 AM 9.02 48.236 0.055 6.72 0.75 11.23
4/15/2021 11:00:00 AM 9.06 48.308 0.055 6.72 0.71 11.22
4/15/2021 11:15:00 AM 9.09 48.362 0.055 6.71 0.81 11.21
4/15/2021 11:30:00 AM 9.12 48.416 0.055 6.71 0.77 11.21
4/15/2021 11:45:00 AM 9.17 48.506 0.055 6.7 0.75 11.2
4/15/2021 12:00:00 PM 9.19 48.542 0.055 6.71 0.71 11.18
4/15/2021 12:15:00 PM 9.19 48.542 0.055 6.63 0.74 11.16
4/15/2021 12:30:00 PM 9.21 48.578 0.055 6.7 0.74 11.16
4/15/2021 12:45:00 PM 9.2 48.56 0.055 6.72 0.73 11.15
4/15/2021 1:00:00 PM 9.19 48.542 0.055 6.69 0.76 11.13
4/15/2021 1:15:00 PM 9.17 48.506 0.055 6.72 0.75 11.13
4/15/2021 1:30:00 PM 9.19 48.542 0.055 6.69 0.7 11.15
4/15/2021 1:45:00 PM 9.22 48.596 0.055 6.67 0.77 11.17
4/15/2021 2:00:00 PM 9.27 48.686 0.055 6.71 0.71 11.17
4/15/2021 2:15:00 PM 9.35 48.83 0.055 6.72 0.74 11.16
4/15/2021 2:30:00 PM 9.48 49.064 0.055 6.74 0.77 11.14
4/15/2021 2:45:00 PM 9.51 49.118 0.055 6.71 0.88 11.12
4/15/2021 3:00:00 PM 9.58 49.244 0.055 6.74 0.7 11.1
4/15/2021 3:15:00 PM 9.73 49.514 0.055 6.74 0.71 11.07
4/15/2021 3:30:00 PM 9.86 49.748 0.055 6.7 0.69 11.03
4/15/2021 3:45:00 PM 9.85 49.73 0.055 6.72 0.77 10.98
4/15/2021 4:00:00 PM 9.81 49.658 0.055 6.72 0.73 10.96
4/15/2021 4:15:00 PM 9.77 49.586 0.055 6.66 0.76 10.97
4/15/2021 4:30:00 PM 9.72 49.496 0.055 6.72 0.77 10.97
4/15/2021 4:45:00 PM 9.64 49.352 0.055 6.64 0.72 10.98
4/15/2021 5:00:00 PM 9.55 49.19 0.055 6.7 0.78 10.97
4/15/2021 5:15:00 PM 9.45 49.01 0.055 6.63 0.76 10.99
4/15/2021 5:30:00 PM 9.37 48.866 0.055 6.69 0.77 11.01
4/15/2021 5:45:00 PM 9.3 48.74 0.055 6.67 0.76 11.03
4/15/2021 6:00:00 PM 9.24 48.632 0.055 6.66 0.77 11.04
4/15/2021 6:15:00 PM 9.19 48.542 0.055 6.66 0.73 11.04
4/15/2021 6:30:00 PM 9.13 48.434 0.055 6.65 0.76 11.04
4/15/2021 6:45:00 PM 9.09 48.362 0.055 6.67 0.76 11.06
4/15/2021 7:00:00 PM 9.04 48.272 0.055 6.64 0.76 11.07
4/15/2021 7:15:00 PM 9 48.2 0.055 6.64 0.8 11.08
4/15/2021 7:30:00 PM 8.95 48.11 0.055 6.67 0.86 11.08
4/15/2021 7:45:00 PM 8.91 48.038 0.055 6.65 0.78 11.08
4/15/2021 8:00:00 PM 8.87 47.966 0.055 6.64 0.77 11.09
4/15/2021 8:15:00 PM 8.84 47.912 0.055 6.66 0.79 11.09
4/15/2021 8:30:00 PM 8.8 47.84 0.056 6.55 0.76 11.1
4/15/2021 8:45:00 PM 8.77 47.786 0.056 6.65 0.78 11.1
4/15/2021 9:00:00 PM 8.74 47.732 0.056 6.65 0.8 11.12
4/15/2021 9:15:00 PM 8.71 47.678 0.056 6.58 0.73 11.13
4/15/2021 9:30:00 PM 8.68 47.624 0.056 6.66 0.79 11.14
4/15/2021 9:45:00 PM 8.64 47.552 0.056 6.66 0.82 11.15
4/15/2021 10:00:00 PM 8.6 47.48 0.056 6.65 0.84 11.16
4/15/2021 10:15:00 PM 8.56 47.408 0.056 6.65 0.78 11.16
4/15/2021 10:30:00 PM 8.52 47.336 0.056 6.65 0.78 11.17
4/15/2021 10:45:00 PM 8.48 47.264 0.056 6.65 0.77 11.19
4/15/2021 11:00:00 PM 8.44 47.192 0.056 6.65 0.82 11.2
4/15/2021 11:15:00 PM 8.39 47.102 0.056 6.56 0.76 11.21
4/15/2021 11:30:00 PM 8.35 47.03 0.056 6.66 0.77 11.22
4/15/2021 11:45:00 PM 8.3 46.94 0.056 6.55 0.77 11.23
4/16/2021 12:00:00 AM 8.26 46.868 0.056 6.66 0.86 11.25
4/16/2021 12:15:00 AM 8.22 46.796 0.056 6.66 0.84 11.26
4/16/2021 12:30:00 AM 8.17 46.706 0.056 6.66 0.76 11.27
4/16/2021 12:45:00 AM 8.13 46.634 0.056 6.65 0.82 11.29
4/16/2021 1:00:00 AM 8.08 46.544 0.056 6.67 0.79 11.29
4/16/2021 1:15:00 AM 8.03 46.454 0.056 6.66 0.83 11.31
4/16/2021 1:30:00 AM 7.98 46.364 0.056 6.63 0.85 11.33
4/16/2021 1:45:00 AM 7.92 46.256 0.056 6.66 0.88 11.34
4/16/2021 2:00:00 AM 7.85 46.13 0.056 6.66 0.84 11.35
4/16/2021 2:15:00 AM 7.79 46.022 0.056 6.65 0.83 11.37
4/16/2021 2:30:00 AM 7.73 45.914 0.056 6.64 0.75 11.39
4/16/2021 2:45:00 AM 7.67 45.806 0.056 6.64 0.86 11.41
4/16/2021 3:00:00 AM 7.62 45.716 0.056 6.66 0.78 11.42
4/16/2021 3:15:00 AM 7.57 45.626 0.056 6.65 0.78 11.44
4/16/2021 3:30:00 AM 7.52 45.536 0.056 6.65 0.76 11.45
4/16/2021 3:45:00 AM 7.48 45.464 0.056 6.65 0.82 11.46
4/16/2021 4:00:00 AM 7.44 45.392 0.056 6.57 0.84 11.48
4/16/2021 4:15:00 AM 7.4 45.32 0.056 6.66 0.76 11.48
4/16/2021 4:30:00 AM 7.36 45.248 0.055 6.65 0.81 11.5
4/16/2021 4:45:00 AM 7.33 45.194 0.055 6.66 0.78 11.51
4/16/2021 5:00:00 AM 7.29 45.122 0.055 6.58 0.79 11.52
4/16/2021 5:15:00 AM 7.25 45.05 0.055 6.66 0.85 11.53
4/16/2021 5:30:00 AM 7.2 44.96 0.055 6.64 0.83 11.54
4/16/2021 5:45:00 AM 7.17 44.906 0.055 6.65 0.72 11.55
4/16/2021 6:00:00 AM 7.13 44.834 0.055 6.64 0.78 11.56
4/16/2021 6:15:00 AM 7.08 44.744 0.055 6.65 0.82 11.58
4/16/2021 6:30:00 AM 7.04 44.672 0.055 6.65 0.76 11.59
4/16/2021 6:45:00 AM 7 44.6 0.055 6.65 0.8 11.61
4/16/2021 7:00:00 AM 6.97 44.546 0.055 6.65 0.74 11.63
4/16/2021 7:15:00 AM 6.94 44.492 0.055 6.66 0.75 11.67
4/16/2021 7:30:00 AM 6.91 44.438 0.055 6.62 0.74 11.7
4/16/2021 7:45:00 AM 6.9 44.42 0.055 6.66 0.71 11.74
4/16/2021 8:00:00 AM 6.89 44.402 0.055 6.68 0.67 11.76
4/16/2021 8:15:00 AM 6.88 44.384 0.054 6.69 0.68 11.77
4/16/2021 8:30:00 AM 6.87 44.366 0.054 6.69 0.69 11.78
4/16/2021 8:45:00 AM 6.86 44.348 0.054 6.7 0.66 11.79
4/16/2021 9:00:00 AM 6.84 44.312 0.054 6.7 0.66 11.8
4/16/2021 9:15:00 AM 6.82 44.276 0.054 6.65 0.66 11.81
4/16/2021 9:30:00 AM 6.82 44.276 0.054 6.72 0.68 11.83
4/16/2021 9:45:00 AM 6.84 44.312 0.054 6.69 0.72 11.83
4/16/2021 10:00:00 AM 6.86 44.348 0.054 6.71 0.67 11.84
4/16/2021 10:15:00 AM 6.9 44.42 0.054 6.72 0.7 11.85
4/16/2021 10:30:00 AM 6.95 44.51 0.055 6.74 0.68 11.84
4/16/2021 10:45:00 AM 6.99 44.582 0.055 6.74 0.71 11.83
4/16/2021 11:00:00 AM 7.